<?xml version="1.0" encoding="UTF-8" standalone="no" ?>
<gpx xmlns="http://www.topografix.com/GPX/1/1" xmlns:xsi="http://www.w3.org/2001/XMLSchema-instance" xsi:schemaLocation="http://www.topografix.com/GPX/1/1 http://www.topografix.com/GPX/1/1/gpx.xsd" version="1.1" creator="VisuGPX - https://www.visugpx.com">
  <metadata>
    <name>lundi 2016 08</name>
    <desc><![CDATA[cumul des lundi du mois d'aout 2016]]></desc>
  </metadata>
  <trk>
    <name><![CDATA[lundi 2016 08 29]]></name>
    <trkseg>
      <trkpt lat="48.85741" lon="2.34715">
        <ele>40.400001525879</ele>
        <time>2016-08-29T18:20:53.000Z</time>
      </trkpt>
      <trkpt lat="48.85766" lon="2.34715">
        <ele>39.200000762939</ele>
        <time>2016-08-29T18:20:59.000Z</time>
      </trkpt>
      <trkpt lat="48.8577" lon="2.34711">
        <ele>38.799999237061</ele>
        <time>2016-08-29T18:21:01.000Z</time>
      </trkpt>
      <trkpt lat="48.85788" lon="2.34697">
        <ele>39.400001525879</ele>
        <time>2016-08-29T18:21:07.000Z</time>
      </trkpt>
      <trkpt lat="48.8579" lon="2.34687">
        <ele>39.200000762939</ele>
        <time>2016-08-29T18:21:09.000Z</time>
      </trkpt>
      <trkpt lat="48.85799" lon="2.3466">
        <ele>41.200000762939</ele>
        <time>2016-08-29T18:21:14.000Z</time>
      </trkpt>
      <trkpt lat="48.85807" lon="2.34637">
        <ele>44.599998474121</ele>
        <time>2016-08-29T18:21:18.000Z</time>
      </trkpt>
      <trkpt lat="48.85813" lon="2.34619">
        <ele>47</ele>
        <time>2016-08-29T18:21:22.000Z</time>
      </trkpt>
      <trkpt lat="48.85815" lon="2.34609">
        <ele>47.400001525879</ele>
        <time>2016-08-29T18:21:25.000Z</time>
      </trkpt>
      <trkpt lat="48.85817" lon="2.34603">
        <ele>47.599998474121</ele>
        <time>2016-08-29T18:21:27.000Z</time>
      </trkpt>
      <trkpt lat="48.85818" lon="2.34597">
        <ele>47.799999237061</ele>
        <time>2016-08-29T18:21:29.000Z</time>
      </trkpt>
      <trkpt lat="48.85818" lon="2.34581">
        <ele>48.200000762939</ele>
        <time>2016-08-29T18:21:35.000Z</time>
      </trkpt>
      <trkpt lat="48.85807" lon="2.34568">
        <ele>46.599998474121</ele>
        <time>2016-08-29T18:21:43.000Z</time>
      </trkpt>
      <trkpt lat="48.85821" lon="2.3455">
        <ele>46.599998474121</ele>
        <time>2016-08-29T18:21:53.000Z</time>
      </trkpt>
      <trkpt lat="48.85825" lon="2.34523">
        <ele>46</ele>
        <time>2016-08-29T18:22:02.000Z</time>
      </trkpt>
      <trkpt lat="48.85825" lon="2.34501">
        <ele>45.200000762939</ele>
        <time>2016-08-29T18:22:08.000Z</time>
      </trkpt>
      <trkpt lat="48.85831" lon="2.34483">
        <ele>45.799999237061</ele>
        <time>2016-08-29T18:22:12.000Z</time>
      </trkpt>
      <trkpt lat="48.8584" lon="2.34456">
        <ele>46.400001525879</ele>
        <time>2016-08-29T18:22:19.000Z</time>
      </trkpt>
      <trkpt lat="48.85846" lon="2.34426">
        <ele>46.400001525879</ele>
        <time>2016-08-29T18:22:26.000Z</time>
      </trkpt>
      <trkpt lat="48.85852" lon="2.344">
        <ele>47.599998474121</ele>
        <time>2016-08-29T18:22:34.000Z</time>
      </trkpt>
      <trkpt lat="48.85871" lon="2.34401">
        <ele>49</ele>
        <time>2016-08-29T18:22:41.000Z</time>
      </trkpt>
      <trkpt lat="48.85892" lon="2.34406">
        <ele>49.799999237061</ele>
        <time>2016-08-29T18:22:48.000Z</time>
      </trkpt>
      <trkpt lat="48.85912" lon="2.34411">
        <ele>50.599998474121</ele>
        <time>2016-08-29T18:22:54.000Z</time>
      </trkpt>
      <trkpt lat="48.85929" lon="2.34429">
        <ele>51.200000762939</ele>
        <time>2016-08-29T18:23:00.000Z</time>
      </trkpt>
      <trkpt lat="48.85943" lon="2.34448">
        <ele>51.599998474121</ele>
        <time>2016-08-29T18:23:06.000Z</time>
      </trkpt>
      <trkpt lat="48.85956" lon="2.34466">
        <ele>51.799999237061</ele>
        <time>2016-08-29T18:23:27.000Z</time>
      </trkpt>
      <trkpt lat="48.85963" lon="2.34467">
        <ele>52</ele>
        <time>2016-08-29T18:23:35.000Z</time>
      </trkpt>
      <trkpt lat="48.85977" lon="2.34456">
        <ele>52.400001525879</ele>
        <time>2016-08-29T18:24:09.000Z</time>
      </trkpt>
      <trkpt lat="48.85988" lon="2.3443">
        <ele>53</ele>
        <time>2016-08-29T18:24:15.000Z</time>
      </trkpt>
      <trkpt lat="48.85996" lon="2.34413">
        <ele>53.400001525879</ele>
        <time>2016-08-29T18:24:20.000Z</time>
      </trkpt>
      <trkpt lat="48.86002" lon="2.34409">
        <ele>53.599998474121</ele>
        <time>2016-08-29T18:24:23.000Z</time>
      </trkpt>
      <trkpt lat="48.86013" lon="2.34418">
        <ele>53.799999237061</ele>
        <time>2016-08-29T18:24:28.000Z</time>
      </trkpt>
      <trkpt lat="48.86033" lon="2.34425">
        <ele>53.599998474121</ele>
        <time>2016-08-29T18:24:33.000Z</time>
      </trkpt>
      <trkpt lat="48.86053" lon="2.34431">
        <ele>52.799999237061</ele>
        <time>2016-08-29T18:24:38.000Z</time>
      </trkpt>
      <trkpt lat="48.86072" lon="2.34437">
        <ele>51.799999237061</ele>
        <time>2016-08-29T18:24:42.000Z</time>
      </trkpt>
      <trkpt lat="48.86091" lon="2.34443">
        <ele>51</ele>
        <time>2016-08-29T18:24:46.000Z</time>
      </trkpt>
      <trkpt lat="48.86109" lon="2.34455">
        <ele>50</ele>
        <time>2016-08-29T18:24:51.000Z</time>
      </trkpt>
      <trkpt lat="48.86127" lon="2.34469">
        <ele>47.200000762939</ele>
        <time>2016-08-29T18:24:57.000Z</time>
      </trkpt>
      <trkpt lat="48.86146" lon="2.34481">
        <ele>44.200000762939</ele>
        <time>2016-08-29T18:25:02.000Z</time>
      </trkpt>
      <trkpt lat="48.86163" lon="2.34477">
        <ele>41.200000762939</ele>
        <time>2016-08-29T18:25:08.000Z</time>
      </trkpt>
      <trkpt lat="48.86174" lon="2.34451">
        <ele>42.400001525879</ele>
        <time>2016-08-29T18:25:12.000Z</time>
      </trkpt>
      <trkpt lat="48.86183" lon="2.34423">
        <ele>44.599998474121</ele>
        <time>2016-08-29T18:25:16.000Z</time>
      </trkpt>
      <trkpt lat="48.8619" lon="2.34402">
        <ele>45.599998474121</ele>
        <time>2016-08-29T18:25:19.000Z</time>
      </trkpt>
      <trkpt lat="48.86197" lon="2.34372">
        <ele>46.599998474121</ele>
        <time>2016-08-29T18:25:23.000Z</time>
      </trkpt>
      <trkpt lat="48.86204" lon="2.34347">
        <ele>47.599998474121</ele>
        <time>2016-08-29T18:25:27.000Z</time>
      </trkpt>
      <trkpt lat="48.86211" lon="2.34321">
        <ele>47</ele>
        <time>2016-08-29T18:25:31.000Z</time>
      </trkpt>
      <trkpt lat="48.86218" lon="2.34291">
        <ele>46.799999237061</ele>
        <time>2016-08-29T18:25:36.000Z</time>
      </trkpt>
      <trkpt lat="48.86223" lon="2.34263">
        <ele>48</ele>
        <time>2016-08-29T18:25:41.000Z</time>
      </trkpt>
      <trkpt lat="48.86224" lon="2.34259">
        <ele>48.599998474121</ele>
        <time>2016-08-29T18:25:42.000Z</time>
      </trkpt>
      <trkpt lat="48.8623" lon="2.34228">
        <ele>49.599998474121</ele>
        <time>2016-08-29T18:25:49.000Z</time>
      </trkpt>
      <trkpt lat="48.86237" lon="2.34199">
        <ele>49.599998474121</ele>
        <time>2016-08-29T18:25:56.000Z</time>
      </trkpt>
      <trkpt lat="48.86234" lon="2.34181">
        <ele>49.799999237061</ele>
        <time>2016-08-29T18:26:03.000Z</time>
      </trkpt>
      <trkpt lat="48.86234" lon="2.34178">
        <ele>49.799999237061</ele>
        <time>2016-08-29T18:26:05.000Z</time>
      </trkpt>
      <trkpt lat="48.86233" lon="2.34175">
        <ele>49.799999237061</ele>
        <time>2016-08-29T18:26:07.000Z</time>
      </trkpt>
      <trkpt lat="48.86254" lon="2.34177">
        <ele>49.799999237061</ele>
        <time>2016-08-29T18:26:17.000Z</time>
      </trkpt>
      <trkpt lat="48.86274" lon="2.34181">
        <ele>49.799999237061</ele>
        <time>2016-08-29T18:26:22.000Z</time>
      </trkpt>
      <trkpt lat="48.86293" lon="2.34188">
        <ele>50</ele>
        <time>2016-08-29T18:26:26.000Z</time>
      </trkpt>
      <trkpt lat="48.86311" lon="2.34196">
        <ele>50</ele>
        <time>2016-08-29T18:26:30.000Z</time>
      </trkpt>
      <trkpt lat="48.86332" lon="2.34207">
        <ele>49.799999237061</ele>
        <time>2016-08-29T18:26:35.000Z</time>
      </trkpt>
      <trkpt lat="48.86352" lon="2.34217">
        <ele>49.599998474121</ele>
        <time>2016-08-29T18:26:40.000Z</time>
      </trkpt>
      <trkpt lat="48.86357" lon="2.34218">
        <ele>49.599998474121</ele>
        <time>2016-08-29T18:26:41.000Z</time>
      </trkpt>
      <trkpt lat="48.86373" lon="2.34224">
        <ele>49.400001525879</ele>
        <time>2016-08-29T18:26:46.000Z</time>
      </trkpt>
      <trkpt lat="48.86388" lon="2.34229">
        <ele>49</ele>
        <time>2016-08-29T18:26:50.000Z</time>
      </trkpt>
      <trkpt lat="48.86394" lon="2.34229">
        <ele>48.799999237061</ele>
        <time>2016-08-29T18:26:52.000Z</time>
      </trkpt>
      <trkpt lat="48.86404" lon="2.34233">
        <ele>48.599998474121</ele>
        <time>2016-08-29T18:26:55.000Z</time>
      </trkpt>
      <trkpt lat="48.86422" lon="2.34235">
        <ele>48.200000762939</ele>
        <time>2016-08-29T18:27:00.000Z</time>
      </trkpt>
      <trkpt lat="48.86441" lon="2.34244">
        <ele>48</ele>
        <time>2016-08-29T18:27:05.000Z</time>
      </trkpt>
      <trkpt lat="48.8646" lon="2.34253">
        <ele>47.599998474121</ele>
        <time>2016-08-29T18:27:10.000Z</time>
      </trkpt>
      <trkpt lat="48.86481" lon="2.34259">
        <ele>47.400001525879</ele>
        <time>2016-08-29T18:27:14.000Z</time>
      </trkpt>
      <trkpt lat="48.86499" lon="2.34265">
        <ele>47</ele>
        <time>2016-08-29T18:27:17.000Z</time>
      </trkpt>
      <trkpt lat="48.86508" lon="2.3427">
        <ele>47</ele>
        <time>2016-08-29T18:27:19.000Z</time>
      </trkpt>
      <trkpt lat="48.86518" lon="2.34273">
        <ele>46.799999237061</ele>
        <time>2016-08-29T18:27:21.000Z</time>
      </trkpt>
      <trkpt lat="48.86527" lon="2.34281">
        <ele>46.599998474121</ele>
        <time>2016-08-29T18:27:24.000Z</time>
      </trkpt>
      <trkpt lat="48.86532" lon="2.34291">
        <ele>46.599998474121</ele>
        <time>2016-08-29T18:27:28.000Z</time>
      </trkpt>
      <trkpt lat="48.8655" lon="2.34306">
        <ele>46.599998474121</ele>
        <time>2016-08-29T18:27:42.000Z</time>
      </trkpt>
      <trkpt lat="48.86572" lon="2.3431">
        <ele>46.799999237061</ele>
        <time>2016-08-29T18:27:46.000Z</time>
      </trkpt>
      <trkpt lat="48.8659" lon="2.34316">
        <ele>47</ele>
        <time>2016-08-29T18:27:49.000Z</time>
      </trkpt>
      <trkpt lat="48.86596" lon="2.34318">
        <ele>47</ele>
        <time>2016-08-29T18:27:50.000Z</time>
      </trkpt>
      <trkpt lat="48.86614" lon="2.34334">
        <ele>47.400001525879</ele>
        <time>2016-08-29T18:27:54.000Z</time>
      </trkpt>
      <trkpt lat="48.8663" lon="2.34343">
        <ele>48.200000762939</ele>
        <time>2016-08-29T18:27:57.000Z</time>
      </trkpt>
      <trkpt lat="48.86648" lon="2.34352">
        <ele>49.200000762939</ele>
        <time>2016-08-29T18:28:02.000Z</time>
      </trkpt>
      <trkpt lat="48.86658" lon="2.34359">
        <ele>49.799999237061</ele>
        <time>2016-08-29T18:28:05.000Z</time>
      </trkpt>
      <trkpt lat="48.86662" lon="2.34362">
        <ele>50</ele>
        <time>2016-08-29T18:28:07.000Z</time>
      </trkpt>
      <trkpt lat="48.86672" lon="2.34369">
        <ele>50.599998474121</ele>
        <time>2016-08-29T18:28:11.000Z</time>
      </trkpt>
      <trkpt lat="48.86691" lon="2.34377">
        <ele>51.400001525879</ele>
        <time>2016-08-29T18:28:16.000Z</time>
      </trkpt>
      <trkpt lat="48.86706" lon="2.34383">
        <ele>51</ele>
        <time>2016-08-29T18:28:20.000Z</time>
      </trkpt>
      <trkpt lat="48.86726" lon="2.34387">
        <ele>50.400001525879</ele>
        <time>2016-08-29T18:28:25.000Z</time>
      </trkpt>
      <trkpt lat="48.86734" lon="2.34385">
        <ele>50.200000762939</ele>
        <time>2016-08-29T18:28:27.000Z</time>
      </trkpt>
      <trkpt lat="48.86752" lon="2.34379">
        <ele>50</ele>
        <time>2016-08-29T18:28:31.000Z</time>
      </trkpt>
      <trkpt lat="48.86767" lon="2.34369">
        <ele>49.599998474121</ele>
        <time>2016-08-29T18:28:35.000Z</time>
      </trkpt>
      <trkpt lat="48.86786" lon="2.34361">
        <ele>49</ele>
        <time>2016-08-29T18:28:41.000Z</time>
      </trkpt>
      <trkpt lat="48.86788" lon="2.3436">
        <ele>49</ele>
        <time>2016-08-29T18:28:42.000Z</time>
      </trkpt>
      <trkpt lat="48.86795" lon="2.34365">
        <ele>48.599998474121</ele>
        <time>2016-08-29T18:28:54.000Z</time>
      </trkpt>
      <trkpt lat="48.86814" lon="2.34354">
        <ele>48.400001525879</ele>
        <time>2016-08-29T18:29:06.000Z</time>
      </trkpt>
      <trkpt lat="48.86832" lon="2.34347">
        <ele>48.599998474121</ele>
        <time>2016-08-29T18:29:11.000Z</time>
      </trkpt>
      <trkpt lat="48.8685" lon="2.34335">
        <ele>48.799999237061</ele>
        <time>2016-08-29T18:29:16.000Z</time>
      </trkpt>
      <trkpt lat="48.86869" lon="2.34325">
        <ele>48.799999237061</ele>
        <time>2016-08-29T18:29:21.000Z</time>
      </trkpt>
      <trkpt lat="48.86886" lon="2.34313">
        <ele>48.599998474121</ele>
        <time>2016-08-29T18:29:25.000Z</time>
      </trkpt>
      <trkpt lat="48.86906" lon="2.34303">
        <ele>48.400001525879</ele>
        <time>2016-08-29T18:29:31.000Z</time>
      </trkpt>
      <trkpt lat="48.86924" lon="2.34291">
        <ele>48</ele>
        <time>2016-08-29T18:29:36.000Z</time>
      </trkpt>
      <trkpt lat="48.86944" lon="2.3428">
        <ele>47.400001525879</ele>
        <time>2016-08-29T18:29:41.000Z</time>
      </trkpt>
      <trkpt lat="48.86964" lon="2.34271">
        <ele>47.200000762939</ele>
        <time>2016-08-29T18:29:46.000Z</time>
      </trkpt>
      <trkpt lat="48.86985" lon="2.3426">
        <ele>47.200000762939</ele>
        <time>2016-08-29T18:29:49.000Z</time>
      </trkpt>
      <trkpt lat="48.87005" lon="2.34256">
        <ele>47.200000762939</ele>
        <time>2016-08-29T18:29:53.000Z</time>
      </trkpt>
      <trkpt lat="48.8701" lon="2.34256">
        <ele>47</ele>
        <time>2016-08-29T18:29:54.000Z</time>
      </trkpt>
      <trkpt lat="48.87028" lon="2.3426">
        <ele>47.200000762939</ele>
        <time>2016-08-29T18:29:58.000Z</time>
      </trkpt>
      <trkpt lat="48.87037" lon="2.34264">
        <ele>47.200000762939</ele>
        <time>2016-08-29T18:30:00.000Z</time>
      </trkpt>
      <trkpt lat="48.87055" lon="2.34269">
        <ele>47.400001525879</ele>
        <time>2016-08-29T18:30:04.000Z</time>
      </trkpt>
      <trkpt lat="48.87075" lon="2.34276">
        <ele>47.599998474121</ele>
        <time>2016-08-29T18:30:09.000Z</time>
      </trkpt>
      <trkpt lat="48.87082" lon="2.34277">
        <ele>47.799999237061</ele>
        <time>2016-08-29T18:30:11.000Z</time>
      </trkpt>
      <trkpt lat="48.87092" lon="2.34279">
        <ele>47.799999237061</ele>
        <time>2016-08-29T18:30:14.000Z</time>
      </trkpt>
      <trkpt lat="48.8711" lon="2.34286">
        <ele>48</ele>
        <time>2016-08-29T18:30:20.000Z</time>
      </trkpt>
      <trkpt lat="48.8712" lon="2.34289">
        <ele>47.799999237061</ele>
        <time>2016-08-29T18:30:24.000Z</time>
      </trkpt>
      <trkpt lat="48.87133" lon="2.34289">
        <ele>47.599998474121</ele>
        <time>2016-08-29T18:30:35.000Z</time>
      </trkpt>
      <trkpt lat="48.87153" lon="2.34294">
        <ele>47.400001525879</ele>
        <time>2016-08-29T18:31:13.000Z</time>
      </trkpt>
      <trkpt lat="48.87174" lon="2.34301">
        <ele>47.599998474121</ele>
        <time>2016-08-29T18:31:18.000Z</time>
      </trkpt>
      <trkpt lat="48.87193" lon="2.34305">
        <ele>47.599998474121</ele>
        <time>2016-08-29T18:31:22.000Z</time>
      </trkpt>
      <trkpt lat="48.87214" lon="2.34308">
        <ele>47.200000762939</ele>
        <time>2016-08-29T18:31:27.000Z</time>
      </trkpt>
      <trkpt lat="48.87236" lon="2.34308">
        <ele>47</ele>
        <time>2016-08-29T18:31:32.000Z</time>
      </trkpt>
      <trkpt lat="48.87257" lon="2.34309">
        <ele>46.799999237061</ele>
        <time>2016-08-29T18:31:38.000Z</time>
      </trkpt>
      <trkpt lat="48.87276" lon="2.34302">
        <ele>46.599998474121</ele>
        <time>2016-08-29T18:31:43.000Z</time>
      </trkpt>
      <trkpt lat="48.87295" lon="2.34299">
        <ele>46.799999237061</ele>
        <time>2016-08-29T18:31:48.000Z</time>
      </trkpt>
      <trkpt lat="48.87314" lon="2.34296">
        <ele>46.799999237061</ele>
        <time>2016-08-29T18:31:53.000Z</time>
      </trkpt>
      <trkpt lat="48.87332" lon="2.34287">
        <ele>46.799999237061</ele>
        <time>2016-08-29T18:31:57.000Z</time>
      </trkpt>
      <trkpt lat="48.87352" lon="2.34269">
        <ele>46.799999237061</ele>
        <time>2016-08-29T18:32:01.000Z</time>
      </trkpt>
      <trkpt lat="48.87373" lon="2.34252">
        <ele>46.599998474121</ele>
        <time>2016-08-29T18:32:05.000Z</time>
      </trkpt>
      <trkpt lat="48.87392" lon="2.34235">
        <ele>46.200000762939</ele>
        <time>2016-08-29T18:32:09.000Z</time>
      </trkpt>
      <trkpt lat="48.8741" lon="2.34216">
        <ele>45.799999237061</ele>
        <time>2016-08-29T18:32:13.000Z</time>
      </trkpt>
      <trkpt lat="48.87425" lon="2.34199">
        <ele>46.200000762939</ele>
        <time>2016-08-29T18:32:16.000Z</time>
      </trkpt>
      <trkpt lat="48.87442" lon="2.34177">
        <ele>46.599998474121</ele>
        <time>2016-08-29T18:32:20.000Z</time>
      </trkpt>
      <trkpt lat="48.87459" lon="2.34157">
        <ele>46.599998474121</ele>
        <time>2016-08-29T18:32:24.000Z</time>
      </trkpt>
      <trkpt lat="48.87474" lon="2.34137">
        <ele>46.200000762939</ele>
        <time>2016-08-29T18:32:28.000Z</time>
      </trkpt>
      <trkpt lat="48.8749" lon="2.34116">
        <ele>46.400001525879</ele>
        <time>2016-08-29T18:32:32.000Z</time>
      </trkpt>
      <trkpt lat="48.87505" lon="2.34094">
        <ele>47.400001525879</ele>
        <time>2016-08-29T18:32:37.000Z</time>
      </trkpt>
      <trkpt lat="48.87507" lon="2.34092">
        <ele>47.400001525879</ele>
        <time>2016-08-29T18:32:38.000Z</time>
      </trkpt>
      <trkpt lat="48.87525" lon="2.34078">
        <ele>48</ele>
        <time>2016-08-29T18:32:44.000Z</time>
      </trkpt>
      <trkpt lat="48.87544" lon="2.34069">
        <ele>48.200000762939</ele>
        <time>2016-08-29T18:32:50.000Z</time>
      </trkpt>
      <trkpt lat="48.87561" lon="2.34054">
        <ele>48.200000762939</ele>
        <time>2016-08-29T18:32:56.000Z</time>
      </trkpt>
      <trkpt lat="48.87579" lon="2.3404">
        <ele>48</ele>
        <time>2016-08-29T18:33:01.000Z</time>
      </trkpt>
      <trkpt lat="48.87593" lon="2.3402">
        <ele>47.599998474121</ele>
        <time>2016-08-29T18:33:06.000Z</time>
      </trkpt>
      <trkpt lat="48.87594" lon="2.34019">
        <ele>47.599998474121</ele>
        <time>2016-08-29T18:33:08.000Z</time>
      </trkpt>
      <trkpt lat="48.87606" lon="2.33999">
        <ele>47</ele>
        <time>2016-08-29T18:33:38.000Z</time>
      </trkpt>
      <trkpt lat="48.87623" lon="2.33985">
        <ele>46.799999237061</ele>
        <time>2016-08-29T18:33:43.000Z</time>
      </trkpt>
      <trkpt lat="48.87643" lon="2.33969">
        <ele>46.599998474121</ele>
        <time>2016-08-29T18:33:49.000Z</time>
      </trkpt>
      <trkpt lat="48.87657" lon="2.33951">
        <ele>46.599998474121</ele>
        <time>2016-08-29T18:33:54.000Z</time>
      </trkpt>
      <trkpt lat="48.87667" lon="2.33927">
        <ele>46.799999237061</ele>
        <time>2016-08-29T18:34:03.000Z</time>
      </trkpt>
      <trkpt lat="48.87682" lon="2.33903">
        <ele>46.799999237061</ele>
        <time>2016-08-29T18:34:10.000Z</time>
      </trkpt>
      <trkpt lat="48.877" lon="2.33891">
        <ele>47.799999237061</ele>
        <time>2016-08-29T18:34:15.000Z</time>
      </trkpt>
      <trkpt lat="48.87718" lon="2.33878">
        <ele>48.799999237061</ele>
        <time>2016-08-29T18:34:20.000Z</time>
      </trkpt>
      <trkpt lat="48.87734" lon="2.33865">
        <ele>49.599998474121</ele>
        <time>2016-08-29T18:34:24.000Z</time>
      </trkpt>
      <trkpt lat="48.8775" lon="2.3385">
        <ele>50.200000762939</ele>
        <time>2016-08-29T18:34:28.000Z</time>
      </trkpt>
      <trkpt lat="48.87766" lon="2.33833">
        <ele>50.799999237061</ele>
        <time>2016-08-29T18:34:32.000Z</time>
      </trkpt>
      <trkpt lat="48.87781" lon="2.33816">
        <ele>50.599998474121</ele>
        <time>2016-08-29T18:34:36.000Z</time>
      </trkpt>
      <trkpt lat="48.87796" lon="2.33801">
        <ele>50.400001525879</ele>
        <time>2016-08-29T18:34:40.000Z</time>
      </trkpt>
      <trkpt lat="48.87813" lon="2.33785">
        <ele>50.400001525879</ele>
        <time>2016-08-29T18:34:44.000Z</time>
      </trkpt>
      <trkpt lat="48.87824" lon="2.3377">
        <ele>51</ele>
        <time>2016-08-29T18:34:47.000Z</time>
      </trkpt>
      <trkpt lat="48.87841" lon="2.33757">
        <ele>52</ele>
        <time>2016-08-29T18:34:51.000Z</time>
      </trkpt>
      <trkpt lat="48.8785" lon="2.33741">
        <ele>52.599998474121</ele>
        <time>2016-08-29T18:34:54.000Z</time>
      </trkpt>
      <trkpt lat="48.87865" lon="2.33722">
        <ele>53.200000762939</ele>
        <time>2016-08-29T18:34:58.000Z</time>
      </trkpt>
      <trkpt lat="48.87879" lon="2.33704">
        <ele>53.799999237061</ele>
        <time>2016-08-29T18:35:02.000Z</time>
      </trkpt>
      <trkpt lat="48.87895" lon="2.33681">
        <ele>54.799999237061</ele>
        <time>2016-08-29T18:35:07.000Z</time>
      </trkpt>
      <trkpt lat="48.87899" lon="2.33678">
        <ele>55</ele>
        <time>2016-08-29T18:35:08.000Z</time>
      </trkpt>
      <trkpt lat="48.87907" lon="2.33671">
        <ele>55.599998474121</ele>
        <time>2016-08-29T18:35:10.000Z</time>
      </trkpt>
      <trkpt lat="48.87923" lon="2.33656">
        <ele>57</ele>
        <time>2016-08-29T18:35:14.000Z</time>
      </trkpt>
      <trkpt lat="48.87941" lon="2.33643">
        <ele>58.400001525879</ele>
        <time>2016-08-29T18:35:18.000Z</time>
      </trkpt>
      <trkpt lat="48.87956" lon="2.33627">
        <ele>59.400001525879</ele>
        <time>2016-08-29T18:35:22.000Z</time>
      </trkpt>
      <trkpt lat="48.87971" lon="2.3361">
        <ele>60.599998474121</ele>
        <time>2016-08-29T18:35:26.000Z</time>
      </trkpt>
      <trkpt lat="48.87986" lon="2.33593">
        <ele>61.200000762939</ele>
        <time>2016-08-29T18:35:30.000Z</time>
      </trkpt>
      <trkpt lat="48.88002" lon="2.33575">
        <ele>62</ele>
        <time>2016-08-29T18:35:34.000Z</time>
      </trkpt>
      <trkpt lat="48.8801" lon="2.33568">
        <ele>62.599998474121</ele>
        <time>2016-08-29T18:35:36.000Z</time>
      </trkpt>
      <trkpt lat="48.88023" lon="2.33545">
        <ele>62.200000762939</ele>
        <time>2016-08-29T18:35:41.000Z</time>
      </trkpt>
      <trkpt lat="48.88026" lon="2.33539">
        <ele>62</ele>
        <time>2016-08-29T18:35:44.000Z</time>
      </trkpt>
      <trkpt lat="48.88025" lon="2.33537">
        <ele>62</ele>
        <time>2016-08-29T18:35:46.000Z</time>
      </trkpt>
      <trkpt lat="48.88034" lon="2.33522">
        <ele>61.799999237061</ele>
        <time>2016-08-29T18:36:23.000Z</time>
      </trkpt>
      <trkpt lat="48.88049" lon="2.33509">
        <ele>62</ele>
        <time>2016-08-29T18:36:32.000Z</time>
      </trkpt>
      <trkpt lat="48.88064" lon="2.33495">
        <ele>62.400001525879</ele>
        <time>2016-08-29T18:36:48.000Z</time>
      </trkpt>
      <trkpt lat="48.88081" lon="2.33485">
        <ele>63</ele>
        <time>2016-08-29T18:36:57.000Z</time>
      </trkpt>
      <trkpt lat="48.88097" lon="2.33467">
        <ele>63.599998474121</ele>
        <time>2016-08-29T18:37:06.000Z</time>
      </trkpt>
      <trkpt lat="48.88114" lon="2.33457">
        <ele>64.400001525879</ele>
        <time>2016-08-29T18:37:11.000Z</time>
      </trkpt>
      <trkpt lat="48.88132" lon="2.33447">
        <ele>65.199996948242</ele>
        <time>2016-08-29T18:37:15.000Z</time>
      </trkpt>
      <trkpt lat="48.8814" lon="2.3344">
        <ele>65.400001525879</ele>
        <time>2016-08-29T18:37:17.000Z</time>
      </trkpt>
      <trkpt lat="48.88158" lon="2.33423">
        <ele>65.400001525879</ele>
        <time>2016-08-29T18:37:21.000Z</time>
      </trkpt>
      <trkpt lat="48.88175" lon="2.33403">
        <ele>65.199996948242</ele>
        <time>2016-08-29T18:37:25.000Z</time>
      </trkpt>
      <trkpt lat="48.88186" lon="2.33384">
        <ele>65.800003051758</ele>
        <time>2016-08-29T18:37:27.000Z</time>
      </trkpt>
      <trkpt lat="48.88204" lon="2.33368">
        <ele>66.800003051758</ele>
        <time>2016-08-29T18:37:30.000Z</time>
      </trkpt>
      <trkpt lat="48.8821" lon="2.33364">
        <ele>67.199996948242</ele>
        <time>2016-08-29T18:37:31.000Z</time>
      </trkpt>
      <trkpt lat="48.88233" lon="2.33348">
        <ele>68.199996948242</ele>
        <time>2016-08-29T18:37:35.000Z</time>
      </trkpt>
      <trkpt lat="48.88253" lon="2.33335">
        <ele>69.199996948242</ele>
        <time>2016-08-29T18:37:38.000Z</time>
      </trkpt>
      <trkpt lat="48.8827" lon="2.33323">
        <ele>69.800003051758</ele>
        <time>2016-08-29T18:37:41.000Z</time>
      </trkpt>
      <trkpt lat="48.88287" lon="2.33309">
        <ele>70.400001525879</ele>
        <time>2016-08-29T18:37:44.000Z</time>
      </trkpt>
      <trkpt lat="48.88305" lon="2.33291">
        <ele>70.800003051758</ele>
        <time>2016-08-29T18:37:47.000Z</time>
      </trkpt>
      <trkpt lat="48.88325" lon="2.33277">
        <ele>71.199996948242</ele>
        <time>2016-08-29T18:37:52.000Z</time>
      </trkpt>
      <trkpt lat="48.88336" lon="2.33272">
        <ele>71.400001525879</ele>
        <time>2016-08-29T18:37:55.000Z</time>
      </trkpt>
      <trkpt lat="48.88346" lon="2.33269">
        <ele>71.599998474121</ele>
        <time>2016-08-29T18:37:57.000Z</time>
      </trkpt>
      <trkpt lat="48.88351" lon="2.3327">
        <ele>71.599998474121</ele>
        <time>2016-08-29T18:38:01.000Z</time>
      </trkpt>
      <trkpt lat="48.88365" lon="2.33268">
        <ele>72</ele>
        <time>2016-08-29T18:38:57.000Z</time>
      </trkpt>
      <trkpt lat="48.88377" lon="2.33269">
        <ele>72.199996948242</ele>
        <time>2016-08-29T18:39:03.000Z</time>
      </trkpt>
      <trkpt lat="48.88384" lon="2.33258">
        <ele>72</ele>
        <time>2016-08-29T18:39:08.000Z</time>
      </trkpt>
      <trkpt lat="48.88394" lon="2.3323">
        <ele>71.400001525879</ele>
        <time>2016-08-29T18:39:14.000Z</time>
      </trkpt>
      <trkpt lat="48.88399" lon="2.33217">
        <ele>71.199996948242</ele>
        <time>2016-08-29T18:39:16.000Z</time>
      </trkpt>
      <trkpt lat="48.88405" lon="2.33197">
        <ele>71</ele>
        <time>2016-08-29T18:39:19.000Z</time>
      </trkpt>
      <trkpt lat="48.88415" lon="2.33166">
        <ele>71</ele>
        <time>2016-08-29T18:39:23.000Z</time>
      </trkpt>
      <trkpt lat="48.88422" lon="2.3314">
        <ele>71.400001525879</ele>
        <time>2016-08-29T18:39:26.000Z</time>
      </trkpt>
      <trkpt lat="48.88427" lon="2.33113">
        <ele>72</ele>
        <time>2016-08-29T18:39:29.000Z</time>
      </trkpt>
      <trkpt lat="48.88433" lon="2.33086">
        <ele>72.800003051758</ele>
        <time>2016-08-29T18:39:32.000Z</time>
      </trkpt>
      <trkpt lat="48.8844" lon="2.3306">
        <ele>73</ele>
        <time>2016-08-29T18:39:35.000Z</time>
      </trkpt>
      <trkpt lat="48.88442" lon="2.33052">
        <ele>73</ele>
        <time>2016-08-29T18:39:36.000Z</time>
      </trkpt>
      <trkpt lat="48.88447" lon="2.33026">
        <ele>73</ele>
        <time>2016-08-29T18:39:39.000Z</time>
      </trkpt>
      <trkpt lat="48.88451" lon="2.3301">
        <ele>73.199996948242</ele>
        <time>2016-08-29T18:39:42.000Z</time>
      </trkpt>
      <trkpt lat="48.88453" lon="2.33003">
        <ele>73</ele>
        <time>2016-08-29T18:39:44.000Z</time>
      </trkpt>
      <trkpt lat="48.88455" lon="2.32997">
        <ele>72.800003051758</ele>
        <time>2016-08-29T18:39:46.000Z</time>
      </trkpt>
      <trkpt lat="48.88461" lon="2.32972">
        <ele>72.199996948242</ele>
        <time>2016-08-29T18:39:55.000Z</time>
      </trkpt>
      <trkpt lat="48.88461" lon="2.3297">
        <ele>72</ele>
        <time>2016-08-29T18:39:57.000Z</time>
      </trkpt>
      <trkpt lat="48.88464" lon="2.32958">
        <ele>71.800003051758</ele>
        <time>2016-08-29T18:40:17.000Z</time>
      </trkpt>
      <trkpt lat="48.88484" lon="2.32949">
        <ele>71.800003051758</ele>
        <time>2016-08-29T18:40:24.000Z</time>
      </trkpt>
      <trkpt lat="48.88503" lon="2.32944">
        <ele>72.599998474121</ele>
        <time>2016-08-29T18:40:31.000Z</time>
      </trkpt>
      <trkpt lat="48.88523" lon="2.3294">
        <ele>73.400001525879</ele>
        <time>2016-08-29T18:40:40.000Z</time>
      </trkpt>
      <trkpt lat="48.8854" lon="2.32928">
        <ele>73.800003051758</ele>
        <time>2016-08-29T18:40:47.000Z</time>
      </trkpt>
      <trkpt lat="48.88556" lon="2.3291">
        <ele>74.800003051758</ele>
        <time>2016-08-29T18:40:55.000Z</time>
      </trkpt>
      <trkpt lat="48.88572" lon="2.3289">
        <ele>74.599998474121</ele>
        <time>2016-08-29T18:41:00.000Z</time>
      </trkpt>
      <trkpt lat="48.88588" lon="2.32871">
        <ele>75.400001525879</ele>
        <time>2016-08-29T18:41:05.000Z</time>
      </trkpt>
      <trkpt lat="48.88603" lon="2.32853">
        <ele>76.599998474121</ele>
        <time>2016-08-29T18:41:10.000Z</time>
      </trkpt>
      <trkpt lat="48.88622" lon="2.32836">
        <ele>77</ele>
        <time>2016-08-29T18:41:15.000Z</time>
      </trkpt>
      <trkpt lat="48.8864" lon="2.32819">
        <ele>77.199996948242</ele>
        <time>2016-08-29T18:41:20.000Z</time>
      </trkpt>
      <trkpt lat="48.88653" lon="2.32795">
        <ele>76.800003051758</ele>
        <time>2016-08-29T18:41:26.000Z</time>
      </trkpt>
      <trkpt lat="48.88661" lon="2.32786">
        <ele>77</ele>
        <time>2016-08-29T18:41:30.000Z</time>
      </trkpt>
      <trkpt lat="48.8868" lon="2.32792">
        <ele>77.599998474121</ele>
        <time>2016-08-29T18:41:37.000Z</time>
      </trkpt>
      <trkpt lat="48.88697" lon="2.32809">
        <ele>77.599998474121</ele>
        <time>2016-08-29T18:41:43.000Z</time>
      </trkpt>
      <trkpt lat="48.88714" lon="2.32823">
        <ele>76.800003051758</ele>
        <time>2016-08-29T18:41:49.000Z</time>
      </trkpt>
      <trkpt lat="48.88731" lon="2.32841">
        <ele>75.400001525879</ele>
        <time>2016-08-29T18:41:55.000Z</time>
      </trkpt>
      <trkpt lat="48.88745" lon="2.32845">
        <ele>74.400001525879</ele>
        <time>2016-08-29T18:42:01.000Z</time>
      </trkpt>
      <trkpt lat="48.88761" lon="2.3283">
        <ele>74.599998474121</ele>
        <time>2016-08-29T18:42:07.000Z</time>
      </trkpt>
      <trkpt lat="48.88777" lon="2.32815">
        <ele>73.800003051758</ele>
        <time>2016-08-29T18:42:13.000Z</time>
      </trkpt>
      <trkpt lat="48.88794" lon="2.32798">
        <ele>72.199996948242</ele>
        <time>2016-08-29T18:42:20.000Z</time>
      </trkpt>
      <trkpt lat="48.88807" lon="2.32778">
        <ele>71</ele>
        <time>2016-08-29T18:42:26.000Z</time>
      </trkpt>
      <trkpt lat="48.8882" lon="2.32761">
        <ele>70.599998474121</ele>
        <time>2016-08-29T18:42:34.000Z</time>
      </trkpt>
      <trkpt lat="48.88834" lon="2.32765">
        <ele>69.199996948242</ele>
        <time>2016-08-29T18:42:39.000Z</time>
      </trkpt>
      <trkpt lat="48.88838" lon="2.32765">
        <ele>69</ele>
        <time>2016-08-29T18:42:40.000Z</time>
      </trkpt>
      <trkpt lat="48.88854" lon="2.32777">
        <ele>67.199996948242</ele>
        <time>2016-08-29T18:42:45.000Z</time>
      </trkpt>
      <trkpt lat="48.88857" lon="2.32779">
        <ele>66.800003051758</ele>
        <time>2016-08-29T18:42:46.000Z</time>
      </trkpt>
      <trkpt lat="48.88877" lon="2.32787">
        <ele>66</ele>
        <time>2016-08-29T18:42:52.000Z</time>
      </trkpt>
      <trkpt lat="48.88892" lon="2.32792">
        <ele>65.599998474121</ele>
        <time>2016-08-29T18:42:59.000Z</time>
      </trkpt>
      <trkpt lat="48.8891" lon="2.32798">
        <ele>64.800003051758</ele>
        <time>2016-08-29T18:43:35.000Z</time>
      </trkpt>
      <trkpt lat="48.88926" lon="2.32809">
        <ele>64</ele>
        <time>2016-08-29T18:43:43.000Z</time>
      </trkpt>
      <trkpt lat="48.88941" lon="2.32825">
        <ele>63</ele>
        <time>2016-08-29T18:43:49.000Z</time>
      </trkpt>
      <trkpt lat="48.88958" lon="2.32834">
        <ele>63</ele>
        <time>2016-08-29T18:43:56.000Z</time>
      </trkpt>
      <trkpt lat="48.88973" lon="2.32814">
        <ele>63.200000762939</ele>
        <time>2016-08-29T18:44:04.000Z</time>
      </trkpt>
      <trkpt lat="48.88983" lon="2.32791">
        <ele>63.400001525879</ele>
        <time>2016-08-29T18:44:09.000Z</time>
      </trkpt>
      <trkpt lat="48.88995" lon="2.32764">
        <ele>62.799999237061</ele>
        <time>2016-08-29T18:44:14.000Z</time>
      </trkpt>
      <trkpt lat="48.89008" lon="2.3274">
        <ele>62.200000762939</ele>
        <time>2016-08-29T18:44:19.000Z</time>
      </trkpt>
      <trkpt lat="48.89021" lon="2.32717">
        <ele>62</ele>
        <time>2016-08-29T18:44:27.000Z</time>
      </trkpt>
      <trkpt lat="48.89033" lon="2.32694">
        <ele>61.799999237061</ele>
        <time>2016-08-29T18:44:34.000Z</time>
      </trkpt>
      <trkpt lat="48.89045" lon="2.32672">
        <ele>61.200000762939</ele>
        <time>2016-08-29T18:44:42.000Z</time>
      </trkpt>
      <trkpt lat="48.89048" lon="2.32671">
        <ele>61</ele>
        <time>2016-08-29T18:44:47.000Z</time>
      </trkpt>
      <trkpt lat="48.89046" lon="2.32665">
        <ele>61</ele>
        <time>2016-08-29T18:44:57.000Z</time>
      </trkpt>
      <trkpt lat="48.89059" lon="2.3266">
        <ele>60.200000762939</ele>
        <time>2016-08-29T18:45:12.000Z</time>
      </trkpt>
      <trkpt lat="48.89078" lon="2.32661">
        <ele>59.200000762939</ele>
        <time>2016-08-29T18:45:17.000Z</time>
      </trkpt>
      <trkpt lat="48.89097" lon="2.32665">
        <ele>58.400001525879</ele>
        <time>2016-08-29T18:45:23.000Z</time>
      </trkpt>
      <trkpt lat="48.89116" lon="2.32669">
        <ele>57.799999237061</ele>
        <time>2016-08-29T18:45:30.000Z</time>
      </trkpt>
      <trkpt lat="48.89136" lon="2.3267">
        <ele>57</ele>
        <time>2016-08-29T18:45:36.000Z</time>
      </trkpt>
      <trkpt lat="48.89155" lon="2.32678">
        <ele>56.400001525879</ele>
        <time>2016-08-29T18:45:44.000Z</time>
      </trkpt>
      <trkpt lat="48.89176" lon="2.32682">
        <ele>55.799999237061</ele>
        <time>2016-08-29T18:45:49.000Z</time>
      </trkpt>
      <trkpt lat="48.89194" lon="2.32689">
        <ele>55.200000762939</ele>
        <time>2016-08-29T18:45:53.000Z</time>
      </trkpt>
      <trkpt lat="48.89212" lon="2.32697">
        <ele>55.200000762939</ele>
        <time>2016-08-29T18:45:58.000Z</time>
      </trkpt>
      <trkpt lat="48.89234" lon="2.32702">
        <ele>54.799999237061</ele>
        <time>2016-08-29T18:46:03.000Z</time>
      </trkpt>
      <trkpt lat="48.89255" lon="2.32708">
        <ele>54.200000762939</ele>
        <time>2016-08-29T18:46:09.000Z</time>
      </trkpt>
      <trkpt lat="48.89273" lon="2.32712">
        <ele>53.799999237061</ele>
        <time>2016-08-29T18:46:14.000Z</time>
      </trkpt>
      <trkpt lat="48.89294" lon="2.32726">
        <ele>53.799999237061</ele>
        <time>2016-08-29T18:46:19.000Z</time>
      </trkpt>
      <trkpt lat="48.89312" lon="2.32737">
        <ele>53.599998474121</ele>
        <time>2016-08-29T18:46:24.000Z</time>
      </trkpt>
      <trkpt lat="48.8933" lon="2.32745">
        <ele>53.599998474121</ele>
        <time>2016-08-29T18:46:29.000Z</time>
      </trkpt>
      <trkpt lat="48.89352" lon="2.3275">
        <ele>53.200000762939</ele>
        <time>2016-08-29T18:46:34.000Z</time>
      </trkpt>
      <trkpt lat="48.89373" lon="2.32756">
        <ele>53.599998474121</ele>
        <time>2016-08-29T18:46:39.000Z</time>
      </trkpt>
      <trkpt lat="48.89395" lon="2.32759">
        <ele>54.599998474121</ele>
        <time>2016-08-29T18:46:44.000Z</time>
      </trkpt>
      <trkpt lat="48.89404" lon="2.32759">
        <ele>55</ele>
        <time>2016-08-29T18:46:46.000Z</time>
      </trkpt>
      <trkpt lat="48.89423" lon="2.32763">
        <ele>55.799999237061</ele>
        <time>2016-08-29T18:46:50.000Z</time>
      </trkpt>
      <trkpt lat="48.89442" lon="2.32767">
        <ele>56.400001525879</ele>
        <time>2016-08-29T18:46:54.000Z</time>
      </trkpt>
      <trkpt lat="48.89459" lon="2.32772">
        <ele>56</ele>
        <time>2016-08-29T18:46:58.000Z</time>
      </trkpt>
      <trkpt lat="48.89469" lon="2.32778">
        <ele>55.599998474121</ele>
        <time>2016-08-29T18:47:01.000Z</time>
      </trkpt>
      <trkpt lat="48.89488" lon="2.32782">
        <ele>54.799999237061</ele>
        <time>2016-08-29T18:47:05.000Z</time>
      </trkpt>
      <trkpt lat="48.89505" lon="2.32786">
        <ele>53.799999237061</ele>
        <time>2016-08-29T18:47:09.000Z</time>
      </trkpt>
      <trkpt lat="48.89517" lon="2.32792">
        <ele>53.200000762939</ele>
        <time>2016-08-29T18:47:12.000Z</time>
      </trkpt>
      <trkpt lat="48.89538" lon="2.32798">
        <ele>53</ele>
        <time>2016-08-29T18:47:18.000Z</time>
      </trkpt>
      <trkpt lat="48.89539" lon="2.328">
        <ele>53</ele>
        <time>2016-08-29T18:47:19.000Z</time>
      </trkpt>
      <trkpt lat="48.89547" lon="2.32805">
        <ele>53</ele>
        <time>2016-08-29T18:47:22.000Z</time>
      </trkpt>
      <trkpt lat="48.89565" lon="2.32812">
        <ele>53</ele>
        <time>2016-08-29T18:47:27.000Z</time>
      </trkpt>
      <trkpt lat="48.89584" lon="2.32821">
        <ele>53</ele>
        <time>2016-08-29T18:47:32.000Z</time>
      </trkpt>
      <trkpt lat="48.89606" lon="2.32828">
        <ele>53</ele>
        <time>2016-08-29T18:47:37.000Z</time>
      </trkpt>
      <trkpt lat="48.89625" lon="2.32835">
        <ele>53.799999237061</ele>
        <time>2016-08-29T18:47:42.000Z</time>
      </trkpt>
      <trkpt lat="48.89647" lon="2.3284">
        <ele>54.599998474121</ele>
        <time>2016-08-29T18:47:47.000Z</time>
      </trkpt>
      <trkpt lat="48.89665" lon="2.32844">
        <ele>55.599998474121</ele>
        <time>2016-08-29T18:47:51.000Z</time>
      </trkpt>
      <trkpt lat="48.89686" lon="2.32845">
        <ele>56.400001525879</ele>
        <time>2016-08-29T18:47:55.000Z</time>
      </trkpt>
      <trkpt lat="48.89695" lon="2.32847">
        <ele>56.400001525879</ele>
        <time>2016-08-29T18:47:57.000Z</time>
      </trkpt>
      <trkpt lat="48.89716" lon="2.32857">
        <ele>55.400001525879</ele>
        <time>2016-08-29T18:48:02.000Z</time>
      </trkpt>
      <trkpt lat="48.89735" lon="2.32865">
        <ele>54.599998474121</ele>
        <time>2016-08-29T18:48:08.000Z</time>
      </trkpt>
      <trkpt lat="48.89737" lon="2.32867">
        <ele>54.400001525879</ele>
        <time>2016-08-29T18:48:09.000Z</time>
      </trkpt>
      <trkpt lat="48.89743" lon="2.32873">
        <ele>54</ele>
        <time>2016-08-29T18:48:12.000Z</time>
      </trkpt>
      <trkpt lat="48.89752" lon="2.32881">
        <ele>53.599998474121</ele>
        <time>2016-08-29T18:48:15.000Z</time>
      </trkpt>
      <trkpt lat="48.89758" lon="2.32888">
        <ele>53.200000762939</ele>
        <time>2016-08-29T18:48:18.000Z</time>
      </trkpt>
      <trkpt lat="48.89767" lon="2.329">
        <ele>52.599998474121</ele>
        <time>2016-08-29T18:49:05.000Z</time>
      </trkpt>
      <trkpt lat="48.89788" lon="2.32911">
        <ele>51.799999237061</ele>
        <time>2016-08-29T18:49:17.000Z</time>
      </trkpt>
      <trkpt lat="48.89806" lon="2.32917">
        <ele>51.200000762939</ele>
        <time>2016-08-29T18:49:22.000Z</time>
      </trkpt>
      <trkpt lat="48.89827" lon="2.32927">
        <ele>50.799999237061</ele>
        <time>2016-08-29T18:49:27.000Z</time>
      </trkpt>
      <trkpt lat="48.89846" lon="2.32934">
        <ele>50.400001525879</ele>
        <time>2016-08-29T18:49:31.000Z</time>
      </trkpt>
      <trkpt lat="48.89866" lon="2.32941">
        <ele>50.599998474121</ele>
        <time>2016-08-29T18:49:35.000Z</time>
      </trkpt>
      <trkpt lat="48.89885" lon="2.32949">
        <ele>51</ele>
        <time>2016-08-29T18:49:39.000Z</time>
      </trkpt>
      <trkpt lat="48.89902" lon="2.32962">
        <ele>51.599998474121</ele>
        <time>2016-08-29T18:49:43.000Z</time>
      </trkpt>
      <trkpt lat="48.8992" lon="2.32972">
        <ele>52</ele>
        <time>2016-08-29T18:49:47.000Z</time>
      </trkpt>
      <trkpt lat="48.89941" lon="2.32981">
        <ele>52</ele>
        <time>2016-08-29T18:49:52.000Z</time>
      </trkpt>
      <trkpt lat="48.89963" lon="2.32988">
        <ele>50.200000762939</ele>
        <time>2016-08-29T18:49:57.000Z</time>
      </trkpt>
      <trkpt lat="48.89983" lon="2.32992">
        <ele>48.599998474121</ele>
        <time>2016-08-29T18:50:01.000Z</time>
      </trkpt>
      <trkpt lat="48.90001" lon="2.32997">
        <ele>47.200000762939</ele>
        <time>2016-08-29T18:50:05.000Z</time>
      </trkpt>
      <trkpt lat="48.9002" lon="2.33009">
        <ele>45.400001525879</ele>
        <time>2016-08-29T18:50:11.000Z</time>
      </trkpt>
      <trkpt lat="48.90023" lon="2.3301">
        <ele>45</ele>
        <time>2016-08-29T18:50:12.000Z</time>
      </trkpt>
      <trkpt lat="48.90035" lon="2.33015">
        <ele>44.799999237061</ele>
        <time>2016-08-29T18:50:16.000Z</time>
      </trkpt>
      <trkpt lat="48.90038" lon="2.33016">
        <ele>44.599998474121</ele>
        <time>2016-08-29T18:50:17.000Z</time>
      </trkpt>
      <trkpt lat="48.90044" lon="2.3302">
        <ele>44.599998474121</ele>
        <time>2016-08-29T18:50:21.000Z</time>
      </trkpt>
      <trkpt lat="48.90064" lon="2.33028">
        <ele>44.200000762939</ele>
        <time>2016-08-29T18:50:32.000Z</time>
      </trkpt>
      <trkpt lat="48.90083" lon="2.33033">
        <ele>43.799999237061</ele>
        <time>2016-08-29T18:50:38.000Z</time>
      </trkpt>
      <trkpt lat="48.90102" lon="2.33024">
        <ele>43.799999237061</ele>
        <time>2016-08-29T18:50:44.000Z</time>
      </trkpt>
      <trkpt lat="48.90122" lon="2.3303">
        <ele>43</ele>
        <time>2016-08-29T18:50:50.000Z</time>
      </trkpt>
      <trkpt lat="48.90141" lon="2.33032">
        <ele>42.400001525879</ele>
        <time>2016-08-29T18:50:55.000Z</time>
      </trkpt>
      <trkpt lat="48.90162" lon="2.33035">
        <ele>42</ele>
        <time>2016-08-29T18:51:00.000Z</time>
      </trkpt>
      <trkpt lat="48.90183" lon="2.33042">
        <ele>41.400001525879</ele>
        <time>2016-08-29T18:51:05.000Z</time>
      </trkpt>
      <trkpt lat="48.90201" lon="2.33049">
        <ele>41.599998474121</ele>
        <time>2016-08-29T18:51:10.000Z</time>
      </trkpt>
      <trkpt lat="48.90222" lon="2.33051">
        <ele>42.200000762939</ele>
        <time>2016-08-29T18:51:16.000Z</time>
      </trkpt>
      <trkpt lat="48.90245" lon="2.33057">
        <ele>42.799999237061</ele>
        <time>2016-08-29T18:51:21.000Z</time>
      </trkpt>
      <trkpt lat="48.90265" lon="2.33063">
        <ele>43</ele>
        <time>2016-08-29T18:51:25.000Z</time>
      </trkpt>
      <trkpt lat="48.90286" lon="2.33069">
        <ele>42.400001525879</ele>
        <time>2016-08-29T18:51:29.000Z</time>
      </trkpt>
      <trkpt lat="48.90306" lon="2.33074">
        <ele>41.400001525879</ele>
        <time>2016-08-29T18:51:33.000Z</time>
      </trkpt>
      <trkpt lat="48.90326" lon="2.3308">
        <ele>40.400001525879</ele>
        <time>2016-08-29T18:51:37.000Z</time>
      </trkpt>
      <trkpt lat="48.90346" lon="2.33087">
        <ele>39.599998474121</ele>
        <time>2016-08-29T18:51:41.000Z</time>
      </trkpt>
      <trkpt lat="48.90364" lon="2.33092">
        <ele>39.200000762939</ele>
        <time>2016-08-29T18:51:45.000Z</time>
      </trkpt>
      <trkpt lat="48.90383" lon="2.33098">
        <ele>39.200000762939</ele>
        <time>2016-08-29T18:51:49.000Z</time>
      </trkpt>
      <trkpt lat="48.90401" lon="2.33104">
        <ele>39</ele>
        <time>2016-08-29T18:51:52.000Z</time>
      </trkpt>
      <trkpt lat="48.90419" lon="2.33108">
        <ele>39</ele>
        <time>2016-08-29T18:51:55.000Z</time>
      </trkpt>
      <trkpt lat="48.90429" lon="2.3311">
        <ele>38.799999237061</ele>
        <time>2016-08-29T18:51:57.000Z</time>
      </trkpt>
      <trkpt lat="48.90451" lon="2.33117">
        <ele>38.400001525879</ele>
        <time>2016-08-29T18:52:01.000Z</time>
      </trkpt>
      <trkpt lat="48.90471" lon="2.33123">
        <ele>37.799999237061</ele>
        <time>2016-08-29T18:52:05.000Z</time>
      </trkpt>
      <trkpt lat="48.90492" lon="2.33128">
        <ele>37.400001525879</ele>
        <time>2016-08-29T18:52:09.000Z</time>
      </trkpt>
      <trkpt lat="48.90512" lon="2.33134">
        <ele>37.400001525879</ele>
        <time>2016-08-29T18:52:13.000Z</time>
      </trkpt>
      <trkpt lat="48.90532" lon="2.33142">
        <ele>37.400001525879</ele>
        <time>2016-08-29T18:52:17.000Z</time>
      </trkpt>
      <trkpt lat="48.90551" lon="2.33148">
        <ele>37.599998474121</ele>
        <time>2016-08-29T18:52:21.000Z</time>
      </trkpt>
      <trkpt lat="48.90571" lon="2.33155">
        <ele>37.599998474121</ele>
        <time>2016-08-29T18:52:25.000Z</time>
      </trkpt>
      <trkpt lat="48.90592" lon="2.33163">
        <ele>37.799999237061</ele>
        <time>2016-08-29T18:52:29.000Z</time>
      </trkpt>
      <trkpt lat="48.90611" lon="2.33172">
        <ele>38</ele>
        <time>2016-08-29T18:52:33.000Z</time>
      </trkpt>
      <trkpt lat="48.90632" lon="2.33182">
        <ele>37.400001525879</ele>
        <time>2016-08-29T18:52:38.000Z</time>
      </trkpt>
      <trkpt lat="48.90643" lon="2.33185">
        <ele>37.400001525879</ele>
        <time>2016-08-29T18:52:40.000Z</time>
      </trkpt>
      <trkpt lat="48.90662" lon="2.33189">
        <ele>37</ele>
        <time>2016-08-29T18:52:44.000Z</time>
      </trkpt>
      <trkpt lat="48.90681" lon="2.33196">
        <ele>36.799999237061</ele>
        <time>2016-08-29T18:52:48.000Z</time>
      </trkpt>
      <trkpt lat="48.90685" lon="2.33198">
        <ele>36.599998474121</ele>
        <time>2016-08-29T18:52:49.000Z</time>
      </trkpt>
      <trkpt lat="48.90707" lon="2.33205">
        <ele>36.400001525879</ele>
        <time>2016-08-29T18:52:54.000Z</time>
      </trkpt>
      <trkpt lat="48.90725" lon="2.3321">
        <ele>36</ele>
        <time>2016-08-29T18:52:58.000Z</time>
      </trkpt>
      <trkpt lat="48.90745" lon="2.33215">
        <ele>35.599998474121</ele>
        <time>2016-08-29T18:53:02.000Z</time>
      </trkpt>
      <trkpt lat="48.90766" lon="2.33221">
        <ele>35.200000762939</ele>
        <time>2016-08-29T18:53:06.000Z</time>
      </trkpt>
      <trkpt lat="48.90777" lon="2.33224">
        <ele>35</ele>
        <time>2016-08-29T18:53:08.000Z</time>
      </trkpt>
      <trkpt lat="48.90787" lon="2.33227">
        <ele>35</ele>
        <time>2016-08-29T18:53:10.000Z</time>
      </trkpt>
      <trkpt lat="48.90808" lon="2.33237">
        <ele>35</ele>
        <time>2016-08-29T18:53:14.000Z</time>
      </trkpt>
      <trkpt lat="48.90827" lon="2.33247">
        <ele>35</ele>
        <time>2016-08-29T18:53:18.000Z</time>
      </trkpt>
      <trkpt lat="48.90853" lon="2.3325">
        <ele>35</ele>
        <time>2016-08-29T18:53:22.000Z</time>
      </trkpt>
      <trkpt lat="48.90873" lon="2.33255">
        <ele>35</ele>
        <time>2016-08-29T18:53:26.000Z</time>
      </trkpt>
      <trkpt lat="48.90893" lon="2.33261">
        <ele>34.799999237061</ele>
        <time>2016-08-29T18:53:30.000Z</time>
      </trkpt>
      <trkpt lat="48.9091" lon="2.33264">
        <ele>34.799999237061</ele>
        <time>2016-08-29T18:53:34.000Z</time>
      </trkpt>
      <trkpt lat="48.90932" lon="2.33272">
        <ele>34.599998474121</ele>
        <time>2016-08-29T18:53:39.000Z</time>
      </trkpt>
      <trkpt lat="48.9095" lon="2.33277">
        <ele>34.799999237061</ele>
        <time>2016-08-29T18:53:43.000Z</time>
      </trkpt>
      <trkpt lat="48.90972" lon="2.33284">
        <ele>34.799999237061</ele>
        <time>2016-08-29T18:53:48.000Z</time>
      </trkpt>
      <trkpt lat="48.90986" lon="2.3329">
        <ele>35</ele>
        <time>2016-08-29T18:53:51.000Z</time>
      </trkpt>
      <trkpt lat="48.91006" lon="2.33298">
        <ele>35</ele>
        <time>2016-08-29T18:53:55.000Z</time>
      </trkpt>
      <trkpt lat="48.91025" lon="2.33302">
        <ele>35</ele>
        <time>2016-08-29T18:53:59.000Z</time>
      </trkpt>
      <trkpt lat="48.91045" lon="2.33308">
        <ele>35.200000762939</ele>
        <time>2016-08-29T18:54:03.000Z</time>
      </trkpt>
      <trkpt lat="48.91063" lon="2.33314">
        <ele>35.400001525879</ele>
        <time>2016-08-29T18:54:07.000Z</time>
      </trkpt>
      <trkpt lat="48.91083" lon="2.33322">
        <ele>35.799999237061</ele>
        <time>2016-08-29T18:54:11.000Z</time>
      </trkpt>
      <trkpt lat="48.91092" lon="2.33327">
        <ele>35.799999237061</ele>
        <time>2016-08-29T18:54:13.000Z</time>
      </trkpt>
      <trkpt lat="48.9111" lon="2.33333">
        <ele>36</ele>
        <time>2016-08-29T18:54:17.000Z</time>
      </trkpt>
      <trkpt lat="48.91128" lon="2.33341">
        <ele>36.200000762939</ele>
        <time>2016-08-29T18:54:21.000Z</time>
      </trkpt>
      <trkpt lat="48.91147" lon="2.33353">
        <ele>36.599998474121</ele>
        <time>2016-08-29T18:54:25.000Z</time>
      </trkpt>
      <trkpt lat="48.91155" lon="2.3336">
        <ele>36.799999237061</ele>
        <time>2016-08-29T18:54:28.000Z</time>
      </trkpt>
      <trkpt lat="48.91169" lon="2.3337">
        <ele>37</ele>
        <time>2016-08-29T18:54:32.000Z</time>
      </trkpt>
      <trkpt lat="48.91184" lon="2.33378">
        <ele>37.200000762939</ele>
        <time>2016-08-29T18:54:36.000Z</time>
      </trkpt>
      <trkpt lat="48.91195" lon="2.33389">
        <ele>37.599998474121</ele>
        <time>2016-08-29T18:54:40.000Z</time>
      </trkpt>
      <trkpt lat="48.91202" lon="2.33395">
        <ele>38</ele>
        <time>2016-08-29T18:54:43.000Z</time>
      </trkpt>
      <trkpt lat="48.91204" lon="2.3341">
        <ele>38.400001525879</ele>
        <time>2016-08-29T18:55:57.000Z</time>
      </trkpt>
      <trkpt lat="48.91217" lon="2.33418">
        <ele>39</ele>
        <time>2016-08-29T18:56:33.000Z</time>
      </trkpt>
      <trkpt lat="48.91233" lon="2.33432">
        <ele>39.400001525879</ele>
        <time>2016-08-29T18:56:39.000Z</time>
      </trkpt>
      <trkpt lat="48.91248" lon="2.33448">
        <ele>39.599998474121</ele>
        <time>2016-08-29T18:56:45.000Z</time>
      </trkpt>
      <trkpt lat="48.91258" lon="2.33469">
        <ele>39.799999237061</ele>
        <time>2016-08-29T18:56:51.000Z</time>
      </trkpt>
      <trkpt lat="48.91252" lon="2.33482">
        <ele>39.599998474121</ele>
        <time>2016-08-29T18:56:55.000Z</time>
      </trkpt>
      <trkpt lat="48.91237" lon="2.33504">
        <ele>40</ele>
        <time>2016-08-29T18:57:02.000Z</time>
      </trkpt>
      <trkpt lat="48.9122" lon="2.33524">
        <ele>40.400001525879</ele>
        <time>2016-08-29T18:57:08.000Z</time>
      </trkpt>
      <trkpt lat="48.91202" lon="2.33539">
        <ele>40.799999237061</ele>
        <time>2016-08-29T18:57:15.000Z</time>
      </trkpt>
      <trkpt lat="48.91186" lon="2.33561">
        <ele>41.400001525879</ele>
        <time>2016-08-29T18:57:19.000Z</time>
      </trkpt>
      <trkpt lat="48.91182" lon="2.33596">
        <ele>41.599998474121</ele>
        <time>2016-08-29T18:57:23.000Z</time>
      </trkpt>
      <trkpt lat="48.91168" lon="2.33623">
        <ele>41.200000762939</ele>
        <time>2016-08-29T18:57:28.000Z</time>
      </trkpt>
      <trkpt lat="48.91152" lon="2.33648">
        <ele>40.599998474121</ele>
        <time>2016-08-29T18:57:33.000Z</time>
      </trkpt>
      <trkpt lat="48.91139" lon="2.3367">
        <ele>40</ele>
        <time>2016-08-29T18:57:37.000Z</time>
      </trkpt>
      <trkpt lat="48.91132" lon="2.33681">
        <ele>39.400001525879</ele>
        <time>2016-08-29T18:57:39.000Z</time>
      </trkpt>
      <trkpt lat="48.91113" lon="2.33698">
        <ele>38.799999237061</ele>
        <time>2016-08-29T18:57:44.000Z</time>
      </trkpt>
      <trkpt lat="48.91097" lon="2.33714">
        <ele>38.799999237061</ele>
        <time>2016-08-29T18:57:48.000Z</time>
      </trkpt>
      <trkpt lat="48.91094" lon="2.33718">
        <ele>38.799999237061</ele>
        <time>2016-08-29T18:57:49.000Z</time>
      </trkpt>
      <trkpt lat="48.91086" lon="2.33726">
        <ele>39</ele>
        <time>2016-08-29T18:57:51.000Z</time>
      </trkpt>
      <trkpt lat="48.9107" lon="2.33743">
        <ele>39</ele>
        <time>2016-08-29T18:57:55.000Z</time>
      </trkpt>
      <trkpt lat="48.91066" lon="2.33747">
        <ele>39</ele>
        <time>2016-08-29T18:57:56.000Z</time>
      </trkpt>
      <trkpt lat="48.91052" lon="2.33762">
        <ele>39.200000762939</ele>
        <time>2016-08-29T18:58:00.000Z</time>
      </trkpt>
      <trkpt lat="48.91037" lon="2.33779">
        <ele>39</ele>
        <time>2016-08-29T18:58:05.000Z</time>
      </trkpt>
      <trkpt lat="48.91031" lon="2.33787">
        <ele>38.599998474121</ele>
        <time>2016-08-29T18:58:07.000Z</time>
      </trkpt>
      <trkpt lat="48.91023" lon="2.33794">
        <ele>38.400001525879</ele>
        <time>2016-08-29T18:58:09.000Z</time>
      </trkpt>
      <trkpt lat="48.91008" lon="2.3381">
        <ele>38</ele>
        <time>2016-08-29T18:58:13.000Z</time>
      </trkpt>
      <trkpt lat="48.90996" lon="2.33822">
        <ele>38.200000762939</ele>
        <time>2016-08-29T18:58:16.000Z</time>
      </trkpt>
      <trkpt lat="48.90981" lon="2.33838">
        <ele>38.599998474121</ele>
        <time>2016-08-29T18:58:20.000Z</time>
      </trkpt>
      <trkpt lat="48.90974" lon="2.33848">
        <ele>38.599998474121</ele>
        <time>2016-08-29T18:58:22.000Z</time>
      </trkpt>
      <trkpt lat="48.90959" lon="2.33869">
        <ele>38.599998474121</ele>
        <time>2016-08-29T18:58:27.000Z</time>
      </trkpt>
      <trkpt lat="48.90951" lon="2.3388">
        <ele>38.400001525879</ele>
        <time>2016-08-29T18:58:29.000Z</time>
      </trkpt>
      <trkpt lat="48.90933" lon="2.33896">
        <ele>38.200000762939</ele>
        <time>2016-08-29T18:58:33.000Z</time>
      </trkpt>
      <trkpt lat="48.90929" lon="2.33901">
        <ele>38.200000762939</ele>
        <time>2016-08-29T18:58:34.000Z</time>
      </trkpt>
      <trkpt lat="48.90911" lon="2.33915">
        <ele>38.400001525879</ele>
        <time>2016-08-29T18:58:38.000Z</time>
      </trkpt>
      <trkpt lat="48.90897" lon="2.33932">
        <ele>38.799999237061</ele>
        <time>2016-08-29T18:58:42.000Z</time>
      </trkpt>
      <trkpt lat="48.90886" lon="2.33945">
        <ele>39</ele>
        <time>2016-08-29T18:58:45.000Z</time>
      </trkpt>
      <trkpt lat="48.9087" lon="2.33965">
        <ele>38.599998474121</ele>
        <time>2016-08-29T18:58:50.000Z</time>
      </trkpt>
      <trkpt lat="48.90867" lon="2.33968">
        <ele>38.400001525879</ele>
        <time>2016-08-29T18:58:51.000Z</time>
      </trkpt>
      <trkpt lat="48.90863" lon="2.33975">
        <ele>38.400001525879</ele>
        <time>2016-08-29T18:58:53.000Z</time>
      </trkpt>
      <trkpt lat="48.90852" lon="2.3399">
        <ele>38.400001525879</ele>
        <time>2016-08-29T18:58:57.000Z</time>
      </trkpt>
      <trkpt lat="48.90842" lon="2.34003">
        <ele>38.400001525879</ele>
        <time>2016-08-29T18:59:00.000Z</time>
      </trkpt>
      <trkpt lat="48.90832" lon="2.34018">
        <ele>38.599998474121</ele>
        <time>2016-08-29T18:59:04.000Z</time>
      </trkpt>
      <trkpt lat="48.90825" lon="2.34031">
        <ele>38.799999237061</ele>
        <time>2016-08-29T18:59:07.000Z</time>
      </trkpt>
      <trkpt lat="48.90808" lon="2.34053">
        <ele>38.599998474121</ele>
        <time>2016-08-29T18:59:12.000Z</time>
      </trkpt>
      <trkpt lat="48.90804" lon="2.34058">
        <ele>38.599998474121</ele>
        <time>2016-08-29T18:59:13.000Z</time>
      </trkpt>
      <trkpt lat="48.9079" lon="2.34074">
        <ele>38.200000762939</ele>
        <time>2016-08-29T18:59:17.000Z</time>
      </trkpt>
      <trkpt lat="48.90778" lon="2.34089">
        <ele>38.200000762939</ele>
        <time>2016-08-29T18:59:21.000Z</time>
      </trkpt>
      <trkpt lat="48.90763" lon="2.34105">
        <ele>39.200000762939</ele>
        <time>2016-08-29T18:59:27.000Z</time>
      </trkpt>
      <trkpt lat="48.90753" lon="2.34118">
        <ele>40</ele>
        <time>2016-08-29T18:59:30.000Z</time>
      </trkpt>
      <trkpt lat="48.90738" lon="2.34138">
        <ele>40.799999237061</ele>
        <time>2016-08-29T18:59:34.000Z</time>
      </trkpt>
      <trkpt lat="48.90723" lon="2.34158">
        <ele>40</ele>
        <time>2016-08-29T18:59:38.000Z</time>
      </trkpt>
      <trkpt lat="48.90713" lon="2.34173">
        <ele>39.599998474121</ele>
        <time>2016-08-29T18:59:41.000Z</time>
      </trkpt>
      <trkpt lat="48.90698" lon="2.34194">
        <ele>39</ele>
        <time>2016-08-29T18:59:45.000Z</time>
      </trkpt>
      <trkpt lat="48.90687" lon="2.34211">
        <ele>38.400001525879</ele>
        <time>2016-08-29T18:59:48.000Z</time>
      </trkpt>
      <trkpt lat="48.90676" lon="2.34228">
        <ele>37.799999237061</ele>
        <time>2016-08-29T18:59:51.000Z</time>
      </trkpt>
      <trkpt lat="48.90659" lon="2.3425">
        <ele>37.599998474121</ele>
        <time>2016-08-29T18:59:55.000Z</time>
      </trkpt>
      <trkpt lat="48.90643" lon="2.3427">
        <ele>37.400001525879</ele>
        <time>2016-08-29T18:59:59.000Z</time>
      </trkpt>
      <trkpt lat="48.90627" lon="2.34293">
        <ele>37.200000762939</ele>
        <time>2016-08-29T19:00:04.000Z</time>
      </trkpt>
      <trkpt lat="48.90616" lon="2.34305">
        <ele>37.200000762939</ele>
        <time>2016-08-29T19:00:07.000Z</time>
      </trkpt>
      <trkpt lat="48.906" lon="2.34324">
        <ele>37</ele>
        <time>2016-08-29T19:00:11.000Z</time>
      </trkpt>
      <trkpt lat="48.90585" lon="2.34346">
        <ele>38</ele>
        <time>2016-08-29T19:00:15.000Z</time>
      </trkpt>
      <trkpt lat="48.90568" lon="2.34367">
        <ele>38.799999237061</ele>
        <time>2016-08-29T19:00:19.000Z</time>
      </trkpt>
      <trkpt lat="48.90553" lon="2.3439">
        <ele>39</ele>
        <time>2016-08-29T19:00:24.000Z</time>
      </trkpt>
      <trkpt lat="48.90553" lon="2.34395">
        <ele>39</ele>
        <time>2016-08-29T19:00:25.000Z</time>
      </trkpt>
      <trkpt lat="48.90548" lon="2.34402">
        <ele>39</ele>
        <time>2016-08-29T19:00:28.000Z</time>
      </trkpt>
      <trkpt lat="48.90548" lon="2.34421">
        <ele>39</ele>
        <time>2016-08-29T19:01:05.000Z</time>
      </trkpt>
      <trkpt lat="48.90561" lon="2.34423">
        <ele>38.799999237061</ele>
        <time>2016-08-29T19:01:09.000Z</time>
      </trkpt>
      <trkpt lat="48.90579" lon="2.3442">
        <ele>39</ele>
        <time>2016-08-29T19:01:13.000Z</time>
      </trkpt>
      <trkpt lat="48.90589" lon="2.34418">
        <ele>39</ele>
        <time>2016-08-29T19:01:15.000Z</time>
      </trkpt>
      <trkpt lat="48.90608" lon="2.34416">
        <ele>39</ele>
        <time>2016-08-29T19:01:19.000Z</time>
      </trkpt>
      <trkpt lat="48.90628" lon="2.34413">
        <ele>39</ele>
        <time>2016-08-29T19:01:24.000Z</time>
      </trkpt>
      <trkpt lat="48.90649" lon="2.34413">
        <ele>39</ele>
        <time>2016-08-29T19:01:30.000Z</time>
      </trkpt>
      <trkpt lat="48.90668" lon="2.34413">
        <ele>39</ele>
        <time>2016-08-29T19:01:34.000Z</time>
      </trkpt>
      <trkpt lat="48.90689" lon="2.34415">
        <ele>39</ele>
        <time>2016-08-29T19:01:38.000Z</time>
      </trkpt>
      <trkpt lat="48.90708" lon="2.34414">
        <ele>39</ele>
        <time>2016-08-29T19:01:41.000Z</time>
      </trkpt>
      <trkpt lat="48.9073" lon="2.34414">
        <ele>39</ele>
        <time>2016-08-29T19:01:45.000Z</time>
      </trkpt>
      <trkpt lat="48.90752" lon="2.34414">
        <ele>39</ele>
        <time>2016-08-29T19:01:49.000Z</time>
      </trkpt>
      <trkpt lat="48.90773" lon="2.34414">
        <ele>39</ele>
        <time>2016-08-29T19:01:53.000Z</time>
      </trkpt>
      <trkpt lat="48.90795" lon="2.34417">
        <ele>38.599998474121</ele>
        <time>2016-08-29T19:01:57.000Z</time>
      </trkpt>
      <trkpt lat="48.90817" lon="2.34419">
        <ele>38</ele>
        <time>2016-08-29T19:02:01.000Z</time>
      </trkpt>
      <trkpt lat="48.90837" lon="2.3442">
        <ele>37.599998474121</ele>
        <time>2016-08-29T19:02:05.000Z</time>
      </trkpt>
      <trkpt lat="48.90847" lon="2.34421">
        <ele>37.400001525879</ele>
        <time>2016-08-29T19:02:07.000Z</time>
      </trkpt>
      <trkpt lat="48.90867" lon="2.34419">
        <ele>36.799999237061</ele>
        <time>2016-08-29T19:02:10.000Z</time>
      </trkpt>
      <trkpt lat="48.90888" lon="2.34418">
        <ele>36.599998474121</ele>
        <time>2016-08-29T19:02:14.000Z</time>
      </trkpt>
      <trkpt lat="48.90893" lon="2.34417">
        <ele>36.599998474121</ele>
        <time>2016-08-29T19:02:15.000Z</time>
      </trkpt>
      <trkpt lat="48.90911" lon="2.34418">
        <ele>36.400001525879</ele>
        <time>2016-08-29T19:02:18.000Z</time>
      </trkpt>
      <trkpt lat="48.90917" lon="2.34417">
        <ele>36.200000762939</ele>
        <time>2016-08-29T19:02:19.000Z</time>
      </trkpt>
      <trkpt lat="48.90937" lon="2.34416">
        <ele>36</ele>
        <time>2016-08-29T19:02:22.000Z</time>
      </trkpt>
      <trkpt lat="48.90958" lon="2.34416">
        <ele>36.200000762939</ele>
        <time>2016-08-29T19:02:25.000Z</time>
      </trkpt>
      <trkpt lat="48.90979" lon="2.34416">
        <ele>36.400001525879</ele>
        <time>2016-08-29T19:02:28.000Z</time>
      </trkpt>
      <trkpt lat="48.91002" lon="2.34414">
        <ele>36.799999237061</ele>
        <time>2016-08-29T19:02:31.000Z</time>
      </trkpt>
      <trkpt lat="48.91022" lon="2.34417">
        <ele>37</ele>
        <time>2016-08-29T19:02:34.000Z</time>
      </trkpt>
      <trkpt lat="48.9104" lon="2.34419">
        <ele>37.200000762939</ele>
        <time>2016-08-29T19:02:37.000Z</time>
      </trkpt>
      <trkpt lat="48.91062" lon="2.34421">
        <ele>37.799999237061</ele>
        <time>2016-08-29T19:02:41.000Z</time>
      </trkpt>
      <trkpt lat="48.91085" lon="2.34424">
        <ele>38.200000762939</ele>
        <time>2016-08-29T19:02:45.000Z</time>
      </trkpt>
      <trkpt lat="48.91109" lon="2.34427">
        <ele>38.799999237061</ele>
        <time>2016-08-29T19:02:49.000Z</time>
      </trkpt>
      <trkpt lat="48.91128" lon="2.34429">
        <ele>38.599998474121</ele>
        <time>2016-08-29T19:02:52.000Z</time>
      </trkpt>
      <trkpt lat="48.91147" lon="2.34427">
        <ele>38.200000762939</ele>
        <time>2016-08-29T19:02:55.000Z</time>
      </trkpt>
      <trkpt lat="48.91165" lon="2.34425">
        <ele>37.799999237061</ele>
        <time>2016-08-29T19:02:58.000Z</time>
      </trkpt>
      <trkpt lat="48.91184" lon="2.34423">
        <ele>37.200000762939</ele>
        <time>2016-08-29T19:03:01.000Z</time>
      </trkpt>
      <trkpt lat="48.91207" lon="2.34421">
        <ele>37.200000762939</ele>
        <time>2016-08-29T19:03:05.000Z</time>
      </trkpt>
      <trkpt lat="48.91226" lon="2.3442">
        <ele>37.200000762939</ele>
        <time>2016-08-29T19:03:08.000Z</time>
      </trkpt>
      <trkpt lat="48.91244" lon="2.3442">
        <ele>37.200000762939</ele>
        <time>2016-08-29T19:03:11.000Z</time>
      </trkpt>
      <trkpt lat="48.91249" lon="2.34419">
        <ele>37.200000762939</ele>
        <time>2016-08-29T19:03:12.000Z</time>
      </trkpt>
      <trkpt lat="48.91269" lon="2.34417">
        <ele>37</ele>
        <time>2016-08-29T19:03:16.000Z</time>
      </trkpt>
      <trkpt lat="48.91293" lon="2.34416">
        <ele>37.799999237061</ele>
        <time>2016-08-29T19:03:20.000Z</time>
      </trkpt>
      <trkpt lat="48.91312" lon="2.34417">
        <ele>38.599998474121</ele>
        <time>2016-08-29T19:03:23.000Z</time>
      </trkpt>
      <trkpt lat="48.91318" lon="2.34419">
        <ele>38.799999237061</ele>
        <time>2016-08-29T19:03:24.000Z</time>
      </trkpt>
      <trkpt lat="48.91341" lon="2.3442">
        <ele>39.799999237061</ele>
        <time>2016-08-29T19:03:28.000Z</time>
      </trkpt>
      <trkpt lat="48.91361" lon="2.34417">
        <ele>40.799999237061</ele>
        <time>2016-08-29T19:03:32.000Z</time>
      </trkpt>
      <trkpt lat="48.9137" lon="2.34417">
        <ele>40.400001525879</ele>
        <time>2016-08-29T19:03:34.000Z</time>
      </trkpt>
      <trkpt lat="48.9139" lon="2.34417">
        <ele>39.799999237061</ele>
        <time>2016-08-29T19:03:39.000Z</time>
      </trkpt>
      <trkpt lat="48.91393" lon="2.34416">
        <ele>39.599998474121</ele>
        <time>2016-08-29T19:03:40.000Z</time>
      </trkpt>
      <trkpt lat="48.91397" lon="2.34418">
        <ele>39.400001525879</ele>
        <time>2016-08-29T19:03:43.000Z</time>
      </trkpt>
      <trkpt lat="48.91403" lon="2.34442">
        <ele>38.599998474121</ele>
        <time>2016-08-29T19:05:09.000Z</time>
      </trkpt>
      <trkpt lat="48.91403" lon="2.34448">
        <ele>38.599998474121</ele>
        <time>2016-08-29T19:05:11.000Z</time>
      </trkpt>
      <trkpt lat="48.91398" lon="2.34475">
        <ele>37.400001525879</ele>
        <time>2016-08-29T19:05:16.000Z</time>
      </trkpt>
      <trkpt lat="48.91395" lon="2.34504">
        <ele>36</ele>
        <time>2016-08-29T19:05:20.000Z</time>
      </trkpt>
      <trkpt lat="48.91396" lon="2.34533">
        <ele>35.599998474121</ele>
        <time>2016-08-29T19:05:24.000Z</time>
      </trkpt>
      <trkpt lat="48.91398" lon="2.34562">
        <ele>35.599998474121</ele>
        <time>2016-08-29T19:05:28.000Z</time>
      </trkpt>
      <trkpt lat="48.91407" lon="2.34591">
        <ele>35.200000762939</ele>
        <time>2016-08-29T19:05:32.000Z</time>
      </trkpt>
      <trkpt lat="48.91415" lon="2.34624">
        <ele>34.799999237061</ele>
        <time>2016-08-29T19:05:36.000Z</time>
      </trkpt>
      <trkpt lat="48.91423" lon="2.34657">
        <ele>34.599998474121</ele>
        <time>2016-08-29T19:05:40.000Z</time>
      </trkpt>
      <trkpt lat="48.91429" lon="2.34684">
        <ele>34.599998474121</ele>
        <time>2016-08-29T19:05:44.000Z</time>
      </trkpt>
      <trkpt lat="48.91433" lon="2.34693">
        <ele>34.599998474121</ele>
        <time>2016-08-29T19:05:46.000Z</time>
      </trkpt>
      <trkpt lat="48.91434" lon="2.34699">
        <ele>34.599998474121</ele>
        <time>2016-08-29T19:05:48.000Z</time>
      </trkpt>
      <trkpt lat="48.9144" lon="2.34725">
        <ele>34.799999237061</ele>
        <time>2016-08-29T19:05:55.000Z</time>
      </trkpt>
      <trkpt lat="48.91448" lon="2.34752">
        <ele>35</ele>
        <time>2016-08-29T19:06:00.000Z</time>
      </trkpt>
      <trkpt lat="48.91457" lon="2.34777">
        <ele>35.799999237061</ele>
        <time>2016-08-29T19:06:04.000Z</time>
      </trkpt>
      <trkpt lat="48.91464" lon="2.34807">
        <ele>37</ele>
        <time>2016-08-29T19:06:09.000Z</time>
      </trkpt>
      <trkpt lat="48.91471" lon="2.34836">
        <ele>38</ele>
        <time>2016-08-29T19:06:13.000Z</time>
      </trkpt>
      <trkpt lat="48.91474" lon="2.34848">
        <ele>38</ele>
        <time>2016-08-29T19:06:15.000Z</time>
      </trkpt>
      <trkpt lat="48.91476" lon="2.34866">
        <ele>38.200000762939</ele>
        <time>2016-08-29T19:06:18.000Z</time>
      </trkpt>
      <trkpt lat="48.91479" lon="2.34896">
        <ele>38.799999237061</ele>
        <time>2016-08-29T19:06:24.000Z</time>
      </trkpt>
      <trkpt lat="48.9148" lon="2.34902">
        <ele>38.799999237061</ele>
        <time>2016-08-29T19:06:25.000Z</time>
      </trkpt>
      <trkpt lat="48.91486" lon="2.34926">
        <ele>39</ele>
        <time>2016-08-29T19:06:29.000Z</time>
      </trkpt>
      <trkpt lat="48.91493" lon="2.34954">
        <ele>39</ele>
        <time>2016-08-29T19:06:33.000Z</time>
      </trkpt>
      <trkpt lat="48.91495" lon="2.34962">
        <ele>39</ele>
        <time>2016-08-29T19:06:34.000Z</time>
      </trkpt>
      <trkpt lat="48.91501" lon="2.3499">
        <ele>38.599998474121</ele>
        <time>2016-08-29T19:06:38.000Z</time>
      </trkpt>
      <trkpt lat="48.91501" lon="2.34998">
        <ele>38.599998474121</ele>
        <time>2016-08-29T19:06:39.000Z</time>
      </trkpt>
      <trkpt lat="48.91504" lon="2.35027">
        <ele>38.799999237061</ele>
        <time>2016-08-29T19:06:43.000Z</time>
      </trkpt>
      <trkpt lat="48.91511" lon="2.35059">
        <ele>39</ele>
        <time>2016-08-29T19:06:48.000Z</time>
      </trkpt>
      <trkpt lat="48.91515" lon="2.35104">
        <ele>39</ele>
        <time>2016-08-29T19:06:52.000Z</time>
      </trkpt>
      <trkpt lat="48.91521" lon="2.35133">
        <ele>39</ele>
        <time>2016-08-29T19:06:55.000Z</time>
      </trkpt>
      <trkpt lat="48.91523" lon="2.35141">
        <ele>39</ele>
        <time>2016-08-29T19:06:56.000Z</time>
      </trkpt>
      <trkpt lat="48.91526" lon="2.35166">
        <ele>39</ele>
        <time>2016-08-29T19:06:59.000Z</time>
      </trkpt>
      <trkpt lat="48.91526" lon="2.352">
        <ele>39</ele>
        <time>2016-08-29T19:07:03.000Z</time>
      </trkpt>
      <trkpt lat="48.91527" lon="2.35207">
        <ele>39.200000762939</ele>
        <time>2016-08-29T19:07:04.000Z</time>
      </trkpt>
      <trkpt lat="48.91527" lon="2.35213">
        <ele>39.200000762939</ele>
        <time>2016-08-29T19:07:05.000Z</time>
      </trkpt>
      <trkpt lat="48.91525" lon="2.35237">
        <ele>39</ele>
        <time>2016-08-29T19:07:09.000Z</time>
      </trkpt>
      <trkpt lat="48.91524" lon="2.35251">
        <ele>39</ele>
        <time>2016-08-29T19:07:12.000Z</time>
      </trkpt>
      <trkpt lat="48.91521" lon="2.35278">
        <ele>38.200000762939</ele>
        <time>2016-08-29T19:07:19.000Z</time>
      </trkpt>
      <trkpt lat="48.91521" lon="2.35282">
        <ele>38.200000762939</ele>
        <time>2016-08-29T19:07:21.000Z</time>
      </trkpt>
      <trkpt lat="48.91525" lon="2.35287">
        <ele>38.200000762939</ele>
        <time>2016-08-29T19:07:26.000Z</time>
      </trkpt>
      <trkpt lat="48.91525" lon="2.35303">
        <ele>37.799999237061</ele>
        <time>2016-08-29T19:07:33.000Z</time>
      </trkpt>
      <trkpt lat="48.9153" lon="2.35322">
        <ele>37.400001525879</ele>
        <time>2016-08-29T19:08:13.000Z</time>
      </trkpt>
      <trkpt lat="48.91527" lon="2.35352">
        <ele>37</ele>
        <time>2016-08-29T19:08:20.000Z</time>
      </trkpt>
      <trkpt lat="48.91528" lon="2.35385">
        <ele>37</ele>
        <time>2016-08-29T19:08:26.000Z</time>
      </trkpt>
      <trkpt lat="48.91531" lon="2.35415">
        <ele>37</ele>
        <time>2016-08-29T19:08:31.000Z</time>
      </trkpt>
      <trkpt lat="48.91532" lon="2.35447">
        <ele>37.400001525879</ele>
        <time>2016-08-29T19:08:36.000Z</time>
      </trkpt>
      <trkpt lat="48.91531" lon="2.35478">
        <ele>37.799999237061</ele>
        <time>2016-08-29T19:08:42.000Z</time>
      </trkpt>
      <trkpt lat="48.91531" lon="2.35511">
        <ele>38.200000762939</ele>
        <time>2016-08-29T19:08:47.000Z</time>
      </trkpt>
      <trkpt lat="48.91531" lon="2.35541">
        <ele>38.599998474121</ele>
        <time>2016-08-29T19:08:51.000Z</time>
      </trkpt>
      <trkpt lat="48.91531" lon="2.3557">
        <ele>39</ele>
        <time>2016-08-29T19:08:55.000Z</time>
      </trkpt>
      <trkpt lat="48.9153" lon="2.35602">
        <ele>39.400001525879</ele>
        <time>2016-08-29T19:09:00.000Z</time>
      </trkpt>
      <trkpt lat="48.91531" lon="2.35608">
        <ele>39.599998474121</ele>
        <time>2016-08-29T19:09:01.000Z</time>
      </trkpt>
      <trkpt lat="48.9153" lon="2.35641">
        <ele>40.400001525879</ele>
        <time>2016-08-29T19:09:06.000Z</time>
      </trkpt>
      <trkpt lat="48.91531" lon="2.35672">
        <ele>41</ele>
        <time>2016-08-29T19:09:11.000Z</time>
      </trkpt>
      <trkpt lat="48.91537" lon="2.35703">
        <ele>40.799999237061</ele>
        <time>2016-08-29T19:09:16.000Z</time>
      </trkpt>
      <trkpt lat="48.91538" lon="2.3572">
        <ele>40.799999237061</ele>
        <time>2016-08-29T19:09:19.000Z</time>
      </trkpt>
      <trkpt lat="48.9154" lon="2.35736">
        <ele>40.799999237061</ele>
        <time>2016-08-29T19:09:22.000Z</time>
      </trkpt>
      <trkpt lat="48.91539" lon="2.35761">
        <ele>41</ele>
        <time>2016-08-29T19:09:58.000Z</time>
      </trkpt>
      <trkpt lat="48.91549" lon="2.35772">
        <ele>41</ele>
        <time>2016-08-29T19:10:06.000Z</time>
      </trkpt>
      <trkpt lat="48.91568" lon="2.35779">
        <ele>40.799999237061</ele>
        <time>2016-08-29T19:10:10.000Z</time>
      </trkpt>
      <trkpt lat="48.91587" lon="2.35789">
        <ele>40.799999237061</ele>
        <time>2016-08-29T19:10:15.000Z</time>
      </trkpt>
      <trkpt lat="48.91607" lon="2.35796">
        <ele>40.599998474121</ele>
        <time>2016-08-29T19:10:21.000Z</time>
      </trkpt>
      <trkpt lat="48.91628" lon="2.35795">
        <ele>40</ele>
        <time>2016-08-29T19:10:26.000Z</time>
      </trkpt>
      <trkpt lat="48.91647" lon="2.35795">
        <ele>39.599998474121</ele>
        <time>2016-08-29T19:10:30.000Z</time>
      </trkpt>
      <trkpt lat="48.91668" lon="2.35793">
        <ele>39.400001525879</ele>
        <time>2016-08-29T19:10:35.000Z</time>
      </trkpt>
      <trkpt lat="48.91689" lon="2.3579">
        <ele>39.400001525879</ele>
        <time>2016-08-29T19:10:40.000Z</time>
      </trkpt>
      <trkpt lat="48.9171" lon="2.35785">
        <ele>39.599998474121</ele>
        <time>2016-08-29T19:10:45.000Z</time>
      </trkpt>
      <trkpt lat="48.91728" lon="2.35782">
        <ele>39.599998474121</ele>
        <time>2016-08-29T19:10:49.000Z</time>
      </trkpt>
      <trkpt lat="48.91745" lon="2.35781">
        <ele>39</ele>
        <time>2016-08-29T19:10:53.000Z</time>
      </trkpt>
      <trkpt lat="48.91765" lon="2.35768">
        <ele>38.400001525879</ele>
        <time>2016-08-29T19:10:58.000Z</time>
      </trkpt>
      <trkpt lat="48.91769" lon="2.35765">
        <ele>38.400001525879</ele>
        <time>2016-08-29T19:10:59.000Z</time>
      </trkpt>
      <trkpt lat="48.91786" lon="2.35754">
        <ele>38</ele>
        <time>2016-08-29T19:11:04.000Z</time>
      </trkpt>
      <trkpt lat="48.91794" lon="2.35752">
        <ele>38</ele>
        <time>2016-08-29T19:11:06.000Z</time>
      </trkpt>
      <trkpt lat="48.91812" lon="2.35756">
        <ele>38</ele>
        <time>2016-08-29T19:11:10.000Z</time>
      </trkpt>
      <trkpt lat="48.91827" lon="2.35761">
        <ele>38</ele>
        <time>2016-08-29T19:11:14.000Z</time>
      </trkpt>
      <trkpt lat="48.91833" lon="2.35763">
        <ele>38</ele>
        <time>2016-08-29T19:11:17.000Z</time>
      </trkpt>
      <trkpt lat="48.9183" lon="2.35797">
        <ele>38</ele>
        <time>2016-08-29T19:11:35.000Z</time>
      </trkpt>
      <trkpt lat="48.91828" lon="2.35821">
        <ele>38.200000762939</ele>
        <time>2016-08-29T19:12:19.000Z</time>
      </trkpt>
      <trkpt lat="48.91834" lon="2.35848">
        <ele>38.200000762939</ele>
        <time>2016-08-29T19:12:27.000Z</time>
      </trkpt>
      <trkpt lat="48.91845" lon="2.35875">
        <ele>38.200000762939</ele>
        <time>2016-08-29T19:12:34.000Z</time>
      </trkpt>
      <trkpt lat="48.91856" lon="2.35897">
        <ele>38</ele>
        <time>2016-08-29T19:12:40.000Z</time>
      </trkpt>
      <trkpt lat="48.9186" lon="2.35925">
        <ele>38</ele>
        <time>2016-08-29T19:12:45.000Z</time>
      </trkpt>
      <trkpt lat="48.91865" lon="2.35952">
        <ele>37.799999237061</ele>
        <time>2016-08-29T19:12:50.000Z</time>
      </trkpt>
      <trkpt lat="48.91873" lon="2.35981">
        <ele>37.599998474121</ele>
        <time>2016-08-29T19:12:55.000Z</time>
      </trkpt>
      <trkpt lat="48.91888" lon="2.36003">
        <ele>37.599998474121</ele>
        <time>2016-08-29T19:13:00.000Z</time>
      </trkpt>
      <trkpt lat="48.919" lon="2.36023">
        <ele>37.400001525879</ele>
        <time>2016-08-29T19:13:04.000Z</time>
      </trkpt>
      <trkpt lat="48.91911" lon="2.36052">
        <ele>37</ele>
        <time>2016-08-29T19:13:08.000Z</time>
      </trkpt>
      <trkpt lat="48.91925" lon="2.36082">
        <ele>36.599998474121</ele>
        <time>2016-08-29T19:13:12.000Z</time>
      </trkpt>
      <trkpt lat="48.91941" lon="2.36103">
        <ele>36.799999237061</ele>
        <time>2016-08-29T19:13:15.000Z</time>
      </trkpt>
      <trkpt lat="48.91947" lon="2.36109">
        <ele>36.799999237061</ele>
        <time>2016-08-29T19:13:16.000Z</time>
      </trkpt>
      <trkpt lat="48.91959" lon="2.36135">
        <ele>36.599998474121</ele>
        <time>2016-08-29T19:13:20.000Z</time>
      </trkpt>
      <trkpt lat="48.91964" lon="2.36147">
        <ele>36.400001525879</ele>
        <time>2016-08-29T19:13:22.000Z</time>
      </trkpt>
      <trkpt lat="48.91972" lon="2.3617">
        <ele>36.400001525879</ele>
        <time>2016-08-29T19:13:27.000Z</time>
      </trkpt>
      <trkpt lat="48.9198" lon="2.36173">
        <ele>36.599998474121</ele>
        <time>2016-08-29T19:13:32.000Z</time>
      </trkpt>
      <trkpt lat="48.91981" lon="2.36173">
        <ele>36.599998474121</ele>
        <time>2016-08-29T19:13:33.000Z</time>
      </trkpt>
      <trkpt lat="48.91985" lon="2.36173">
        <ele>36.599998474121</ele>
        <time>2016-08-29T19:13:35.000Z</time>
      </trkpt>
      <trkpt lat="48.91989" lon="2.36171">
        <ele>36.599998474121</ele>
        <time>2016-08-29T19:13:37.000Z</time>
      </trkpt>
      <trkpt lat="48.92011" lon="2.36163">
        <ele>36.799999237061</ele>
        <time>2016-08-29T19:13:46.000Z</time>
      </trkpt>
      <trkpt lat="48.9203" lon="2.36149">
        <ele>36.799999237061</ele>
        <time>2016-08-29T19:13:51.000Z</time>
      </trkpt>
      <trkpt lat="48.92047" lon="2.36143">
        <ele>36.799999237061</ele>
        <time>2016-08-29T19:13:55.000Z</time>
      </trkpt>
      <trkpt lat="48.92069" lon="2.36136">
        <ele>36.599998474121</ele>
        <time>2016-08-29T19:14:00.000Z</time>
      </trkpt>
      <trkpt lat="48.92089" lon="2.36135">
        <ele>37</ele>
        <time>2016-08-29T19:14:05.000Z</time>
      </trkpt>
      <trkpt lat="48.92109" lon="2.3614">
        <ele>37.400001525879</ele>
        <time>2016-08-29T19:14:10.000Z</time>
      </trkpt>
      <trkpt lat="48.92129" lon="2.36138">
        <ele>38.200000762939</ele>
        <time>2016-08-29T19:14:14.000Z</time>
      </trkpt>
      <trkpt lat="48.92149" lon="2.36135">
        <ele>38.799999237061</ele>
        <time>2016-08-29T19:14:18.000Z</time>
      </trkpt>
      <trkpt lat="48.92167" lon="2.36132">
        <ele>39.400001525879</ele>
        <time>2016-08-29T19:14:22.000Z</time>
      </trkpt>
      <trkpt lat="48.92188" lon="2.36133">
        <ele>40</ele>
        <time>2016-08-29T19:14:27.000Z</time>
      </trkpt>
      <trkpt lat="48.92195" lon="2.36135">
        <ele>40</ele>
        <time>2016-08-29T19:14:29.000Z</time>
      </trkpt>
      <trkpt lat="48.92215" lon="2.36136">
        <ele>40.200000762939</ele>
        <time>2016-08-29T19:14:33.000Z</time>
      </trkpt>
      <trkpt lat="48.92233" lon="2.36134">
        <ele>40.599998474121</ele>
        <time>2016-08-29T19:14:38.000Z</time>
      </trkpt>
      <trkpt lat="48.92251" lon="2.36141">
        <ele>40.799999237061</ele>
        <time>2016-08-29T19:14:41.000Z</time>
      </trkpt>
      <trkpt lat="48.92261" lon="2.36164">
        <ele>40.799999237061</ele>
        <time>2016-08-29T19:14:46.000Z</time>
      </trkpt>
      <trkpt lat="48.92265" lon="2.36198">
        <ele>41.200000762939</ele>
        <time>2016-08-29T19:14:51.000Z</time>
      </trkpt>
      <trkpt lat="48.92267" lon="2.3623">
        <ele>41.799999237061</ele>
        <time>2016-08-29T19:14:56.000Z</time>
      </trkpt>
      <trkpt lat="48.9227" lon="2.36259">
        <ele>41.799999237061</ele>
        <time>2016-08-29T19:15:01.000Z</time>
      </trkpt>
      <trkpt lat="48.92279" lon="2.36285">
        <ele>41.799999237061</ele>
        <time>2016-08-29T19:15:09.000Z</time>
      </trkpt>
      <trkpt lat="48.92281" lon="2.36293">
        <ele>41.599998474121</ele>
        <time>2016-08-29T19:15:13.000Z</time>
      </trkpt>
      <trkpt lat="48.92283" lon="2.36264">
        <ele>41.599998474121</ele>
        <time>2016-08-29T19:15:31.000Z</time>
      </trkpt>
      <trkpt lat="48.92279" lon="2.36236">
        <ele>41.799999237061</ele>
        <time>2016-08-29T19:15:39.000Z</time>
      </trkpt>
      <trkpt lat="48.92273" lon="2.36209">
        <ele>41.599998474121</ele>
        <time>2016-08-29T19:15:47.000Z</time>
      </trkpt>
      <trkpt lat="48.92269" lon="2.36189">
        <ele>41.200000762939</ele>
        <time>2016-08-29T19:15:56.000Z</time>
      </trkpt>
      <trkpt lat="48.92268" lon="2.36188">
        <ele>41.200000762939</ele>
        <time>2016-08-29T19:17:11.000Z</time>
      </trkpt>
      <trkpt lat="48.92279" lon="2.36193">
        <ele>41.400001525879</ele>
        <time>2016-08-29T19:18:26.000Z</time>
      </trkpt>
      <trkpt lat="48.92291" lon="2.36218">
        <ele>41.599998474121</ele>
        <time>2016-08-29T19:18:34.000Z</time>
      </trkpt>
      <trkpt lat="48.92306" lon="2.36236">
        <ele>41.799999237061</ele>
        <time>2016-08-29T19:18:40.000Z</time>
      </trkpt>
      <trkpt lat="48.92322" lon="2.36248">
        <ele>42</ele>
        <time>2016-08-29T19:18:46.000Z</time>
      </trkpt>
      <trkpt lat="48.92328" lon="2.36248">
        <ele>42</ele>
        <time>2016-08-29T19:18:48.000Z</time>
      </trkpt>
      <trkpt lat="48.92348" lon="2.36248">
        <ele>42</ele>
        <time>2016-08-29T19:18:54.000Z</time>
      </trkpt>
      <trkpt lat="48.92369" lon="2.36246">
        <ele>42.400001525879</ele>
        <time>2016-08-29T19:19:00.000Z</time>
      </trkpt>
      <trkpt lat="48.92391" lon="2.36244">
        <ele>43.200000762939</ele>
        <time>2016-08-29T19:19:06.000Z</time>
      </trkpt>
      <trkpt lat="48.92411" lon="2.36242">
        <ele>43.799999237061</ele>
        <time>2016-08-29T19:19:11.000Z</time>
      </trkpt>
      <trkpt lat="48.92432" lon="2.36239">
        <ele>44.799999237061</ele>
        <time>2016-08-29T19:19:16.000Z</time>
      </trkpt>
      <trkpt lat="48.92453" lon="2.36238">
        <ele>45</ele>
        <time>2016-08-29T19:19:21.000Z</time>
      </trkpt>
      <trkpt lat="48.92475" lon="2.36235">
        <ele>45.200000762939</ele>
        <time>2016-08-29T19:19:26.000Z</time>
      </trkpt>
      <trkpt lat="48.92494" lon="2.36234">
        <ele>45.200000762939</ele>
        <time>2016-08-29T19:19:30.000Z</time>
      </trkpt>
      <trkpt lat="48.92508" lon="2.36233">
        <ele>45.200000762939</ele>
        <time>2016-08-29T19:19:33.000Z</time>
      </trkpt>
      <trkpt lat="48.92526" lon="2.3623">
        <ele>44</ele>
        <time>2016-08-29T19:19:37.000Z</time>
      </trkpt>
      <trkpt lat="48.92544" lon="2.36227">
        <ele>44.200000762939</ele>
        <time>2016-08-29T19:19:41.000Z</time>
      </trkpt>
      <trkpt lat="48.92563" lon="2.36228">
        <ele>44.200000762939</ele>
        <time>2016-08-29T19:19:45.000Z</time>
      </trkpt>
      <trkpt lat="48.92576" lon="2.36225">
        <ele>44.400001525879</ele>
        <time>2016-08-29T19:19:48.000Z</time>
      </trkpt>
      <trkpt lat="48.92588" lon="2.36218">
        <ele>43.799999237061</ele>
        <time>2016-08-29T19:19:51.000Z</time>
      </trkpt>
      <trkpt lat="48.926" lon="2.36202">
        <ele>42</ele>
        <time>2016-08-29T19:19:55.000Z</time>
      </trkpt>
      <trkpt lat="48.92608" lon="2.36191">
        <ele>40.799999237061</ele>
        <time>2016-08-29T19:19:58.000Z</time>
      </trkpt>
      <trkpt lat="48.92612" lon="2.3617">
        <ele>39.799999237061</ele>
        <time>2016-08-29T19:20:03.000Z</time>
      </trkpt>
      <trkpt lat="48.92611" lon="2.3614">
        <ele>40.799999237061</ele>
        <time>2016-08-29T19:20:09.000Z</time>
      </trkpt>
      <trkpt lat="48.92617" lon="2.3611">
        <ele>41.799999237061</ele>
        <time>2016-08-29T19:20:15.000Z</time>
      </trkpt>
      <trkpt lat="48.92614" lon="2.36078">
        <ele>42.599998474121</ele>
        <time>2016-08-29T19:20:21.000Z</time>
      </trkpt>
      <trkpt lat="48.92611" lon="2.3605">
        <ele>44.200000762939</ele>
        <time>2016-08-29T19:20:26.000Z</time>
      </trkpt>
      <trkpt lat="48.92607" lon="2.36018">
        <ele>46.200000762939</ele>
        <time>2016-08-29T19:20:31.000Z</time>
      </trkpt>
      <trkpt lat="48.92605" lon="2.35985">
        <ele>46.599998474121</ele>
        <time>2016-08-29T19:20:36.000Z</time>
      </trkpt>
      <trkpt lat="48.92602" lon="2.35955">
        <ele>44.799999237061</ele>
        <time>2016-08-29T19:20:41.000Z</time>
      </trkpt>
      <trkpt lat="48.926" lon="2.35923">
        <ele>43</ele>
        <time>2016-08-29T19:20:46.000Z</time>
      </trkpt>
      <trkpt lat="48.92598" lon="2.3589">
        <ele>41.599998474121</ele>
        <time>2016-08-29T19:20:51.000Z</time>
      </trkpt>
      <trkpt lat="48.92597" lon="2.35859">
        <ele>41.200000762939</ele>
        <time>2016-08-29T19:20:56.000Z</time>
      </trkpt>
      <trkpt lat="48.92592" lon="2.35832">
        <ele>41.400001525879</ele>
        <time>2016-08-29T19:21:02.000Z</time>
      </trkpt>
      <trkpt lat="48.9259" lon="2.35829">
        <ele>41.599998474121</ele>
        <time>2016-08-29T19:21:05.000Z</time>
      </trkpt>
      <trkpt lat="48.92596" lon="2.35828">
        <ele>40.799999237061</ele>
        <time>2016-08-29T19:21:16.000Z</time>
      </trkpt>
      <trkpt lat="48.92584" lon="2.35824">
        <ele>41.799999237061</ele>
        <time>2016-08-29T19:22:03.000Z</time>
      </trkpt>
      <trkpt lat="48.92581" lon="2.35818">
        <ele>41.599998474121</ele>
        <time>2016-08-29T19:22:05.000Z</time>
      </trkpt>
      <trkpt lat="48.92578" lon="2.35791">
        <ele>40.400001525879</ele>
        <time>2016-08-29T19:22:12.000Z</time>
      </trkpt>
      <trkpt lat="48.92571" lon="2.35765">
        <ele>40.200000762939</ele>
        <time>2016-08-29T19:22:19.000Z</time>
      </trkpt>
      <trkpt lat="48.9256" lon="2.35751">
        <ele>40.400001525879</ele>
        <time>2016-08-29T19:22:26.000Z</time>
      </trkpt>
      <trkpt lat="48.9255" lon="2.35754">
        <ele>41</ele>
        <time>2016-08-29T19:22:31.000Z</time>
      </trkpt>
      <trkpt lat="48.92533" lon="2.35753">
        <ele>41.599998474121</ele>
        <time>2016-08-29T19:22:41.000Z</time>
      </trkpt>
      <trkpt lat="48.92532" lon="2.35754">
        <ele>41.799999237061</ele>
        <time>2016-08-29T19:22:42.000Z</time>
      </trkpt>
      <trkpt lat="48.92518" lon="2.35763">
        <ele>43</ele>
        <time>2016-08-29T19:22:59.000Z</time>
      </trkpt>
      <trkpt lat="48.92521" lon="2.35761">
        <ele>43</ele>
        <time>2016-08-29T19:23:55.000Z</time>
      </trkpt>
      <trkpt lat="48.92503" lon="2.35759">
        <ele>42.599998474121</ele>
        <time>2016-08-29T19:24:06.000Z</time>
      </trkpt>
      <trkpt lat="48.92488" lon="2.3576">
        <ele>42.400001525879</ele>
        <time>2016-08-29T19:24:16.000Z</time>
      </trkpt>
      <trkpt lat="48.92476" lon="2.35773">
        <ele>43.200000762939</ele>
        <time>2016-08-29T19:24:44.000Z</time>
      </trkpt>
      <trkpt lat="48.92457" lon="2.35782">
        <ele>43.599998474121</ele>
        <time>2016-08-29T19:24:51.000Z</time>
      </trkpt>
      <trkpt lat="48.92438" lon="2.35789">
        <ele>44</ele>
        <time>2016-08-29T19:24:58.000Z</time>
      </trkpt>
      <trkpt lat="48.92419" lon="2.35796">
        <ele>44.200000762939</ele>
        <time>2016-08-29T19:25:04.000Z</time>
      </trkpt>
      <trkpt lat="48.92399" lon="2.35796">
        <ele>43.799999237061</ele>
        <time>2016-08-29T19:25:08.000Z</time>
      </trkpt>
      <trkpt lat="48.92378" lon="2.358">
        <ele>43.200000762939</ele>
        <time>2016-08-29T19:25:13.000Z</time>
      </trkpt>
      <trkpt lat="48.92358" lon="2.35803">
        <ele>42.599998474121</ele>
        <time>2016-08-29T19:25:18.000Z</time>
      </trkpt>
      <trkpt lat="48.92337" lon="2.35808">
        <ele>43</ele>
        <time>2016-08-29T19:25:24.000Z</time>
      </trkpt>
      <trkpt lat="48.92324" lon="2.35829">
        <ele>42.799999237061</ele>
        <time>2016-08-29T19:25:30.000Z</time>
      </trkpt>
      <trkpt lat="48.92309" lon="2.35846">
        <ele>43.799999237061</ele>
        <time>2016-08-29T19:25:36.000Z</time>
      </trkpt>
      <trkpt lat="48.92301" lon="2.3587">
        <ele>45.200000762939</ele>
        <time>2016-08-29T19:25:43.000Z</time>
      </trkpt>
      <trkpt lat="48.92296" lon="2.35898">
        <ele>45.400001525879</ele>
        <time>2016-08-29T19:25:49.000Z</time>
      </trkpt>
      <trkpt lat="48.92286" lon="2.35928">
        <ele>44.799999237061</ele>
        <time>2016-08-29T19:25:54.000Z</time>
      </trkpt>
      <trkpt lat="48.92287" lon="2.35961">
        <ele>46</ele>
        <time>2016-08-29T19:25:59.000Z</time>
      </trkpt>
      <trkpt lat="48.92288" lon="2.35988">
        <ele>47.200000762939</ele>
        <time>2016-08-29T19:26:03.000Z</time>
      </trkpt>
      <trkpt lat="48.9229" lon="2.36017">
        <ele>47.599998474121</ele>
        <time>2016-08-29T19:26:07.000Z</time>
      </trkpt>
      <trkpt lat="48.92291" lon="2.36049">
        <ele>46.599998474121</ele>
        <time>2016-08-29T19:26:12.000Z</time>
      </trkpt>
      <trkpt lat="48.92292" lon="2.36082">
        <ele>45.599998474121</ele>
        <time>2016-08-29T19:26:17.000Z</time>
      </trkpt>
      <trkpt lat="48.92292" lon="2.36089">
        <ele>45.200000762939</ele>
        <time>2016-08-29T19:26:18.000Z</time>
      </trkpt>
      <trkpt lat="48.92297" lon="2.3612">
        <ele>44.799999237061</ele>
        <time>2016-08-29T19:26:23.000Z</time>
      </trkpt>
      <trkpt lat="48.92297" lon="2.36134">
        <ele>44.400001525879</ele>
        <time>2016-08-29T19:26:25.000Z</time>
      </trkpt>
      <trkpt lat="48.92295" lon="2.36165">
        <ele>43.599998474121</ele>
        <time>2016-08-29T19:26:30.000Z</time>
      </trkpt>
      <trkpt lat="48.92294" lon="2.36193">
        <ele>41.400001525879</ele>
        <time>2016-08-29T19:26:37.000Z</time>
      </trkpt>
      <trkpt lat="48.92284" lon="2.36217">
        <ele>41.599998474121</ele>
        <time>2016-08-29T19:26:45.000Z</time>
      </trkpt>
      <trkpt lat="48.92283" lon="2.36246">
        <ele>42</ele>
        <time>2016-08-29T19:26:54.000Z</time>
      </trkpt>
      <trkpt lat="48.92283" lon="2.36248">
        <ele>42</ele>
        <time>2016-08-29T19:26:55.000Z</time>
      </trkpt>
      <trkpt lat="48.9229" lon="2.36271">
        <ele>41.200000762939</ele>
        <time>2016-08-29T19:27:12.000Z</time>
      </trkpt>
      <trkpt lat="48.92309" lon="2.36272">
        <ele>40.799999237061</ele>
        <time>2016-08-29T19:27:19.000Z</time>
      </trkpt>
      <trkpt lat="48.92328" lon="2.3627">
        <ele>41</ele>
        <time>2016-08-29T19:27:24.000Z</time>
      </trkpt>
      <trkpt lat="48.92347" lon="2.36267">
        <ele>41</ele>
        <time>2016-08-29T19:27:29.000Z</time>
      </trkpt>
      <trkpt lat="48.92368" lon="2.36265">
        <ele>41.400001525879</ele>
        <time>2016-08-29T19:27:34.000Z</time>
      </trkpt>
      <trkpt lat="48.92389" lon="2.36261">
        <ele>42</ele>
        <time>2016-08-29T19:27:39.000Z</time>
      </trkpt>
      <trkpt lat="48.92411" lon="2.36254">
        <ele>42.799999237061</ele>
        <time>2016-08-29T19:27:44.000Z</time>
      </trkpt>
      <trkpt lat="48.9243" lon="2.36252">
        <ele>43.400001525879</ele>
        <time>2016-08-29T19:27:48.000Z</time>
      </trkpt>
      <trkpt lat="48.92452" lon="2.3624">
        <ele>44.799999237061</ele>
        <time>2016-08-29T19:27:53.000Z</time>
      </trkpt>
      <trkpt lat="48.92471" lon="2.36234">
        <ele>45.400001525879</ele>
        <time>2016-08-29T19:27:57.000Z</time>
      </trkpt>
      <trkpt lat="48.92495" lon="2.36232">
        <ele>45.400001525879</ele>
        <time>2016-08-29T19:28:01.000Z</time>
      </trkpt>
      <trkpt lat="48.92499" lon="2.36231">
        <ele>45.599998474121</ele>
        <time>2016-08-29T19:28:02.000Z</time>
      </trkpt>
      <trkpt lat="48.92519" lon="2.36227">
        <ele>44.599998474121</ele>
        <time>2016-08-29T19:28:06.000Z</time>
      </trkpt>
      <trkpt lat="48.92534" lon="2.36226">
        <ele>44.200000762939</ele>
        <time>2016-08-29T19:28:09.000Z</time>
      </trkpt>
      <trkpt lat="48.92555" lon="2.36231">
        <ele>44</ele>
        <time>2016-08-29T19:28:13.000Z</time>
      </trkpt>
      <trkpt lat="48.92565" lon="2.36231">
        <ele>44</ele>
        <time>2016-08-29T19:28:15.000Z</time>
      </trkpt>
      <trkpt lat="48.92574" lon="2.3623">
        <ele>44</ele>
        <time>2016-08-29T19:28:17.000Z</time>
      </trkpt>
      <trkpt lat="48.92595" lon="2.36228">
        <ele>43.400001525879</ele>
        <time>2016-08-29T19:28:22.000Z</time>
      </trkpt>
      <trkpt lat="48.92602" lon="2.36226">
        <ele>42.599998474121</ele>
        <time>2016-08-29T19:28:24.000Z</time>
      </trkpt>
      <trkpt lat="48.92613" lon="2.36246">
        <ele>42.599998474121</ele>
        <time>2016-08-29T19:28:29.000Z</time>
      </trkpt>
      <trkpt lat="48.92614" lon="2.36277">
        <ele>43.400001525879</ele>
        <time>2016-08-29T19:28:33.000Z</time>
      </trkpt>
      <trkpt lat="48.92614" lon="2.36285">
        <ele>43.599998474121</ele>
        <time>2016-08-29T19:28:34.000Z</time>
      </trkpt>
      <trkpt lat="48.92614" lon="2.36301">
        <ele>44.200000762939</ele>
        <time>2016-08-29T19:28:36.000Z</time>
      </trkpt>
      <trkpt lat="48.92607" lon="2.36326">
        <ele>45.799999237061</ele>
        <time>2016-08-29T19:28:40.000Z</time>
      </trkpt>
      <trkpt lat="48.92604" lon="2.36332">
        <ele>45.599998474121</ele>
        <time>2016-08-29T19:28:41.000Z</time>
      </trkpt>
      <trkpt lat="48.92593" lon="2.36358">
        <ele>42.599998474121</ele>
        <time>2016-08-29T19:28:45.000Z</time>
      </trkpt>
      <trkpt lat="48.92578" lon="2.36382">
        <ele>39.599998474121</ele>
        <time>2016-08-29T19:28:49.000Z</time>
      </trkpt>
      <trkpt lat="48.92568" lon="2.364">
        <ele>39.200000762939</ele>
        <time>2016-08-29T19:28:53.000Z</time>
      </trkpt>
      <trkpt lat="48.92559" lon="2.36405">
        <ele>39.200000762939</ele>
        <time>2016-08-29T19:28:57.000Z</time>
      </trkpt>
      <trkpt lat="48.92556" lon="2.36405">
        <ele>39.200000762939</ele>
        <time>2016-08-29T19:28:59.000Z</time>
      </trkpt>
      <trkpt lat="48.9255" lon="2.36403">
        <ele>39.200000762939</ele>
        <time>2016-08-29T19:29:03.000Z</time>
      </trkpt>
      <trkpt lat="48.92548" lon="2.3642">
        <ele>38.799999237061</ele>
        <time>2016-08-29T19:29:08.000Z</time>
      </trkpt>
      <trkpt lat="48.92547" lon="2.36424">
        <ele>38.599998474121</ele>
        <time>2016-08-29T19:29:09.000Z</time>
      </trkpt>
      <trkpt lat="48.92545" lon="2.36433">
        <ele>38.200000762939</ele>
        <time>2016-08-29T19:29:12.000Z</time>
      </trkpt>
      <trkpt lat="48.92553" lon="2.36438">
        <ele>37.799999237061</ele>
        <time>2016-08-29T19:29:16.000Z</time>
      </trkpt>
      <trkpt lat="48.92564" lon="2.36443">
        <ele>37.599998474121</ele>
        <time>2016-08-29T19:29:21.000Z</time>
      </trkpt>
      <trkpt lat="48.92565" lon="2.3647">
        <ele>37.200000762939</ele>
        <time>2016-08-29T19:29:31.000Z</time>
      </trkpt>
      <trkpt lat="48.92575" lon="2.3649">
        <ele>36.799999237061</ele>
        <time>2016-08-29T19:29:42.000Z</time>
      </trkpt>
      <trkpt lat="48.92583" lon="2.36502">
        <ele>36.400001525879</ele>
        <time>2016-08-29T19:29:47.000Z</time>
      </trkpt>
      <trkpt lat="48.92596" lon="2.36522">
        <ele>35.599998474121</ele>
        <time>2016-08-29T19:29:53.000Z</time>
      </trkpt>
      <trkpt lat="48.9261" lon="2.36542">
        <ele>35</ele>
        <time>2016-08-29T19:29:58.000Z</time>
      </trkpt>
      <trkpt lat="48.92623" lon="2.36563">
        <ele>34.799999237061</ele>
        <time>2016-08-29T19:30:02.000Z</time>
      </trkpt>
      <trkpt lat="48.92638" lon="2.36586">
        <ele>34.599998474121</ele>
        <time>2016-08-29T19:30:06.000Z</time>
      </trkpt>
      <trkpt lat="48.92651" lon="2.36607">
        <ele>34.200000762939</ele>
        <time>2016-08-29T19:30:10.000Z</time>
      </trkpt>
      <trkpt lat="48.92652" lon="2.36617">
        <ele>34</ele>
        <time>2016-08-29T19:30:12.000Z</time>
      </trkpt>
      <trkpt lat="48.92639" lon="2.36638">
        <ele>34.200000762939</ele>
        <time>2016-08-29T19:30:18.000Z</time>
      </trkpt>
      <trkpt lat="48.92637" lon="2.36642">
        <ele>34.200000762939</ele>
        <time>2016-08-29T19:30:19.000Z</time>
      </trkpt>
      <trkpt lat="48.92621" lon="2.36664">
        <ele>34.599998474121</ele>
        <time>2016-08-29T19:30:26.000Z</time>
      </trkpt>
      <trkpt lat="48.92604" lon="2.3668">
        <ele>34.799999237061</ele>
        <time>2016-08-29T19:30:31.000Z</time>
      </trkpt>
      <trkpt lat="48.9259" lon="2.36697">
        <ele>34.799999237061</ele>
        <time>2016-08-29T19:30:36.000Z</time>
      </trkpt>
      <trkpt lat="48.92575" lon="2.36716">
        <ele>34.799999237061</ele>
        <time>2016-08-29T19:30:41.000Z</time>
      </trkpt>
      <trkpt lat="48.9256" lon="2.3673">
        <ele>34.400001525879</ele>
        <time>2016-08-29T19:30:45.000Z</time>
      </trkpt>
      <trkpt lat="48.92542" lon="2.36746">
        <ele>34</ele>
        <time>2016-08-29T19:30:49.000Z</time>
      </trkpt>
      <trkpt lat="48.92522" lon="2.36761">
        <ele>34</ele>
        <time>2016-08-29T19:30:54.000Z</time>
      </trkpt>
      <trkpt lat="48.92506" lon="2.36779">
        <ele>34.400001525879</ele>
        <time>2016-08-29T19:30:59.000Z</time>
      </trkpt>
      <trkpt lat="48.92488" lon="2.368">
        <ele>34.799999237061</ele>
        <time>2016-08-29T19:31:03.000Z</time>
      </trkpt>
      <trkpt lat="48.92469" lon="2.36816">
        <ele>35.400001525879</ele>
        <time>2016-08-29T19:31:06.000Z</time>
      </trkpt>
      <trkpt lat="48.9245" lon="2.36836">
        <ele>35.799999237061</ele>
        <time>2016-08-29T19:31:10.000Z</time>
      </trkpt>
      <trkpt lat="48.92432" lon="2.36856">
        <ele>35.599998474121</ele>
        <time>2016-08-29T19:31:13.000Z</time>
      </trkpt>
      <trkpt lat="48.92417" lon="2.36877">
        <ele>35.200000762939</ele>
        <time>2016-08-29T19:31:16.000Z</time>
      </trkpt>
      <trkpt lat="48.92404" lon="2.36899">
        <ele>35</ele>
        <time>2016-08-29T19:31:19.000Z</time>
      </trkpt>
      <trkpt lat="48.92388" lon="2.36924">
        <ele>34.799999237061</ele>
        <time>2016-08-29T19:31:23.000Z</time>
      </trkpt>
      <trkpt lat="48.9237" lon="2.36947">
        <ele>34.799999237061</ele>
        <time>2016-08-29T19:31:27.000Z</time>
      </trkpt>
      <trkpt lat="48.92367" lon="2.36953">
        <ele>34.799999237061</ele>
        <time>2016-08-29T19:31:28.000Z</time>
      </trkpt>
      <trkpt lat="48.92359" lon="2.36968">
        <ele>35</ele>
        <time>2016-08-29T19:31:31.000Z</time>
      </trkpt>
      <trkpt lat="48.92344" lon="2.36985">
        <ele>35</ele>
        <time>2016-08-29T19:31:35.000Z</time>
      </trkpt>
      <trkpt lat="48.92335" lon="2.36994">
        <ele>35</ele>
        <time>2016-08-29T19:31:38.000Z</time>
      </trkpt>
      <trkpt lat="48.92326" lon="2.36996">
        <ele>35</ele>
        <time>2016-08-29T19:31:44.000Z</time>
      </trkpt>
      <trkpt lat="48.92326" lon="2.36996">
        <ele>35</ele>
        <time>2016-08-29T19:31:45.000Z</time>
      </trkpt>
      <trkpt lat="48.92313" lon="2.37009">
        <ele>34.799999237061</ele>
        <time>2016-08-29T19:32:19.000Z</time>
      </trkpt>
      <trkpt lat="48.92305" lon="2.37039">
        <ele>34.599998474121</ele>
        <time>2016-08-29T19:32:25.000Z</time>
      </trkpt>
      <trkpt lat="48.92303" lon="2.37045">
        <ele>34.400001525879</ele>
        <time>2016-08-29T19:32:26.000Z</time>
      </trkpt>
      <trkpt lat="48.92292" lon="2.37074">
        <ele>34</ele>
        <time>2016-08-29T19:32:31.000Z</time>
      </trkpt>
      <trkpt lat="48.92288" lon="2.37088">
        <ele>34</ele>
        <time>2016-08-29T19:32:33.000Z</time>
      </trkpt>
      <trkpt lat="48.9228" lon="2.37115">
        <ele>34.400001525879</ele>
        <time>2016-08-29T19:32:37.000Z</time>
      </trkpt>
      <trkpt lat="48.92272" lon="2.37147">
        <ele>34.799999237061</ele>
        <time>2016-08-29T19:32:41.000Z</time>
      </trkpt>
      <trkpt lat="48.92265" lon="2.37175">
        <ele>35</ele>
        <time>2016-08-29T19:32:44.000Z</time>
      </trkpt>
      <trkpt lat="48.92256" lon="2.37205">
        <ele>35</ele>
        <time>2016-08-29T19:32:47.000Z</time>
      </trkpt>
      <trkpt lat="48.92239" lon="2.37234">
        <ele>34.799999237061</ele>
        <time>2016-08-29T19:32:50.000Z</time>
      </trkpt>
      <trkpt lat="48.92225" lon="2.37265">
        <ele>34.599998474121</ele>
        <time>2016-08-29T19:32:53.000Z</time>
      </trkpt>
      <trkpt lat="48.92213" lon="2.37296">
        <ele>35.400001525879</ele>
        <time>2016-08-29T19:32:56.000Z</time>
      </trkpt>
      <trkpt lat="48.9221" lon="2.37305">
        <ele>35.799999237061</ele>
        <time>2016-08-29T19:32:57.000Z</time>
      </trkpt>
      <trkpt lat="48.92203" lon="2.37334">
        <ele>36.799999237061</ele>
        <time>2016-08-29T19:33:00.000Z</time>
      </trkpt>
      <trkpt lat="48.92201" lon="2.37353">
        <ele>36.799999237061</ele>
        <time>2016-08-29T19:33:02.000Z</time>
      </trkpt>
      <trkpt lat="48.92198" lon="2.37381">
        <ele>36.799999237061</ele>
        <time>2016-08-29T19:33:05.000Z</time>
      </trkpt>
      <trkpt lat="48.92196" lon="2.37411">
        <ele>36.799999237061</ele>
        <time>2016-08-29T19:33:08.000Z</time>
      </trkpt>
      <trkpt lat="48.92195" lon="2.37429">
        <ele>37</ele>
        <time>2016-08-29T19:33:10.000Z</time>
      </trkpt>
      <trkpt lat="48.92189" lon="2.37463">
        <ele>37.599998474121</ele>
        <time>2016-08-29T19:33:14.000Z</time>
      </trkpt>
      <trkpt lat="48.92185" lon="2.37471">
        <ele>37.799999237061</ele>
        <time>2016-08-29T19:33:15.000Z</time>
      </trkpt>
      <trkpt lat="48.92172" lon="2.375">
        <ele>38</ele>
        <time>2016-08-29T19:33:19.000Z</time>
      </trkpt>
      <trkpt lat="48.92159" lon="2.37523">
        <ele>38.200000762939</ele>
        <time>2016-08-29T19:33:23.000Z</time>
      </trkpt>
      <trkpt lat="48.92142" lon="2.37539">
        <ele>38.400001525879</ele>
        <time>2016-08-29T19:33:28.000Z</time>
      </trkpt>
      <trkpt lat="48.92124" lon="2.37544">
        <ele>37.799999237061</ele>
        <time>2016-08-29T19:33:34.000Z</time>
      </trkpt>
      <trkpt lat="48.9211" lon="2.37545">
        <ele>37.400001525879</ele>
        <time>2016-08-29T19:33:48.000Z</time>
      </trkpt>
      <trkpt lat="48.92107" lon="2.37547">
        <ele>37.400001525879</ele>
        <time>2016-08-29T19:33:53.000Z</time>
      </trkpt>
      <trkpt lat="48.92114" lon="2.37576">
        <ele>37.200000762939</ele>
        <time>2016-08-29T19:34:03.000Z</time>
      </trkpt>
      <trkpt lat="48.92119" lon="2.37603">
        <ele>37</ele>
        <time>2016-08-29T19:34:13.000Z</time>
      </trkpt>
      <trkpt lat="48.92116" lon="2.37635">
        <ele>36</ele>
        <time>2016-08-29T19:34:23.000Z</time>
      </trkpt>
      <trkpt lat="48.92112" lon="2.37666">
        <ele>35.200000762939</ele>
        <time>2016-08-29T19:34:28.000Z</time>
      </trkpt>
      <trkpt lat="48.92103" lon="2.37689">
        <ele>34.799999237061</ele>
        <time>2016-08-29T19:34:32.000Z</time>
      </trkpt>
      <trkpt lat="48.92091" lon="2.3771">
        <ele>34.599998474121</ele>
        <time>2016-08-29T19:34:36.000Z</time>
      </trkpt>
      <trkpt lat="48.92076" lon="2.37727">
        <ele>34.599998474121</ele>
        <time>2016-08-29T19:34:40.000Z</time>
      </trkpt>
      <trkpt lat="48.92057" lon="2.37741">
        <ele>34.599998474121</ele>
        <time>2016-08-29T19:34:44.000Z</time>
      </trkpt>
      <trkpt lat="48.92037" lon="2.37754">
        <ele>34.799999237061</ele>
        <time>2016-08-29T19:34:47.000Z</time>
      </trkpt>
      <trkpt lat="48.92016" lon="2.37768">
        <ele>35</ele>
        <time>2016-08-29T19:34:50.000Z</time>
      </trkpt>
      <trkpt lat="48.92009" lon="2.37772">
        <ele>34.799999237061</ele>
        <time>2016-08-29T19:34:51.000Z</time>
      </trkpt>
      <trkpt lat="48.91988" lon="2.37784">
        <ele>34.599998474121</ele>
        <time>2016-08-29T19:34:54.000Z</time>
      </trkpt>
      <trkpt lat="48.91968" lon="2.37798">
        <ele>35.200000762939</ele>
        <time>2016-08-29T19:34:57.000Z</time>
      </trkpt>
      <trkpt lat="48.9195" lon="2.37811">
        <ele>36</ele>
        <time>2016-08-29T19:35:00.000Z</time>
      </trkpt>
      <trkpt lat="48.91932" lon="2.37823">
        <ele>36.799999237061</ele>
        <time>2016-08-29T19:35:03.000Z</time>
      </trkpt>
      <trkpt lat="48.91912" lon="2.37838">
        <ele>36.599998474121</ele>
        <time>2016-08-29T19:35:07.000Z</time>
      </trkpt>
      <trkpt lat="48.91894" lon="2.37851">
        <ele>36.200000762939</ele>
        <time>2016-08-29T19:35:11.000Z</time>
      </trkpt>
      <trkpt lat="48.91876" lon="2.37863">
        <ele>36</ele>
        <time>2016-08-29T19:35:16.000Z</time>
      </trkpt>
      <trkpt lat="48.91858" lon="2.37875">
        <ele>36</ele>
        <time>2016-08-29T19:35:22.000Z</time>
      </trkpt>
      <trkpt lat="48.91844" lon="2.37885">
        <ele>36</ele>
        <time>2016-08-29T19:35:27.000Z</time>
      </trkpt>
      <trkpt lat="48.91833" lon="2.37894">
        <ele>36</ele>
        <time>2016-08-29T19:35:31.000Z</time>
      </trkpt>
      <trkpt lat="48.91815" lon="2.37906">
        <ele>36</ele>
        <time>2016-08-29T19:35:36.000Z</time>
      </trkpt>
      <trkpt lat="48.91807" lon="2.3791">
        <ele>36</ele>
        <time>2016-08-29T19:35:38.000Z</time>
      </trkpt>
      <trkpt lat="48.91786" lon="2.3792">
        <ele>36</ele>
        <time>2016-08-29T19:35:42.000Z</time>
      </trkpt>
      <trkpt lat="48.91768" lon="2.37932">
        <ele>35.799999237061</ele>
        <time>2016-08-29T19:35:46.000Z</time>
      </trkpt>
      <trkpt lat="48.91752" lon="2.37946">
        <ele>35.400001525879</ele>
        <time>2016-08-29T19:35:50.000Z</time>
      </trkpt>
      <trkpt lat="48.9174" lon="2.37954">
        <ele>35.200000762939</ele>
        <time>2016-08-29T19:35:53.000Z</time>
      </trkpt>
      <trkpt lat="48.91727" lon="2.37963">
        <ele>35</ele>
        <time>2016-08-29T19:35:56.000Z</time>
      </trkpt>
      <trkpt lat="48.91708" lon="2.37973">
        <ele>35</ele>
        <time>2016-08-29T19:36:00.000Z</time>
      </trkpt>
      <trkpt lat="48.91688" lon="2.37982">
        <ele>34.799999237061</ele>
        <time>2016-08-29T19:36:04.000Z</time>
      </trkpt>
      <trkpt lat="48.91685" lon="2.37985">
        <ele>34.799999237061</ele>
        <time>2016-08-29T19:36:05.000Z</time>
      </trkpt>
      <trkpt lat="48.91666" lon="2.38">
        <ele>35.400001525879</ele>
        <time>2016-08-29T19:36:10.000Z</time>
      </trkpt>
      <trkpt lat="48.91662" lon="2.38002">
        <ele>35.400001525879</ele>
        <time>2016-08-29T19:36:11.000Z</time>
      </trkpt>
      <trkpt lat="48.91656" lon="2.38006">
        <ele>35.599998474121</ele>
        <time>2016-08-29T19:36:13.000Z</time>
      </trkpt>
      <trkpt lat="48.91638" lon="2.38019">
        <ele>35.799999237061</ele>
        <time>2016-08-29T19:36:20.000Z</time>
      </trkpt>
      <trkpt lat="48.91635" lon="2.38021">
        <ele>36</ele>
        <time>2016-08-29T19:36:21.000Z</time>
      </trkpt>
      <trkpt lat="48.91628" lon="2.38027">
        <ele>36</ele>
        <time>2016-08-29T19:36:24.000Z</time>
      </trkpt>
      <trkpt lat="48.91613" lon="2.38041">
        <ele>36</ele>
        <time>2016-08-29T19:36:31.000Z</time>
      </trkpt>
      <trkpt lat="48.91609" lon="2.38044">
        <ele>36</ele>
        <time>2016-08-29T19:36:33.000Z</time>
      </trkpt>
      <trkpt lat="48.91601" lon="2.38061">
        <ele>36</ele>
        <time>2016-08-29T19:36:40.000Z</time>
      </trkpt>
      <trkpt lat="48.91585" lon="2.38075">
        <ele>36.200000762939</ele>
        <time>2016-08-29T19:36:45.000Z</time>
      </trkpt>
      <trkpt lat="48.91566" lon="2.38083">
        <ele>36.599998474121</ele>
        <time>2016-08-29T19:36:51.000Z</time>
      </trkpt>
      <trkpt lat="48.91546" lon="2.38099">
        <ele>37</ele>
        <time>2016-08-29T19:36:56.000Z</time>
      </trkpt>
      <trkpt lat="48.91532" lon="2.38109">
        <ele>37.599998474121</ele>
        <time>2016-08-29T19:37:01.000Z</time>
      </trkpt>
      <trkpt lat="48.9152" lon="2.38114">
        <ele>38.200000762939</ele>
        <time>2016-08-29T19:37:08.000Z</time>
      </trkpt>
      <trkpt lat="48.91501" lon="2.3813">
        <ele>39.200000762939</ele>
        <time>2016-08-29T19:37:41.000Z</time>
      </trkpt>
      <trkpt lat="48.91484" lon="2.38144">
        <ele>39.599998474121</ele>
        <time>2016-08-29T19:37:48.000Z</time>
      </trkpt>
      <trkpt lat="48.91468" lon="2.38161">
        <ele>39.400001525879</ele>
        <time>2016-08-29T19:37:53.000Z</time>
      </trkpt>
      <trkpt lat="48.91452" lon="2.3818">
        <ele>39</ele>
        <time>2016-08-29T19:37:58.000Z</time>
      </trkpt>
      <trkpt lat="48.91435" lon="2.38201">
        <ele>40</ele>
        <time>2016-08-29T19:38:04.000Z</time>
      </trkpt>
      <trkpt lat="48.9142" lon="2.38217">
        <ele>41</ele>
        <time>2016-08-29T19:38:09.000Z</time>
      </trkpt>
      <trkpt lat="48.91402" lon="2.38234">
        <ele>41.400001525879</ele>
        <time>2016-08-29T19:38:14.000Z</time>
      </trkpt>
      <trkpt lat="48.91385" lon="2.38249">
        <ele>41.599998474121</ele>
        <time>2016-08-29T19:38:19.000Z</time>
      </trkpt>
      <trkpt lat="48.9137" lon="2.38265">
        <ele>41.799999237061</ele>
        <time>2016-08-29T19:38:23.000Z</time>
      </trkpt>
      <trkpt lat="48.91354" lon="2.38281">
        <ele>42</ele>
        <time>2016-08-29T19:38:27.000Z</time>
      </trkpt>
      <trkpt lat="48.9134" lon="2.383">
        <ele>42.400001525879</ele>
        <time>2016-08-29T19:38:31.000Z</time>
      </trkpt>
      <trkpt lat="48.91323" lon="2.38312">
        <ele>42.400001525879</ele>
        <time>2016-08-29T19:38:34.000Z</time>
      </trkpt>
      <trkpt lat="48.91303" lon="2.38323">
        <ele>42.200000762939</ele>
        <time>2016-08-29T19:38:37.000Z</time>
      </trkpt>
      <trkpt lat="48.91284" lon="2.38343">
        <ele>41.799999237061</ele>
        <time>2016-08-29T19:38:41.000Z</time>
      </trkpt>
      <trkpt lat="48.91267" lon="2.38363">
        <ele>41.599998474121</ele>
        <time>2016-08-29T19:38:45.000Z</time>
      </trkpt>
      <trkpt lat="48.91252" lon="2.38381">
        <ele>41.400001525879</ele>
        <time>2016-08-29T19:38:49.000Z</time>
      </trkpt>
      <trkpt lat="48.91241" lon="2.38393">
        <ele>41.200000762939</ele>
        <time>2016-08-29T19:38:52.000Z</time>
      </trkpt>
      <trkpt lat="48.91226" lon="2.38408">
        <ele>41</ele>
        <time>2016-08-29T19:38:56.000Z</time>
      </trkpt>
      <trkpt lat="48.91221" lon="2.38411">
        <ele>41</ele>
        <time>2016-08-29T19:38:57.000Z</time>
      </trkpt>
      <trkpt lat="48.912" lon="2.38428">
        <ele>40.799999237061</ele>
        <time>2016-08-29T19:39:01.000Z</time>
      </trkpt>
      <trkpt lat="48.91182" lon="2.38446">
        <ele>41</ele>
        <time>2016-08-29T19:39:05.000Z</time>
      </trkpt>
      <trkpt lat="48.91163" lon="2.38461">
        <ele>41</ele>
        <time>2016-08-29T19:39:09.000Z</time>
      </trkpt>
      <trkpt lat="48.91146" lon="2.38477">
        <ele>41</ele>
        <time>2016-08-29T19:39:13.000Z</time>
      </trkpt>
      <trkpt lat="48.9113" lon="2.38494">
        <ele>41</ele>
        <time>2016-08-29T19:39:17.000Z</time>
      </trkpt>
      <trkpt lat="48.91112" lon="2.38512">
        <ele>41.400001525879</ele>
        <time>2016-08-29T19:39:21.000Z</time>
      </trkpt>
      <trkpt lat="48.91101" lon="2.38519">
        <ele>41.799999237061</ele>
        <time>2016-08-29T19:39:24.000Z</time>
      </trkpt>
      <trkpt lat="48.91083" lon="2.38539">
        <ele>43</ele>
        <time>2016-08-29T19:39:29.000Z</time>
      </trkpt>
      <trkpt lat="48.91065" lon="2.38559">
        <ele>43.200000762939</ele>
        <time>2016-08-29T19:39:33.000Z</time>
      </trkpt>
      <trkpt lat="48.91047" lon="2.38578">
        <ele>42.599998474121</ele>
        <time>2016-08-29T19:39:37.000Z</time>
      </trkpt>
      <trkpt lat="48.91039" lon="2.38586">
        <ele>42.400001525879</ele>
        <time>2016-08-29T19:39:39.000Z</time>
      </trkpt>
      <trkpt lat="48.91022" lon="2.38602">
        <ele>41.799999237061</ele>
        <time>2016-08-29T19:39:43.000Z</time>
      </trkpt>
      <trkpt lat="48.91006" lon="2.38616">
        <ele>41.599998474121</ele>
        <time>2016-08-29T19:39:47.000Z</time>
      </trkpt>
      <trkpt lat="48.90983" lon="2.3863">
        <ele>41.400001525879</ele>
        <time>2016-08-29T19:39:51.000Z</time>
      </trkpt>
      <trkpt lat="48.90962" lon="2.38643">
        <ele>41.799999237061</ele>
        <time>2016-08-29T19:39:55.000Z</time>
      </trkpt>
      <trkpt lat="48.90952" lon="2.38652">
        <ele>41.799999237061</ele>
        <time>2016-08-29T19:39:57.000Z</time>
      </trkpt>
      <trkpt lat="48.90941" lon="2.38666">
        <ele>42</ele>
        <time>2016-08-29T19:40:00.000Z</time>
      </trkpt>
      <trkpt lat="48.90923" lon="2.38685">
        <ele>42.400001525879</ele>
        <time>2016-08-29T19:40:05.000Z</time>
      </trkpt>
      <trkpt lat="48.90906" lon="2.38706">
        <ele>42.799999237061</ele>
        <time>2016-08-29T19:40:10.000Z</time>
      </trkpt>
      <trkpt lat="48.90892" lon="2.38728">
        <ele>42.400001525879</ele>
        <time>2016-08-29T19:40:15.000Z</time>
      </trkpt>
      <trkpt lat="48.90876" lon="2.38745">
        <ele>41.799999237061</ele>
        <time>2016-08-29T19:40:20.000Z</time>
      </trkpt>
      <trkpt lat="48.9086" lon="2.38762">
        <ele>42.200000762939</ele>
        <time>2016-08-29T19:40:24.000Z</time>
      </trkpt>
      <trkpt lat="48.90849" lon="2.3877">
        <ele>42.400001525879</ele>
        <time>2016-08-29T19:40:26.000Z</time>
      </trkpt>
      <trkpt lat="48.90838" lon="2.38776">
        <ele>42.400001525879</ele>
        <time>2016-08-29T19:40:28.000Z</time>
      </trkpt>
      <trkpt lat="48.90828" lon="2.38785">
        <ele>42.599998474121</ele>
        <time>2016-08-29T19:40:31.000Z</time>
      </trkpt>
      <trkpt lat="48.90818" lon="2.38793">
        <ele>42.599998474121</ele>
        <time>2016-08-29T19:40:35.000Z</time>
      </trkpt>
      <trkpt lat="48.9081" lon="2.38799">
        <ele>42.799999237061</ele>
        <time>2016-08-29T19:40:39.000Z</time>
      </trkpt>
      <trkpt lat="48.90807" lon="2.38801">
        <ele>43</ele>
        <time>2016-08-29T19:40:41.000Z</time>
      </trkpt>
      <trkpt lat="48.90802" lon="2.38803">
        <ele>43</ele>
        <time>2016-08-29T19:40:46.000Z</time>
      </trkpt>
      <trkpt lat="48.90801" lon="2.38803">
        <ele>43</ele>
        <time>2016-08-29T19:40:47.000Z</time>
      </trkpt>
      <trkpt lat="48.90783" lon="2.38809">
        <ele>43.200000762939</ele>
        <time>2016-08-29T19:41:43.000Z</time>
      </trkpt>
      <trkpt lat="48.90777" lon="2.38813">
        <ele>43.400001525879</ele>
        <time>2016-08-29T19:41:48.000Z</time>
      </trkpt>
      <trkpt lat="48.9076" lon="2.38826">
        <ele>43.599998474121</ele>
        <time>2016-08-29T19:42:26.000Z</time>
      </trkpt>
      <trkpt lat="48.90756" lon="2.38828">
        <ele>43.599998474121</ele>
        <time>2016-08-29T19:42:36.000Z</time>
      </trkpt>
      <trkpt lat="48.90741" lon="2.38857">
        <ele>43.799999237061</ele>
        <time>2016-08-29T19:43:08.000Z</time>
      </trkpt>
      <trkpt lat="48.90723" lon="2.38874">
        <ele>43.799999237061</ele>
        <time>2016-08-29T19:43:13.000Z</time>
      </trkpt>
      <trkpt lat="48.90702" lon="2.38898">
        <ele>43.799999237061</ele>
        <time>2016-08-29T19:43:17.000Z</time>
      </trkpt>
      <trkpt lat="48.90691" lon="2.38912">
        <ele>44</ele>
        <time>2016-08-29T19:43:20.000Z</time>
      </trkpt>
      <trkpt lat="48.90677" lon="2.38927">
        <ele>44.200000762939</ele>
        <time>2016-08-29T19:43:23.000Z</time>
      </trkpt>
      <trkpt lat="48.90672" lon="2.38936">
        <ele>44.200000762939</ele>
        <time>2016-08-29T19:43:25.000Z</time>
      </trkpt>
      <trkpt lat="48.90655" lon="2.38956">
        <ele>44.400001525879</ele>
        <time>2016-08-29T19:43:29.000Z</time>
      </trkpt>
      <trkpt lat="48.90638" lon="2.3897">
        <ele>44.400001525879</ele>
        <time>2016-08-29T19:43:33.000Z</time>
      </trkpt>
      <trkpt lat="48.90625" lon="2.38985">
        <ele>44.200000762939</ele>
        <time>2016-08-29T19:43:37.000Z</time>
      </trkpt>
      <trkpt lat="48.90611" lon="2.39004">
        <ele>44</ele>
        <time>2016-08-29T19:43:42.000Z</time>
      </trkpt>
      <trkpt lat="48.906" lon="2.39013">
        <ele>44.400001525879</ele>
        <time>2016-08-29T19:43:44.000Z</time>
      </trkpt>
      <trkpt lat="48.90591" lon="2.39019">
        <ele>44.799999237061</ele>
        <time>2016-08-29T19:43:46.000Z</time>
      </trkpt>
      <trkpt lat="48.90574" lon="2.3903">
        <ele>45.599998474121</ele>
        <time>2016-08-29T19:43:50.000Z</time>
      </trkpt>
      <trkpt lat="48.90568" lon="2.39035">
        <ele>45.799999237061</ele>
        <time>2016-08-29T19:43:51.000Z</time>
      </trkpt>
      <trkpt lat="48.90549" lon="2.39056">
        <ele>45.599998474121</ele>
        <time>2016-08-29T19:43:55.000Z</time>
      </trkpt>
      <trkpt lat="48.90543" lon="2.39061">
        <ele>45.400001525879</ele>
        <time>2016-08-29T19:43:56.000Z</time>
      </trkpt>
      <trkpt lat="48.90527" lon="2.39075">
        <ele>45.200000762939</ele>
        <time>2016-08-29T19:43:59.000Z</time>
      </trkpt>
      <trkpt lat="48.90523" lon="2.39081">
        <ele>45</ele>
        <time>2016-08-29T19:44:00.000Z</time>
      </trkpt>
      <trkpt lat="48.90507" lon="2.39101">
        <ele>45.599998474121</ele>
        <time>2016-08-29T19:44:05.000Z</time>
      </trkpt>
      <trkpt lat="48.90499" lon="2.39108">
        <ele>46</ele>
        <time>2016-08-29T19:44:07.000Z</time>
      </trkpt>
      <trkpt lat="48.9048" lon="2.3912">
        <ele>46.599998474121</ele>
        <time>2016-08-29T19:44:11.000Z</time>
      </trkpt>
      <trkpt lat="48.90461" lon="2.39133">
        <ele>46.799999237061</ele>
        <time>2016-08-29T19:44:16.000Z</time>
      </trkpt>
      <trkpt lat="48.90447" lon="2.39151">
        <ele>47</ele>
        <time>2016-08-29T19:44:20.000Z</time>
      </trkpt>
      <trkpt lat="48.90437" lon="2.39162">
        <ele>47</ele>
        <time>2016-08-29T19:44:22.000Z</time>
      </trkpt>
      <trkpt lat="48.90427" lon="2.39173">
        <ele>46.599998474121</ele>
        <time>2016-08-29T19:44:24.000Z</time>
      </trkpt>
      <trkpt lat="48.90409" lon="2.39188">
        <ele>46.200000762939</ele>
        <time>2016-08-29T19:44:28.000Z</time>
      </trkpt>
      <trkpt lat="48.90387" lon="2.39186">
        <ele>45.799999237061</ele>
        <time>2016-08-29T19:44:32.000Z</time>
      </trkpt>
      <trkpt lat="48.9038" lon="2.39195">
        <ele>45.799999237061</ele>
        <time>2016-08-29T19:44:39.000Z</time>
      </trkpt>
      <trkpt lat="48.90379" lon="2.39195">
        <ele>45.799999237061</ele>
        <time>2016-08-29T19:44:40.000Z</time>
      </trkpt>
      <trkpt lat="48.90372" lon="2.39191">
        <ele>45.799999237061</ele>
        <time>2016-08-29T19:44:51.000Z</time>
      </trkpt>
      <trkpt lat="48.90367" lon="2.39191">
        <ele>45.799999237061</ele>
        <time>2016-08-29T19:44:55.000Z</time>
      </trkpt>
      <trkpt lat="48.90367" lon="2.39191">
        <ele>45.799999237061</ele>
        <time>2016-08-29T19:44:56.000Z</time>
      </trkpt>
      <trkpt lat="48.90357" lon="2.39213">
        <ele>46.799999237061</ele>
        <time>2016-08-29T19:45:39.000Z</time>
      </trkpt>
      <trkpt lat="48.90342" lon="2.39232">
        <ele>47.599998474121</ele>
        <time>2016-08-29T19:45:44.000Z</time>
      </trkpt>
      <trkpt lat="48.90327" lon="2.39253">
        <ele>48.400001525879</ele>
        <time>2016-08-29T19:45:51.000Z</time>
      </trkpt>
      <trkpt lat="48.90312" lon="2.39273">
        <ele>48.799999237061</ele>
        <time>2016-08-29T19:45:57.000Z</time>
      </trkpt>
      <trkpt lat="48.90297" lon="2.39292">
        <ele>49.400001525879</ele>
        <time>2016-08-29T19:46:02.000Z</time>
      </trkpt>
      <trkpt lat="48.90282" lon="2.39313">
        <ele>50.400001525879</ele>
        <time>2016-08-29T19:46:09.000Z</time>
      </trkpt>
      <trkpt lat="48.90267" lon="2.3933">
        <ele>51</ele>
        <time>2016-08-29T19:46:14.000Z</time>
      </trkpt>
      <trkpt lat="48.90245" lon="2.39343">
        <ele>50.200000762939</ele>
        <time>2016-08-29T19:46:18.000Z</time>
      </trkpt>
      <trkpt lat="48.90226" lon="2.3936">
        <ele>49.400001525879</ele>
        <time>2016-08-29T19:46:22.000Z</time>
      </trkpt>
      <trkpt lat="48.9021" lon="2.39377">
        <ele>48.599998474121</ele>
        <time>2016-08-29T19:46:26.000Z</time>
      </trkpt>
      <trkpt lat="48.90203" lon="2.39384">
        <ele>48.200000762939</ele>
        <time>2016-08-29T19:46:28.000Z</time>
      </trkpt>
      <trkpt lat="48.90192" lon="2.39394">
        <ele>47.799999237061</ele>
        <time>2016-08-29T19:46:31.000Z</time>
      </trkpt>
      <trkpt lat="48.90176" lon="2.39414">
        <ele>47.599998474121</ele>
        <time>2016-08-29T19:46:36.000Z</time>
      </trkpt>
      <trkpt lat="48.90166" lon="2.39426">
        <ele>47.799999237061</ele>
        <time>2016-08-29T19:46:39.000Z</time>
      </trkpt>
      <trkpt lat="48.9015" lon="2.39442">
        <ele>48.200000762939</ele>
        <time>2016-08-29T19:46:43.000Z</time>
      </trkpt>
      <trkpt lat="48.90132" lon="2.39455">
        <ele>48.599998474121</ele>
        <time>2016-08-29T19:46:47.000Z</time>
      </trkpt>
      <trkpt lat="48.90115" lon="2.39471">
        <ele>49</ele>
        <time>2016-08-29T19:46:51.000Z</time>
      </trkpt>
      <trkpt lat="48.90106" lon="2.39483">
        <ele>49.200000762939</ele>
        <time>2016-08-29T19:46:54.000Z</time>
      </trkpt>
      <trkpt lat="48.90091" lon="2.395">
        <ele>49</ele>
        <time>2016-08-29T19:46:59.000Z</time>
      </trkpt>
      <trkpt lat="48.90077" lon="2.39517">
        <ele>48.799999237061</ele>
        <time>2016-08-29T19:47:03.000Z</time>
      </trkpt>
      <trkpt lat="48.90062" lon="2.39536">
        <ele>48.599998474121</ele>
        <time>2016-08-29T19:47:07.000Z</time>
      </trkpt>
      <trkpt lat="48.90045" lon="2.39556">
        <ele>48.400001525879</ele>
        <time>2016-08-29T19:47:11.000Z</time>
      </trkpt>
      <trkpt lat="48.9003" lon="2.39581">
        <ele>48</ele>
        <time>2016-08-29T19:47:16.000Z</time>
      </trkpt>
      <trkpt lat="48.90017" lon="2.39603">
        <ele>48.400001525879</ele>
        <time>2016-08-29T19:47:20.000Z</time>
      </trkpt>
      <trkpt lat="48.9001" lon="2.39613">
        <ele>48.799999237061</ele>
        <time>2016-08-29T19:47:22.000Z</time>
      </trkpt>
      <trkpt lat="48.89996" lon="2.39631">
        <ele>49.200000762939</ele>
        <time>2016-08-29T19:47:26.000Z</time>
      </trkpt>
      <trkpt lat="48.89977" lon="2.3965">
        <ele>49.200000762939</ele>
        <time>2016-08-29T19:47:30.000Z</time>
      </trkpt>
      <trkpt lat="48.8996" lon="2.39667">
        <ele>49</ele>
        <time>2016-08-29T19:47:33.000Z</time>
      </trkpt>
      <trkpt lat="48.89951" lon="2.39678">
        <ele>49</ele>
        <time>2016-08-29T19:47:35.000Z</time>
      </trkpt>
      <trkpt lat="48.89933" lon="2.39696">
        <ele>48.599998474121</ele>
        <time>2016-08-29T19:47:39.000Z</time>
      </trkpt>
      <trkpt lat="48.89912" lon="2.39715">
        <ele>48.400001525879</ele>
        <time>2016-08-29T19:47:43.000Z</time>
      </trkpt>
      <trkpt lat="48.89901" lon="2.39733">
        <ele>48.200000762939</ele>
        <time>2016-08-29T19:47:46.000Z</time>
      </trkpt>
      <trkpt lat="48.89886" lon="2.39757">
        <ele>48</ele>
        <time>2016-08-29T19:47:50.000Z</time>
      </trkpt>
      <trkpt lat="48.89884" lon="2.39763">
        <ele>48</ele>
        <time>2016-08-29T19:47:51.000Z</time>
      </trkpt>
      <trkpt lat="48.89878" lon="2.39776">
        <ele>48</ele>
        <time>2016-08-29T19:47:53.000Z</time>
      </trkpt>
      <trkpt lat="48.89857" lon="2.39797">
        <ele>48.599998474121</ele>
        <time>2016-08-29T19:47:57.000Z</time>
      </trkpt>
      <trkpt lat="48.89846" lon="2.39807">
        <ele>49.400001525879</ele>
        <time>2016-08-29T19:47:59.000Z</time>
      </trkpt>
      <trkpt lat="48.89827" lon="2.39823">
        <ele>51.599998474121</ele>
        <time>2016-08-29T19:48:03.000Z</time>
      </trkpt>
      <trkpt lat="48.89811" lon="2.39846">
        <ele>54</ele>
        <time>2016-08-29T19:48:08.000Z</time>
      </trkpt>
      <trkpt lat="48.89808" lon="2.39851">
        <ele>54.400001525879</ele>
        <time>2016-08-29T19:48:09.000Z</time>
      </trkpt>
      <trkpt lat="48.89796" lon="2.39872">
        <ele>55.400001525879</ele>
        <time>2016-08-29T19:48:13.000Z</time>
      </trkpt>
      <trkpt lat="48.8979" lon="2.39881">
        <ele>55.599998474121</ele>
        <time>2016-08-29T19:48:15.000Z</time>
      </trkpt>
      <trkpt lat="48.89783" lon="2.39888">
        <ele>55.799999237061</ele>
        <time>2016-08-29T19:48:18.000Z</time>
      </trkpt>
      <trkpt lat="48.89785" lon="2.39909">
        <ele>55.599998474121</ele>
        <time>2016-08-29T19:49:08.000Z</time>
      </trkpt>
      <trkpt lat="48.89775" lon="2.39926">
        <ele>55.599998474121</ele>
        <time>2016-08-29T19:49:11.000Z</time>
      </trkpt>
      <trkpt lat="48.89759" lon="2.3995">
        <ele>55</ele>
        <time>2016-08-29T19:49:15.000Z</time>
      </trkpt>
      <trkpt lat="48.89743" lon="2.39974">
        <ele>54.400001525879</ele>
        <time>2016-08-29T19:49:19.000Z</time>
      </trkpt>
      <trkpt lat="48.89729" lon="2.39993">
        <ele>55</ele>
        <time>2016-08-29T19:49:22.000Z</time>
      </trkpt>
      <trkpt lat="48.89716" lon="2.40012">
        <ele>55.400001525879</ele>
        <time>2016-08-29T19:49:25.000Z</time>
      </trkpt>
      <trkpt lat="48.89712" lon="2.40019">
        <ele>55.400001525879</ele>
        <time>2016-08-29T19:49:26.000Z</time>
      </trkpt>
      <trkpt lat="48.897" lon="2.40043">
        <ele>56.200000762939</ele>
        <time>2016-08-29T19:49:30.000Z</time>
      </trkpt>
      <trkpt lat="48.89694" lon="2.40053">
        <ele>56.599998474121</ele>
        <time>2016-08-29T19:49:32.000Z</time>
      </trkpt>
      <trkpt lat="48.89679" lon="2.40072">
        <ele>57</ele>
        <time>2016-08-29T19:49:37.000Z</time>
      </trkpt>
      <trkpt lat="48.89669" lon="2.40085">
        <ele>56.400001525879</ele>
        <time>2016-08-29T19:49:41.000Z</time>
      </trkpt>
      <trkpt lat="48.8966" lon="2.40102">
        <ele>56</ele>
        <time>2016-08-29T19:49:47.000Z</time>
      </trkpt>
      <trkpt lat="48.89641" lon="2.40104">
        <ele>55.599998474121</ele>
        <time>2016-08-29T19:49:53.000Z</time>
      </trkpt>
      <trkpt lat="48.89621" lon="2.40108">
        <ele>55.400001525879</ele>
        <time>2016-08-29T19:49:59.000Z</time>
      </trkpt>
      <trkpt lat="48.89601" lon="2.40108">
        <ele>55.400001525879</ele>
        <time>2016-08-29T19:50:06.000Z</time>
      </trkpt>
      <trkpt lat="48.89596" lon="2.40108">
        <ele>55.599998474121</ele>
        <time>2016-08-29T19:50:09.000Z</time>
      </trkpt>
      <trkpt lat="48.89588" lon="2.40115">
        <ele>56</ele>
        <time>2016-08-29T19:50:17.000Z</time>
      </trkpt>
      <trkpt lat="48.89602" lon="2.40102">
        <ele>55.400001525879</ele>
        <time>2016-08-29T19:50:51.000Z</time>
      </trkpt>
      <trkpt lat="48.89616" lon="2.40097">
        <ele>55.200000762939</ele>
        <time>2016-08-29T19:50:59.000Z</time>
      </trkpt>
      <trkpt lat="48.89615" lon="2.4007">
        <ele>55.400001525879</ele>
        <time>2016-08-29T19:51:05.000Z</time>
      </trkpt>
      <trkpt lat="48.89614" lon="2.40042">
        <ele>56.200000762939</ele>
        <time>2016-08-29T19:51:10.000Z</time>
      </trkpt>
      <trkpt lat="48.89614" lon="2.40008">
        <ele>57</ele>
        <time>2016-08-29T19:51:15.000Z</time>
      </trkpt>
      <trkpt lat="48.89615" lon="2.39992">
        <ele>56.599998474121</ele>
        <time>2016-08-29T19:51:17.000Z</time>
      </trkpt>
      <trkpt lat="48.89618" lon="2.39961">
        <ele>55.599998474121</ele>
        <time>2016-08-29T19:51:21.000Z</time>
      </trkpt>
      <trkpt lat="48.89621" lon="2.39928">
        <ele>54.400001525879</ele>
        <time>2016-08-29T19:51:25.000Z</time>
      </trkpt>
      <trkpt lat="48.89623" lon="2.39897">
        <ele>54</ele>
        <time>2016-08-29T19:51:29.000Z</time>
      </trkpt>
      <trkpt lat="48.89624" lon="2.39864">
        <ele>53.599998474121</ele>
        <time>2016-08-29T19:51:33.000Z</time>
      </trkpt>
      <trkpt lat="48.89624" lon="2.39832">
        <ele>53.400001525879</ele>
        <time>2016-08-29T19:51:37.000Z</time>
      </trkpt>
      <trkpt lat="48.89624" lon="2.39799">
        <ele>53</ele>
        <time>2016-08-29T19:51:41.000Z</time>
      </trkpt>
      <trkpt lat="48.89624" lon="2.39768">
        <ele>52.599998474121</ele>
        <time>2016-08-29T19:51:45.000Z</time>
      </trkpt>
      <trkpt lat="48.89622" lon="2.39735">
        <ele>52.799999237061</ele>
        <time>2016-08-29T19:51:49.000Z</time>
      </trkpt>
      <trkpt lat="48.8962" lon="2.39703">
        <ele>52.200000762939</ele>
        <time>2016-08-29T19:51:53.000Z</time>
      </trkpt>
      <trkpt lat="48.89619" lon="2.39682">
        <ele>52</ele>
        <time>2016-08-29T19:51:56.000Z</time>
      </trkpt>
      <trkpt lat="48.89621" lon="2.39652">
        <ele>51.400001525879</ele>
        <time>2016-08-29T19:52:01.000Z</time>
      </trkpt>
      <trkpt lat="48.89621" lon="2.39629">
        <ele>51.599998474121</ele>
        <time>2016-08-29T19:52:05.000Z</time>
      </trkpt>
      <trkpt lat="48.8962" lon="2.39617">
        <ele>51.799999237061</ele>
        <time>2016-08-29T19:52:07.000Z</time>
      </trkpt>
      <trkpt lat="48.89617" lon="2.39601">
        <ele>51.799999237061</ele>
        <time>2016-08-29T19:52:10.000Z</time>
      </trkpt>
      <trkpt lat="48.89613" lon="2.39578">
        <ele>52.200000762939</ele>
        <time>2016-08-29T19:52:14.000Z</time>
      </trkpt>
      <trkpt lat="48.89609" lon="2.39548">
        <ele>52.400001525879</ele>
        <time>2016-08-29T19:52:19.000Z</time>
      </trkpt>
      <trkpt lat="48.89607" lon="2.39532">
        <ele>52.599998474121</ele>
        <time>2016-08-29T19:52:22.000Z</time>
      </trkpt>
      <trkpt lat="48.89599" lon="2.39505">
        <ele>53.200000762939</ele>
        <time>2016-08-29T19:52:28.000Z</time>
      </trkpt>
      <trkpt lat="48.8959" lon="2.39476">
        <ele>52.400001525879</ele>
        <time>2016-08-29T19:52:34.000Z</time>
      </trkpt>
      <trkpt lat="48.89581" lon="2.39448">
        <ele>51.799999237061</ele>
        <time>2016-08-29T19:52:41.000Z</time>
      </trkpt>
      <trkpt lat="48.89572" lon="2.3942">
        <ele>51.200000762939</ele>
        <time>2016-08-29T19:52:48.000Z</time>
      </trkpt>
      <trkpt lat="48.89559" lon="2.39403">
        <ele>51</ele>
        <time>2016-08-29T19:52:54.000Z</time>
      </trkpt>
      <trkpt lat="48.89557" lon="2.39379">
        <ele>51</ele>
        <time>2016-08-29T19:52:59.000Z</time>
      </trkpt>
      <trkpt lat="48.89574" lon="2.39363">
        <ele>50.799999237061</ele>
        <time>2016-08-29T19:53:05.000Z</time>
      </trkpt>
      <trkpt lat="48.89568" lon="2.39342">
        <ele>50.599998474121</ele>
        <time>2016-08-29T19:53:12.000Z</time>
      </trkpt>
      <trkpt lat="48.89555" lon="2.39318">
        <ele>50.799999237061</ele>
        <time>2016-08-29T19:53:17.000Z</time>
      </trkpt>
      <trkpt lat="48.89543" lon="2.3929">
        <ele>51.200000762939</ele>
        <time>2016-08-29T19:53:22.000Z</time>
      </trkpt>
      <trkpt lat="48.89532" lon="2.39265">
        <ele>51.599998474121</ele>
        <time>2016-08-29T19:53:27.000Z</time>
      </trkpt>
      <trkpt lat="48.89522" lon="2.39243">
        <ele>52</ele>
        <time>2016-08-29T19:53:32.000Z</time>
      </trkpt>
      <trkpt lat="48.89511" lon="2.3922">
        <ele>52.599998474121</ele>
        <time>2016-08-29T19:53:37.000Z</time>
      </trkpt>
      <trkpt lat="48.89504" lon="2.39208">
        <ele>53</ele>
        <time>2016-08-29T19:53:41.000Z</time>
      </trkpt>
      <trkpt lat="48.89495" lon="2.39212">
        <ele>53.200000762939</ele>
        <time>2016-08-29T19:53:45.000Z</time>
      </trkpt>
      <trkpt lat="48.89487" lon="2.39202">
        <ele>53.400001525879</ele>
        <time>2016-08-29T19:53:49.000Z</time>
      </trkpt>
      <trkpt lat="48.89477" lon="2.3918">
        <ele>54</ele>
        <time>2016-08-29T19:53:56.000Z</time>
      </trkpt>
      <trkpt lat="48.89471" lon="2.39167">
        <ele>54.200000762939</ele>
        <time>2016-08-29T19:54:06.000Z</time>
      </trkpt>
      <trkpt lat="48.89476" lon="2.39167">
        <ele>54.200000762939</ele>
        <time>2016-08-29T19:54:11.000Z</time>
      </trkpt>
      <trkpt lat="48.89481" lon="2.39152">
        <ele>53.799999237061</ele>
        <time>2016-08-29T19:54:50.000Z</time>
      </trkpt>
      <trkpt lat="48.89464" lon="2.39167">
        <ele>54.400001525879</ele>
        <time>2016-08-29T19:55:05.000Z</time>
      </trkpt>
      <trkpt lat="48.89463" lon="2.39168">
        <ele>54.400001525879</ele>
        <time>2016-08-29T19:55:06.000Z</time>
      </trkpt>
      <trkpt lat="48.89456" lon="2.39174">
        <ele>54.400001525879</ele>
        <time>2016-08-29T19:55:10.000Z</time>
      </trkpt>
      <trkpt lat="48.89444" lon="2.39191">
        <ele>54</ele>
        <time>2016-08-29T19:55:21.000Z</time>
      </trkpt>
      <trkpt lat="48.89439" lon="2.39199">
        <ele>53.799999237061</ele>
        <time>2016-08-29T19:55:28.000Z</time>
      </trkpt>
      <trkpt lat="48.89437" lon="2.39204">
        <ele>53.400001525879</ele>
        <time>2016-08-29T19:55:33.000Z</time>
      </trkpt>
      <trkpt lat="48.89442" lon="2.39203">
        <ele>53.599998474121</ele>
        <time>2016-08-29T19:56:21.000Z</time>
      </trkpt>
      <trkpt lat="48.89441" lon="2.39188">
        <ele>54.200000762939</ele>
        <time>2016-08-29T19:56:27.000Z</time>
      </trkpt>
      <trkpt lat="48.89437" lon="2.39183">
        <ele>54.200000762939</ele>
        <time>2016-08-29T19:56:31.000Z</time>
      </trkpt>
      <trkpt lat="48.89437" lon="2.39181">
        <ele>54.200000762939</ele>
        <time>2016-08-29T19:56:32.000Z</time>
      </trkpt>
      <trkpt lat="48.89432" lon="2.39169">
        <ele>54.599998474121</ele>
        <time>2016-08-29T19:56:38.000Z</time>
      </trkpt>
      <trkpt lat="48.8942" lon="2.39145">
        <ele>54.599998474121</ele>
        <time>2016-08-29T19:57:04.000Z</time>
      </trkpt>
      <trkpt lat="48.89406" lon="2.3912">
        <ele>54</ele>
        <time>2016-08-29T19:57:10.000Z</time>
      </trkpt>
      <trkpt lat="48.89394" lon="2.39096">
        <ele>53.599998474121</ele>
        <time>2016-08-29T19:57:15.000Z</time>
      </trkpt>
      <trkpt lat="48.89382" lon="2.39073">
        <ele>53.400001525879</ele>
        <time>2016-08-29T19:57:19.000Z</time>
      </trkpt>
      <trkpt lat="48.89369" lon="2.39045">
        <ele>53.599998474121</ele>
        <time>2016-08-29T19:57:23.000Z</time>
      </trkpt>
      <trkpt lat="48.89356" lon="2.39017">
        <ele>53.799999237061</ele>
        <time>2016-08-29T19:57:27.000Z</time>
      </trkpt>
      <trkpt lat="48.89342" lon="2.38989">
        <ele>53.599998474121</ele>
        <time>2016-08-29T19:57:31.000Z</time>
      </trkpt>
      <trkpt lat="48.89328" lon="2.38959">
        <ele>53.400001525879</ele>
        <time>2016-08-29T19:57:35.000Z</time>
      </trkpt>
      <trkpt lat="48.89315" lon="2.38935">
        <ele>53</ele>
        <time>2016-08-29T19:57:40.000Z</time>
      </trkpt>
      <trkpt lat="48.89304" lon="2.38907">
        <ele>52.799999237061</ele>
        <time>2016-08-29T19:57:45.000Z</time>
      </trkpt>
      <trkpt lat="48.893" lon="2.38901">
        <ele>52.799999237061</ele>
        <time>2016-08-29T19:57:46.000Z</time>
      </trkpt>
      <trkpt lat="48.89289" lon="2.38876">
        <ele>52.799999237061</ele>
        <time>2016-08-29T19:57:50.000Z</time>
      </trkpt>
      <trkpt lat="48.8928" lon="2.38859">
        <ele>52.799999237061</ele>
        <time>2016-08-29T19:57:53.000Z</time>
      </trkpt>
      <trkpt lat="48.89268" lon="2.38836">
        <ele>52.799999237061</ele>
        <time>2016-08-29T19:57:57.000Z</time>
      </trkpt>
      <trkpt lat="48.89262" lon="2.38826">
        <ele>53</ele>
        <time>2016-08-29T19:57:59.000Z</time>
      </trkpt>
      <trkpt lat="48.89249" lon="2.38801">
        <ele>53.400001525879</ele>
        <time>2016-08-29T19:58:04.000Z</time>
      </trkpt>
      <trkpt lat="48.89236" lon="2.38776">
        <ele>53.799999237061</ele>
        <time>2016-08-29T19:58:09.000Z</time>
      </trkpt>
      <trkpt lat="48.89225" lon="2.38752">
        <ele>54.400001525879</ele>
        <time>2016-08-29T19:58:14.000Z</time>
      </trkpt>
      <trkpt lat="48.89219" lon="2.38742">
        <ele>54.400001525879</ele>
        <time>2016-08-29T19:58:16.000Z</time>
      </trkpt>
      <trkpt lat="48.8921" lon="2.38722">
        <ele>54.200000762939</ele>
        <time>2016-08-29T19:58:20.000Z</time>
      </trkpt>
      <trkpt lat="48.89208" lon="2.38717">
        <ele>54.200000762939</ele>
        <time>2016-08-29T19:58:21.000Z</time>
      </trkpt>
      <trkpt lat="48.89204" lon="2.38709">
        <ele>54.200000762939</ele>
        <time>2016-08-29T19:58:23.000Z</time>
      </trkpt>
      <trkpt lat="48.89197" lon="2.38684">
        <ele>54</ele>
        <time>2016-08-29T19:58:35.000Z</time>
      </trkpt>
      <trkpt lat="48.89196" lon="2.38683">
        <ele>54</ele>
        <time>2016-08-29T19:58:37.000Z</time>
      </trkpt>
      <trkpt lat="48.89182" lon="2.38677">
        <ele>54.599998474121</ele>
        <time>2016-08-29T19:59:28.000Z</time>
      </trkpt>
      <trkpt lat="48.89172" lon="2.38671">
        <ele>55.400001525879</ele>
        <time>2016-08-29T19:59:33.000Z</time>
      </trkpt>
      <trkpt lat="48.89167" lon="2.3866">
        <ele>55.599998474121</ele>
        <time>2016-08-29T19:59:37.000Z</time>
      </trkpt>
      <trkpt lat="48.89164" lon="2.38655">
        <ele>55.799999237061</ele>
        <time>2016-08-29T19:59:39.000Z</time>
      </trkpt>
      <trkpt lat="48.89154" lon="2.3863">
        <ele>56.200000762939</ele>
        <time>2016-08-29T19:59:46.000Z</time>
      </trkpt>
      <trkpt lat="48.89142" lon="2.38605">
        <ele>57.200000762939</ele>
        <time>2016-08-29T19:59:53.000Z</time>
      </trkpt>
      <trkpt lat="48.89128" lon="2.38581">
        <ele>58.200000762939</ele>
        <time>2016-08-29T19:59:59.000Z</time>
      </trkpt>
      <trkpt lat="48.89113" lon="2.38558">
        <ele>58</ele>
        <time>2016-08-29T20:00:04.000Z</time>
      </trkpt>
      <trkpt lat="48.89103" lon="2.38529">
        <ele>57.200000762939</ele>
        <time>2016-08-29T20:00:09.000Z</time>
      </trkpt>
      <trkpt lat="48.89088" lon="2.38505">
        <ele>56.599998474121</ele>
        <time>2016-08-29T20:00:14.000Z</time>
      </trkpt>
      <trkpt lat="48.89076" lon="2.3848">
        <ele>56.599998474121</ele>
        <time>2016-08-29T20:00:19.000Z</time>
      </trkpt>
      <trkpt lat="48.89061" lon="2.38459">
        <ele>56.599998474121</ele>
        <time>2016-08-29T20:00:24.000Z</time>
      </trkpt>
      <trkpt lat="48.89049" lon="2.38435">
        <ele>56.599998474121</ele>
        <time>2016-08-29T20:00:29.000Z</time>
      </trkpt>
      <trkpt lat="48.8904" lon="2.38412">
        <ele>56.599998474121</ele>
        <time>2016-08-29T20:00:34.000Z</time>
      </trkpt>
      <trkpt lat="48.89028" lon="2.3839">
        <ele>57.200000762939</ele>
        <time>2016-08-29T20:00:39.000Z</time>
      </trkpt>
      <trkpt lat="48.89015" lon="2.38367">
        <ele>58</ele>
        <time>2016-08-29T20:00:45.000Z</time>
      </trkpt>
      <trkpt lat="48.89006" lon="2.38343">
        <ele>58.799999237061</ele>
        <time>2016-08-29T20:00:50.000Z</time>
      </trkpt>
      <trkpt lat="48.88995" lon="2.38317">
        <ele>59.599998474121</ele>
        <time>2016-08-29T20:00:56.000Z</time>
      </trkpt>
      <trkpt lat="48.88982" lon="2.38292">
        <ele>60</ele>
        <time>2016-08-29T20:01:01.000Z</time>
      </trkpt>
      <trkpt lat="48.88971" lon="2.38266">
        <ele>60.599998474121</ele>
        <time>2016-08-29T20:01:06.000Z</time>
      </trkpt>
      <trkpt lat="48.88959" lon="2.38241">
        <ele>60.799999237061</ele>
        <time>2016-08-29T20:01:11.000Z</time>
      </trkpt>
      <trkpt lat="48.88948" lon="2.38215">
        <ele>60.799999237061</ele>
        <time>2016-08-29T20:01:16.000Z</time>
      </trkpt>
      <trkpt lat="48.88939" lon="2.38191">
        <ele>60.599998474121</ele>
        <time>2016-08-29T20:01:21.000Z</time>
      </trkpt>
      <trkpt lat="48.88926" lon="2.38166">
        <ele>60.200000762939</ele>
        <time>2016-08-29T20:01:26.000Z</time>
      </trkpt>
      <trkpt lat="48.88919" lon="2.38139">
        <ele>59.599998474121</ele>
        <time>2016-08-29T20:01:31.000Z</time>
      </trkpt>
      <trkpt lat="48.88906" lon="2.38116">
        <ele>59</ele>
        <time>2016-08-29T20:01:35.000Z</time>
      </trkpt>
      <trkpt lat="48.88892" lon="2.38093">
        <ele>58.200000762939</ele>
        <time>2016-08-29T20:01:40.000Z</time>
      </trkpt>
      <trkpt lat="48.88877" lon="2.38069">
        <ele>57.599998474121</ele>
        <time>2016-08-29T20:01:45.000Z</time>
      </trkpt>
      <trkpt lat="48.88872" lon="2.38059">
        <ele>57</ele>
        <time>2016-08-29T20:01:47.000Z</time>
      </trkpt>
      <trkpt lat="48.8886" lon="2.38035">
        <ele>56.200000762939</ele>
        <time>2016-08-29T20:01:52.000Z</time>
      </trkpt>
      <trkpt lat="48.88849" lon="2.38012">
        <ele>55.200000762939</ele>
        <time>2016-08-29T20:01:57.000Z</time>
      </trkpt>
      <trkpt lat="48.88846" lon="2.38004">
        <ele>54.799999237061</ele>
        <time>2016-08-29T20:01:59.000Z</time>
      </trkpt>
      <trkpt lat="48.88842" lon="2.37996">
        <ele>54.599998474121</ele>
        <time>2016-08-29T20:02:01.000Z</time>
      </trkpt>
      <trkpt lat="48.88834" lon="2.37976">
        <ele>54.599998474121</ele>
        <time>2016-08-29T20:02:09.000Z</time>
      </trkpt>
      <trkpt lat="48.88829" lon="2.37965">
        <ele>54.599998474121</ele>
        <time>2016-08-29T20:03:14.000Z</time>
      </trkpt>
      <trkpt lat="48.88813" lon="2.37978">
        <ele>55.599998474121</ele>
        <time>2016-08-29T20:03:22.000Z</time>
      </trkpt>
      <trkpt lat="48.88804" lon="2.37986">
        <ele>56.200000762939</ele>
        <time>2016-08-29T20:03:25.000Z</time>
      </trkpt>
      <trkpt lat="48.88799" lon="2.37997">
        <ele>56.799999237061</ele>
        <time>2016-08-29T20:03:28.000Z</time>
      </trkpt>
      <trkpt lat="48.88795" lon="2.38">
        <ele>57</ele>
        <time>2016-08-29T20:03:30.000Z</time>
      </trkpt>
      <trkpt lat="48.8878" lon="2.38015">
        <ele>58</ele>
        <time>2016-08-29T20:03:41.000Z</time>
      </trkpt>
      <trkpt lat="48.88777" lon="2.38023">
        <ele>57.799999237061</ele>
        <time>2016-08-29T20:03:46.000Z</time>
      </trkpt>
      <trkpt lat="48.88776" lon="2.38026">
        <ele>57.799999237061</ele>
        <time>2016-08-29T20:03:48.000Z</time>
      </trkpt>
      <trkpt lat="48.88759" lon="2.38042">
        <ele>57.799999237061</ele>
        <time>2016-08-29T20:03:56.000Z</time>
      </trkpt>
      <trkpt lat="48.88737" lon="2.38062">
        <ele>58.200000762939</ele>
        <time>2016-08-29T20:04:01.000Z</time>
      </trkpt>
      <trkpt lat="48.8872" lon="2.38075">
        <ele>58.400001525879</ele>
        <time>2016-08-29T20:04:05.000Z</time>
      </trkpt>
      <trkpt lat="48.88705" lon="2.38097">
        <ele>58.599998474121</ele>
        <time>2016-08-29T20:04:09.000Z</time>
      </trkpt>
      <trkpt lat="48.88689" lon="2.38127">
        <ele>57.799999237061</ele>
        <time>2016-08-29T20:04:13.000Z</time>
      </trkpt>
      <trkpt lat="48.88672" lon="2.38142">
        <ele>57.400001525879</ele>
        <time>2016-08-29T20:04:16.000Z</time>
      </trkpt>
      <trkpt lat="48.88654" lon="2.38157">
        <ele>58.400001525879</ele>
        <time>2016-08-29T20:04:20.000Z</time>
      </trkpt>
      <trkpt lat="48.88639" lon="2.38174">
        <ele>59.599998474121</ele>
        <time>2016-08-29T20:04:23.000Z</time>
      </trkpt>
      <trkpt lat="48.88623" lon="2.38194">
        <ele>60.200000762939</ele>
        <time>2016-08-29T20:04:27.000Z</time>
      </trkpt>
      <trkpt lat="48.8861" lon="2.38197">
        <ele>60.599998474121</ele>
        <time>2016-08-29T20:04:51.000Z</time>
      </trkpt>
      <trkpt lat="48.88602" lon="2.38185">
        <ele>60.799999237061</ele>
        <time>2016-08-29T20:05:23.000Z</time>
      </trkpt>
      <trkpt lat="48.88591" lon="2.38159">
        <ele>60.799999237061</ele>
        <time>2016-08-29T20:05:27.000Z</time>
      </trkpt>
      <trkpt lat="48.8858" lon="2.38134">
        <ele>60.200000762939</ele>
        <time>2016-08-29T20:05:31.000Z</time>
      </trkpt>
      <trkpt lat="48.88573" lon="2.38107">
        <ele>59.400001525879</ele>
        <time>2016-08-29T20:05:35.000Z</time>
      </trkpt>
      <trkpt lat="48.88564" lon="2.38076">
        <ele>58.599998474121</ele>
        <time>2016-08-29T20:05:39.000Z</time>
      </trkpt>
      <trkpt lat="48.88554" lon="2.38051">
        <ele>59</ele>
        <time>2016-08-29T20:05:42.000Z</time>
      </trkpt>
      <trkpt lat="48.88544" lon="2.38026">
        <ele>59.400001525879</ele>
        <time>2016-08-29T20:05:45.000Z</time>
      </trkpt>
      <trkpt lat="48.88534" lon="2.38001">
        <ele>59.599998474121</ele>
        <time>2016-08-29T20:05:48.000Z</time>
      </trkpt>
      <trkpt lat="48.88525" lon="2.37985">
        <ele>60</ele>
        <time>2016-08-29T20:05:50.000Z</time>
      </trkpt>
      <trkpt lat="48.88518" lon="2.37954">
        <ele>60.400001525879</ele>
        <time>2016-08-29T20:05:54.000Z</time>
      </trkpt>
      <trkpt lat="48.88511" lon="2.37928">
        <ele>60.599998474121</ele>
        <time>2016-08-29T20:05:58.000Z</time>
      </trkpt>
      <trkpt lat="48.88503" lon="2.37898">
        <ele>60.599998474121</ele>
        <time>2016-08-29T20:06:02.000Z</time>
      </trkpt>
      <trkpt lat="48.88495" lon="2.37873">
        <ele>60.400001525879</ele>
        <time>2016-08-29T20:06:05.000Z</time>
      </trkpt>
      <trkpt lat="48.88484" lon="2.37848">
        <ele>60.400001525879</ele>
        <time>2016-08-29T20:06:08.000Z</time>
      </trkpt>
      <trkpt lat="48.88474" lon="2.37821">
        <ele>60.200000762939</ele>
        <time>2016-08-29T20:06:11.000Z</time>
      </trkpt>
      <trkpt lat="48.88466" lon="2.3779">
        <ele>59.400001525879</ele>
        <time>2016-08-29T20:06:14.000Z</time>
      </trkpt>
      <trkpt lat="48.88457" lon="2.37757">
        <ele>58.799999237061</ele>
        <time>2016-08-29T20:06:17.000Z</time>
      </trkpt>
      <trkpt lat="48.88448" lon="2.37724">
        <ele>59.599998474121</ele>
        <time>2016-08-29T20:06:20.000Z</time>
      </trkpt>
      <trkpt lat="48.8844" lon="2.37692">
        <ele>60.599998474121</ele>
        <time>2016-08-29T20:06:23.000Z</time>
      </trkpt>
      <trkpt lat="48.8843" lon="2.37659">
        <ele>61.799999237061</ele>
        <time>2016-08-29T20:06:26.000Z</time>
      </trkpt>
      <trkpt lat="48.88419" lon="2.37622">
        <ele>61.400001525879</ele>
        <time>2016-08-29T20:06:29.000Z</time>
      </trkpt>
      <trkpt lat="48.88406" lon="2.37588">
        <ele>61.200000762939</ele>
        <time>2016-08-29T20:06:32.000Z</time>
      </trkpt>
      <trkpt lat="48.88396" lon="2.37551">
        <ele>60.599998474121</ele>
        <time>2016-08-29T20:06:35.000Z</time>
      </trkpt>
      <trkpt lat="48.88388" lon="2.37516">
        <ele>60</ele>
        <time>2016-08-29T20:06:38.000Z</time>
      </trkpt>
      <trkpt lat="48.88379" lon="2.37485">
        <ele>59.599998474121</ele>
        <time>2016-08-29T20:06:41.000Z</time>
      </trkpt>
      <trkpt lat="48.88368" lon="2.37453">
        <ele>59.200000762939</ele>
        <time>2016-08-29T20:06:44.000Z</time>
      </trkpt>
      <trkpt lat="48.88356" lon="2.37425">
        <ele>59</ele>
        <time>2016-08-29T20:06:47.000Z</time>
      </trkpt>
      <trkpt lat="48.88346" lon="2.37397">
        <ele>59.400001525879</ele>
        <time>2016-08-29T20:06:50.000Z</time>
      </trkpt>
      <trkpt lat="48.88336" lon="2.3737">
        <ele>60</ele>
        <time>2016-08-29T20:06:53.000Z</time>
      </trkpt>
      <trkpt lat="48.8833" lon="2.37343">
        <ele>60.799999237061</ele>
        <time>2016-08-29T20:06:56.000Z</time>
      </trkpt>
      <trkpt lat="48.88328" lon="2.37321">
        <ele>61.200000762939</ele>
        <time>2016-08-29T20:06:58.000Z</time>
      </trkpt>
      <trkpt lat="48.88321" lon="2.3729">
        <ele>61.799999237061</ele>
        <time>2016-08-29T20:07:01.000Z</time>
      </trkpt>
      <trkpt lat="48.88312" lon="2.37259">
        <ele>61.799999237061</ele>
        <time>2016-08-29T20:07:04.000Z</time>
      </trkpt>
      <trkpt lat="48.88302" lon="2.37229">
        <ele>61.799999237061</ele>
        <time>2016-08-29T20:07:07.000Z</time>
      </trkpt>
      <trkpt lat="48.88292" lon="2.37199">
        <ele>61.799999237061</ele>
        <time>2016-08-29T20:07:10.000Z</time>
      </trkpt>
      <trkpt lat="48.88286" lon="2.37172">
        <ele>61.599998474121</ele>
        <time>2016-08-29T20:07:13.000Z</time>
      </trkpt>
      <trkpt lat="48.88281" lon="2.37141">
        <ele>61</ele>
        <time>2016-08-29T20:07:16.000Z</time>
      </trkpt>
      <trkpt lat="48.88276" lon="2.37115">
        <ele>60.599998474121</ele>
        <time>2016-08-29T20:07:19.000Z</time>
      </trkpt>
      <trkpt lat="48.88275" lon="2.37093">
        <ele>60.200000762939</ele>
        <time>2016-08-29T20:07:22.000Z</time>
      </trkpt>
      <trkpt lat="48.88287" lon="2.37073">
        <ele>58.599998474121</ele>
        <time>2016-08-29T20:07:32.000Z</time>
      </trkpt>
      <trkpt lat="48.88288" lon="2.37072">
        <ele>58.400001525879</ele>
        <time>2016-08-29T20:07:33.000Z</time>
      </trkpt>
      <trkpt lat="48.88293" lon="2.37069">
        <ele>58</ele>
        <time>2016-08-29T20:07:38.000Z</time>
      </trkpt>
      <trkpt lat="48.88298" lon="2.37065">
        <ele>57.400001525879</ele>
        <time>2016-08-29T20:07:46.000Z</time>
      </trkpt>
      <trkpt lat="48.88307" lon="2.37045">
        <ele>55.799999237061</ele>
        <time>2016-08-29T20:08:35.000Z</time>
      </trkpt>
      <trkpt lat="48.88309" lon="2.37041">
        <ele>55.400001525879</ele>
        <time>2016-08-29T20:08:51.000Z</time>
      </trkpt>
      <trkpt lat="48.88306" lon="2.37044">
        <ele>55.799999237061</ele>
        <time>2016-08-29T20:08:55.000Z</time>
      </trkpt>
      <trkpt lat="48.88298" lon="2.37054">
        <ele>56.799999237061</ele>
        <time>2016-08-29T20:09:08.000Z</time>
      </trkpt>
      <trkpt lat="48.88282" lon="2.37043">
        <ele>57.599998474121</ele>
        <time>2016-08-29T20:10:09.000Z</time>
      </trkpt>
      <trkpt lat="48.88275" lon="2.37017">
        <ele>56.799999237061</ele>
        <time>2016-08-29T20:10:20.000Z</time>
      </trkpt>
      <trkpt lat="48.88271" lon="2.36991">
        <ele>56</ele>
        <time>2016-08-29T20:10:41.000Z</time>
      </trkpt>
      <trkpt lat="48.88263" lon="2.36966">
        <ele>56.200000762939</ele>
        <time>2016-08-29T20:10:49.000Z</time>
      </trkpt>
      <trkpt lat="48.88256" lon="2.36939">
        <ele>56.400001525879</ele>
        <time>2016-08-29T20:10:56.000Z</time>
      </trkpt>
      <trkpt lat="48.8824" lon="2.36922">
        <ele>56.599998474121</ele>
        <time>2016-08-29T20:11:03.000Z</time>
      </trkpt>
      <trkpt lat="48.88222" lon="2.36916">
        <ele>56.400001525879</ele>
        <time>2016-08-29T20:11:08.000Z</time>
      </trkpt>
      <trkpt lat="48.88205" lon="2.36905">
        <ele>56</ele>
        <time>2016-08-29T20:11:12.000Z</time>
      </trkpt>
      <trkpt lat="48.88186" lon="2.36891">
        <ele>55.599998474121</ele>
        <time>2016-08-29T20:11:16.000Z</time>
      </trkpt>
      <trkpt lat="48.88169" lon="2.36877">
        <ele>54.799999237061</ele>
        <time>2016-08-29T20:11:19.000Z</time>
      </trkpt>
      <trkpt lat="48.88149" lon="2.36859">
        <ele>53.799999237061</ele>
        <time>2016-08-29T20:11:22.000Z</time>
      </trkpt>
      <trkpt lat="48.8813" lon="2.36841">
        <ele>53</ele>
        <time>2016-08-29T20:11:25.000Z</time>
      </trkpt>
      <trkpt lat="48.88111" lon="2.3682">
        <ele>52.599998474121</ele>
        <time>2016-08-29T20:11:28.000Z</time>
      </trkpt>
      <trkpt lat="48.88091" lon="2.36799">
        <ele>53.799999237061</ele>
        <time>2016-08-29T20:11:31.000Z</time>
      </trkpt>
      <trkpt lat="48.8807" lon="2.3678">
        <ele>55.200000762939</ele>
        <time>2016-08-29T20:11:34.000Z</time>
      </trkpt>
      <trkpt lat="48.8805" lon="2.36761">
        <ele>56.599998474121</ele>
        <time>2016-08-29T20:11:37.000Z</time>
      </trkpt>
      <trkpt lat="48.88031" lon="2.36743">
        <ele>57.799999237061</ele>
        <time>2016-08-29T20:11:40.000Z</time>
      </trkpt>
      <trkpt lat="48.88012" lon="2.36727">
        <ele>57.799999237061</ele>
        <time>2016-08-29T20:11:44.000Z</time>
      </trkpt>
      <trkpt lat="48.88004" lon="2.36724">
        <ele>57.799999237061</ele>
        <time>2016-08-29T20:11:46.000Z</time>
      </trkpt>
      <trkpt lat="48.87999" lon="2.36721">
        <ele>57.799999237061</ele>
        <time>2016-08-29T20:11:50.000Z</time>
      </trkpt>
      <trkpt lat="48.8799" lon="2.36712">
        <ele>57.599998474121</ele>
        <time>2016-08-29T20:12:16.000Z</time>
      </trkpt>
      <trkpt lat="48.8797" lon="2.36711">
        <ele>57.599998474121</ele>
        <time>2016-08-29T20:12:20.000Z</time>
      </trkpt>
      <trkpt lat="48.87949" lon="2.36698">
        <ele>57.400001525879</ele>
        <time>2016-08-29T20:12:24.000Z</time>
      </trkpt>
      <trkpt lat="48.87926" lon="2.36686">
        <ele>56.599998474121</ele>
        <time>2016-08-29T20:12:28.000Z</time>
      </trkpt>
      <trkpt lat="48.87908" lon="2.36674">
        <ele>55.599998474121</ele>
        <time>2016-08-29T20:12:31.000Z</time>
      </trkpt>
      <trkpt lat="48.87891" lon="2.36665">
        <ele>54.599998474121</ele>
        <time>2016-08-29T20:12:34.000Z</time>
      </trkpt>
      <trkpt lat="48.87869" lon="2.36652">
        <ele>53.200000762939</ele>
        <time>2016-08-29T20:12:38.000Z</time>
      </trkpt>
      <trkpt lat="48.87852" lon="2.36639">
        <ele>52</ele>
        <time>2016-08-29T20:12:41.000Z</time>
      </trkpt>
      <trkpt lat="48.87837" lon="2.36624">
        <ele>51</ele>
        <time>2016-08-29T20:12:44.000Z</time>
      </trkpt>
      <trkpt lat="48.87819" lon="2.36607">
        <ele>50</ele>
        <time>2016-08-29T20:12:48.000Z</time>
      </trkpt>
      <trkpt lat="48.878" lon="2.36589">
        <ele>49</ele>
        <time>2016-08-29T20:12:52.000Z</time>
      </trkpt>
      <trkpt lat="48.87783" lon="2.36574">
        <ele>48.200000762939</ele>
        <time>2016-08-29T20:12:56.000Z</time>
      </trkpt>
      <trkpt lat="48.87772" lon="2.36561">
        <ele>47.799999237061</ele>
        <time>2016-08-29T20:13:00.000Z</time>
      </trkpt>
      <trkpt lat="48.87768" lon="2.36556">
        <ele>47.599998474121</ele>
        <time>2016-08-29T20:13:04.000Z</time>
      </trkpt>
      <trkpt lat="48.87764" lon="2.36555">
        <ele>47.599998474121</ele>
        <time>2016-08-29T20:13:06.000Z</time>
      </trkpt>
      <trkpt lat="48.87744" lon="2.3655">
        <ele>47.599998474121</ele>
        <time>2016-08-29T20:13:27.000Z</time>
      </trkpt>
      <trkpt lat="48.87727" lon="2.36538">
        <ele>47.599998474121</ele>
        <time>2016-08-29T20:13:32.000Z</time>
      </trkpt>
      <trkpt lat="48.8771" lon="2.36526">
        <ele>47.400001525879</ele>
        <time>2016-08-29T20:13:36.000Z</time>
      </trkpt>
      <trkpt lat="48.87693" lon="2.36511">
        <ele>47.200000762939</ele>
        <time>2016-08-29T20:13:40.000Z</time>
      </trkpt>
      <trkpt lat="48.87688" lon="2.36508">
        <ele>47.200000762939</ele>
        <time>2016-08-29T20:13:41.000Z</time>
      </trkpt>
      <trkpt lat="48.87671" lon="2.36495">
        <ele>46.200000762939</ele>
        <time>2016-08-29T20:13:44.000Z</time>
      </trkpt>
      <trkpt lat="48.87652" lon="2.36482">
        <ele>45.400001525879</ele>
        <time>2016-08-29T20:13:47.000Z</time>
      </trkpt>
      <trkpt lat="48.87634" lon="2.36467">
        <ele>44.599998474121</ele>
        <time>2016-08-29T20:13:50.000Z</time>
      </trkpt>
      <trkpt lat="48.87617" lon="2.36451">
        <ele>43.799999237061</ele>
        <time>2016-08-29T20:13:53.000Z</time>
      </trkpt>
      <trkpt lat="48.87601" lon="2.36434">
        <ele>43.200000762939</ele>
        <time>2016-08-29T20:13:56.000Z</time>
      </trkpt>
      <trkpt lat="48.87586" lon="2.36421">
        <ele>43.400001525879</ele>
        <time>2016-08-29T20:13:59.000Z</time>
      </trkpt>
      <trkpt lat="48.8758" lon="2.36416">
        <ele>43.400001525879</ele>
        <time>2016-08-29T20:14:00.000Z</time>
      </trkpt>
      <trkpt lat="48.87565" lon="2.36402">
        <ele>43.799999237061</ele>
        <time>2016-08-29T20:14:03.000Z</time>
      </trkpt>
      <trkpt lat="48.87548" lon="2.36392">
        <ele>44.200000762939</ele>
        <time>2016-08-29T20:14:06.000Z</time>
      </trkpt>
      <trkpt lat="48.87534" lon="2.36375">
        <ele>44.799999237061</ele>
        <time>2016-08-29T20:14:09.000Z</time>
      </trkpt>
      <trkpt lat="48.87517" lon="2.36357">
        <ele>45.400001525879</ele>
        <time>2016-08-29T20:14:13.000Z</time>
      </trkpt>
      <trkpt lat="48.87503" lon="2.36331">
        <ele>46</ele>
        <time>2016-08-29T20:14:17.000Z</time>
      </trkpt>
      <trkpt lat="48.875" lon="2.36327">
        <ele>46</ele>
        <time>2016-08-29T20:14:18.000Z</time>
      </trkpt>
      <trkpt lat="48.87482" lon="2.36312">
        <ele>45.599998474121</ele>
        <time>2016-08-29T20:14:23.000Z</time>
      </trkpt>
      <trkpt lat="48.87474" lon="2.3631">
        <ele>45.400001525879</ele>
        <time>2016-08-29T20:14:25.000Z</time>
      </trkpt>
      <trkpt lat="48.87459" lon="2.36302">
        <ele>45.200000762939</ele>
        <time>2016-08-29T20:14:29.000Z</time>
      </trkpt>
      <trkpt lat="48.87448" lon="2.36296">
        <ele>45.200000762939</ele>
        <time>2016-08-29T20:14:32.000Z</time>
      </trkpt>
      <trkpt lat="48.87435" lon="2.36285">
        <ele>45</ele>
        <time>2016-08-29T20:14:36.000Z</time>
      </trkpt>
      <trkpt lat="48.87432" lon="2.36283">
        <ele>45.200000762939</ele>
        <time>2016-08-29T20:14:37.000Z</time>
      </trkpt>
      <trkpt lat="48.87431" lon="2.36267">
        <ele>44.799999237061</ele>
        <time>2016-08-29T20:14:43.000Z</time>
      </trkpt>
      <trkpt lat="48.87432" lon="2.36266">
        <ele>44.599998474121</ele>
        <time>2016-08-29T20:14:44.000Z</time>
      </trkpt>
      <trkpt lat="48.87424" lon="2.36246">
        <ele>44.599998474121</ele>
        <time>2016-08-29T20:15:05.000Z</time>
      </trkpt>
      <trkpt lat="48.87402" lon="2.36227">
        <ele>44.799999237061</ele>
        <time>2016-08-29T20:15:11.000Z</time>
      </trkpt>
      <trkpt lat="48.87388" lon="2.36211">
        <ele>45</ele>
        <time>2016-08-29T20:15:14.000Z</time>
      </trkpt>
      <trkpt lat="48.87374" lon="2.36191">
        <ele>45</ele>
        <time>2016-08-29T20:15:18.000Z</time>
      </trkpt>
      <trkpt lat="48.87359" lon="2.36171">
        <ele>45</ele>
        <time>2016-08-29T20:15:22.000Z</time>
      </trkpt>
      <trkpt lat="48.87344" lon="2.36149">
        <ele>45.200000762939</ele>
        <time>2016-08-29T20:15:26.000Z</time>
      </trkpt>
      <trkpt lat="48.87316" lon="2.36139">
        <ele>45</ele>
        <time>2016-08-29T20:15:30.000Z</time>
      </trkpt>
      <trkpt lat="48.87295" lon="2.36131">
        <ele>44.799999237061</ele>
        <time>2016-08-29T20:15:34.000Z</time>
      </trkpt>
      <trkpt lat="48.87274" lon="2.3612">
        <ele>44.599998474121</ele>
        <time>2016-08-29T20:15:39.000Z</time>
      </trkpt>
      <trkpt lat="48.87267" lon="2.36114">
        <ele>44.799999237061</ele>
        <time>2016-08-29T20:15:41.000Z</time>
      </trkpt>
      <trkpt lat="48.87251" lon="2.36095">
        <ele>45.400001525879</ele>
        <time>2016-08-29T20:15:47.000Z</time>
      </trkpt>
      <trkpt lat="48.87232" lon="2.36082">
        <ele>46</ele>
        <time>2016-08-29T20:15:53.000Z</time>
      </trkpt>
      <trkpt lat="48.87212" lon="2.36072">
        <ele>46.200000762939</ele>
        <time>2016-08-29T20:15:58.000Z</time>
      </trkpt>
      <trkpt lat="48.87209" lon="2.36071">
        <ele>46.200000762939</ele>
        <time>2016-08-29T20:15:59.000Z</time>
      </trkpt>
      <trkpt lat="48.87201" lon="2.36066">
        <ele>46.200000762939</ele>
        <time>2016-08-29T20:16:01.000Z</time>
      </trkpt>
      <trkpt lat="48.87175" lon="2.36068">
        <ele>46.599998474121</ele>
        <time>2016-08-29T20:16:03.000Z</time>
      </trkpt>
      <trkpt lat="48.87163" lon="2.36059">
        <ele>47.200000762939</ele>
        <time>2016-08-29T20:16:07.000Z</time>
      </trkpt>
      <trkpt lat="48.87145" lon="2.36049">
        <ele>47.599998474121</ele>
        <time>2016-08-29T20:16:15.000Z</time>
      </trkpt>
      <trkpt lat="48.87128" lon="2.36028">
        <ele>48.599998474121</ele>
        <time>2016-08-29T20:16:29.000Z</time>
      </trkpt>
      <trkpt lat="48.87113" lon="2.36011">
        <ele>49.400001525879</ele>
        <time>2016-08-29T20:16:35.000Z</time>
      </trkpt>
      <trkpt lat="48.87095" lon="2.3599">
        <ele>49.599998474121</ele>
        <time>2016-08-29T20:16:40.000Z</time>
      </trkpt>
      <trkpt lat="48.8708" lon="2.35972">
        <ele>48.799999237061</ele>
        <time>2016-08-29T20:16:45.000Z</time>
      </trkpt>
      <trkpt lat="48.87065" lon="2.35966">
        <ele>48.200000762939</ele>
        <time>2016-08-29T20:16:51.000Z</time>
      </trkpt>
      <trkpt lat="48.87054" lon="2.35986">
        <ele>48</ele>
        <time>2016-08-29T20:16:57.000Z</time>
      </trkpt>
      <trkpt lat="48.87042" lon="2.3601">
        <ele>47.200000762939</ele>
        <time>2016-08-29T20:17:03.000Z</time>
      </trkpt>
      <trkpt lat="48.87026" lon="2.3603">
        <ele>47.400001525879</ele>
        <time>2016-08-29T20:17:08.000Z</time>
      </trkpt>
      <trkpt lat="48.87013" lon="2.3605">
        <ele>47.799999237061</ele>
        <time>2016-08-29T20:17:13.000Z</time>
      </trkpt>
      <trkpt lat="48.87002" lon="2.36072">
        <ele>48.400001525879</ele>
        <time>2016-08-29T20:17:19.000Z</time>
      </trkpt>
      <trkpt lat="48.86988" lon="2.36096">
        <ele>48.799999237061</ele>
        <time>2016-08-29T20:17:24.000Z</time>
      </trkpt>
      <trkpt lat="48.86973" lon="2.36121">
        <ele>49</ele>
        <time>2016-08-29T20:17:29.000Z</time>
      </trkpt>
      <trkpt lat="48.8696" lon="2.3614">
        <ele>48.599998474121</ele>
        <time>2016-08-29T20:17:33.000Z</time>
      </trkpt>
      <trkpt lat="48.86949" lon="2.36165">
        <ele>48</ele>
        <time>2016-08-29T20:17:37.000Z</time>
      </trkpt>
      <trkpt lat="48.86939" lon="2.36193">
        <ele>47.599998474121</ele>
        <time>2016-08-29T20:17:42.000Z</time>
      </trkpt>
      <trkpt lat="48.86937" lon="2.36207">
        <ele>47.400001525879</ele>
        <time>2016-08-29T20:17:44.000Z</time>
      </trkpt>
      <trkpt lat="48.86933" lon="2.36222">
        <ele>47.200000762939</ele>
        <time>2016-08-29T20:17:47.000Z</time>
      </trkpt>
      <trkpt lat="48.8693" lon="2.36231">
        <ele>47</ele>
        <time>2016-08-29T20:17:50.000Z</time>
      </trkpt>
      <trkpt lat="48.86919" lon="2.36252">
        <ele>46.599998474121</ele>
        <time>2016-08-29T20:17:56.000Z</time>
      </trkpt>
      <trkpt lat="48.86914" lon="2.36264">
        <ele>46.400001525879</ele>
        <time>2016-08-29T20:17:59.000Z</time>
      </trkpt>
      <trkpt lat="48.86908" lon="2.36277">
        <ele>46</ele>
        <time>2016-08-29T20:18:06.000Z</time>
      </trkpt>
      <trkpt lat="48.86887" lon="2.36282">
        <ele>45.400001525879</ele>
        <time>2016-08-29T20:18:09.000Z</time>
      </trkpt>
      <trkpt lat="48.86864" lon="2.36288">
        <ele>44</ele>
        <time>2016-08-29T20:18:14.000Z</time>
      </trkpt>
      <trkpt lat="48.86844" lon="2.36281">
        <ele>44.200000762939</ele>
        <time>2016-08-29T20:18:20.000Z</time>
      </trkpt>
      <trkpt lat="48.86837" lon="2.36268">
        <ele>45</ele>
        <time>2016-08-29T20:18:53.000Z</time>
      </trkpt>
      <trkpt lat="48.86821" lon="2.36254">
        <ele>46</ele>
        <time>2016-08-29T20:18:58.000Z</time>
      </trkpt>
      <trkpt lat="48.86802" lon="2.36241">
        <ele>46.799999237061</ele>
        <time>2016-08-29T20:19:03.000Z</time>
      </trkpt>
      <trkpt lat="48.86785" lon="2.36252">
        <ele>46.599998474121</ele>
        <time>2016-08-29T20:19:08.000Z</time>
      </trkpt>
      <trkpt lat="48.86773" lon="2.36273">
        <ele>45.200000762939</ele>
        <time>2016-08-29T20:19:12.000Z</time>
      </trkpt>
      <trkpt lat="48.8676" lon="2.36294">
        <ele>43.599998474121</ele>
        <time>2016-08-29T20:19:16.000Z</time>
      </trkpt>
      <trkpt lat="48.86745" lon="2.36318">
        <ele>43.400001525879</ele>
        <time>2016-08-29T20:19:21.000Z</time>
      </trkpt>
      <trkpt lat="48.8673" lon="2.36305">
        <ele>44.400001525879</ele>
        <time>2016-08-29T20:19:25.000Z</time>
      </trkpt>
      <trkpt lat="48.86728" lon="2.36298">
        <ele>44.400001525879</ele>
        <time>2016-08-29T20:19:26.000Z</time>
      </trkpt>
      <trkpt lat="48.86718" lon="2.36272">
        <ele>45.200000762939</ele>
        <time>2016-08-29T20:19:30.000Z</time>
      </trkpt>
      <trkpt lat="48.86707" lon="2.36242">
        <ele>47</ele>
        <time>2016-08-29T20:19:34.000Z</time>
      </trkpt>
      <trkpt lat="48.86703" lon="2.36236">
        <ele>46.799999237061</ele>
        <time>2016-08-29T20:19:35.000Z</time>
      </trkpt>
      <trkpt lat="48.8669" lon="2.36213">
        <ele>46.599998474121</ele>
        <time>2016-08-29T20:19:39.000Z</time>
      </trkpt>
      <trkpt lat="48.86683" lon="2.36188">
        <ele>46.200000762939</ele>
        <time>2016-08-29T20:19:43.000Z</time>
      </trkpt>
      <trkpt lat="48.86676" lon="2.36172">
        <ele>45.799999237061</ele>
        <time>2016-08-29T20:19:46.000Z</time>
      </trkpt>
      <trkpt lat="48.8667" lon="2.36153">
        <ele>45.400001525879</ele>
        <time>2016-08-29T20:19:49.000Z</time>
      </trkpt>
      <trkpt lat="48.8666" lon="2.36127">
        <ele>45</ele>
        <time>2016-08-29T20:19:53.000Z</time>
      </trkpt>
      <trkpt lat="48.86648" lon="2.36098">
        <ele>44.599998474121</ele>
        <time>2016-08-29T20:19:58.000Z</time>
      </trkpt>
      <trkpt lat="48.86643" lon="2.36065">
        <ele>44.599998474121</ele>
        <time>2016-08-29T20:20:03.000Z</time>
      </trkpt>
      <trkpt lat="48.86642" lon="2.36037">
        <ele>44.799999237061</ele>
        <time>2016-08-29T20:20:06.000Z</time>
      </trkpt>
      <trkpt lat="48.86634" lon="2.36009">
        <ele>44.200000762939</ele>
        <time>2016-08-29T20:20:10.000Z</time>
      </trkpt>
      <trkpt lat="48.86624" lon="2.35981">
        <ele>44.200000762939</ele>
        <time>2016-08-29T20:20:14.000Z</time>
      </trkpt>
      <trkpt lat="48.86616" lon="2.35952">
        <ele>44.599998474121</ele>
        <time>2016-08-29T20:20:18.000Z</time>
      </trkpt>
      <trkpt lat="48.86607" lon="2.35922">
        <ele>45</ele>
        <time>2016-08-29T20:20:22.000Z</time>
      </trkpt>
      <trkpt lat="48.86596" lon="2.35892">
        <ele>45</ele>
        <time>2016-08-29T20:20:26.000Z</time>
      </trkpt>
      <trkpt lat="48.86589" lon="2.3586">
        <ele>44.799999237061</ele>
        <time>2016-08-29T20:20:30.000Z</time>
      </trkpt>
      <trkpt lat="48.86581" lon="2.35839">
        <ele>44.599998474121</ele>
        <time>2016-08-29T20:20:33.000Z</time>
      </trkpt>
      <trkpt lat="48.86582" lon="2.35806">
        <ele>44.400001525879</ele>
        <time>2016-08-29T20:20:37.000Z</time>
      </trkpt>
      <trkpt lat="48.86579" lon="2.35782">
        <ele>44.599998474121</ele>
        <time>2016-08-29T20:20:40.000Z</time>
      </trkpt>
      <trkpt lat="48.86574" lon="2.35768">
        <ele>44.799999237061</ele>
        <time>2016-08-29T20:20:42.000Z</time>
      </trkpt>
      <trkpt lat="48.86565" lon="2.3574">
        <ele>45</ele>
        <time>2016-08-29T20:20:46.000Z</time>
      </trkpt>
      <trkpt lat="48.86557" lon="2.35714">
        <ele>45.400001525879</ele>
        <time>2016-08-29T20:20:50.000Z</time>
      </trkpt>
      <trkpt lat="48.86556" lon="2.35707">
        <ele>45.400001525879</ele>
        <time>2016-08-29T20:20:51.000Z</time>
      </trkpt>
      <trkpt lat="48.86546" lon="2.35677">
        <ele>45.400001525879</ele>
        <time>2016-08-29T20:20:56.000Z</time>
      </trkpt>
      <trkpt lat="48.86544" lon="2.35666">
        <ele>45.400001525879</ele>
        <time>2016-08-29T20:20:58.000Z</time>
      </trkpt>
      <trkpt lat="48.86539" lon="2.35643">
        <ele>45.400001525879</ele>
        <time>2016-08-29T20:21:02.000Z</time>
      </trkpt>
      <trkpt lat="48.86537" lon="2.35618">
        <ele>45.400001525879</ele>
        <time>2016-08-29T20:21:06.000Z</time>
      </trkpt>
      <trkpt lat="48.86538" lon="2.35593">
        <ele>45.400001525879</ele>
        <time>2016-08-29T20:21:11.000Z</time>
      </trkpt>
      <trkpt lat="48.86532" lon="2.35571">
        <ele>45.799999237061</ele>
        <time>2016-08-29T20:21:21.000Z</time>
      </trkpt>
      <trkpt lat="48.86515" lon="2.35558">
        <ele>46.400001525879</ele>
        <time>2016-08-29T20:21:27.000Z</time>
      </trkpt>
      <trkpt lat="48.86508" lon="2.35552">
        <ele>46.400001525879</ele>
        <time>2016-08-29T20:21:29.000Z</time>
      </trkpt>
      <trkpt lat="48.8649" lon="2.35538">
        <ele>46</ele>
        <time>2016-08-29T20:21:34.000Z</time>
      </trkpt>
      <trkpt lat="48.8647" lon="2.35526">
        <ele>45.400001525879</ele>
        <time>2016-08-29T20:21:38.000Z</time>
      </trkpt>
      <trkpt lat="48.86453" lon="2.35515">
        <ele>45.200000762939</ele>
        <time>2016-08-29T20:21:41.000Z</time>
      </trkpt>
      <trkpt lat="48.86434" lon="2.35506">
        <ele>45</ele>
        <time>2016-08-29T20:21:44.000Z</time>
      </trkpt>
      <trkpt lat="48.86415" lon="2.35497">
        <ele>44.799999237061</ele>
        <time>2016-08-29T20:21:47.000Z</time>
      </trkpt>
      <trkpt lat="48.86401" lon="2.35492">
        <ele>44.599998474121</ele>
        <time>2016-08-29T20:21:49.000Z</time>
      </trkpt>
      <trkpt lat="48.86388" lon="2.35486">
        <ele>44.599998474121</ele>
        <time>2016-08-29T20:21:51.000Z</time>
      </trkpt>
      <trkpt lat="48.86366" lon="2.35478">
        <ele>44.400001525879</ele>
        <time>2016-08-29T20:21:54.000Z</time>
      </trkpt>
      <trkpt lat="48.86353" lon="2.35472">
        <ele>44.400001525879</ele>
        <time>2016-08-29T20:21:56.000Z</time>
      </trkpt>
      <trkpt lat="48.86333" lon="2.35462">
        <ele>44.799999237061</ele>
        <time>2016-08-29T20:21:59.000Z</time>
      </trkpt>
      <trkpt lat="48.8631" lon="2.35452">
        <ele>45.200000762939</ele>
        <time>2016-08-29T20:22:03.000Z</time>
      </trkpt>
      <trkpt lat="48.86291" lon="2.35445">
        <ele>45.799999237061</ele>
        <time>2016-08-29T20:22:06.000Z</time>
      </trkpt>
      <trkpt lat="48.8628" lon="2.35442">
        <ele>46</ele>
        <time>2016-08-29T20:22:08.000Z</time>
      </trkpt>
      <trkpt lat="48.8627" lon="2.35439">
        <ele>46.400001525879</ele>
        <time>2016-08-29T20:22:10.000Z</time>
      </trkpt>
      <trkpt lat="48.86253" lon="2.35432">
        <ele>46.400001525879</ele>
        <time>2016-08-29T20:22:13.000Z</time>
      </trkpt>
      <trkpt lat="48.8624" lon="2.35423">
        <ele>46.599998474121</ele>
        <time>2016-08-29T20:22:15.000Z</time>
      </trkpt>
      <trkpt lat="48.86219" lon="2.35412">
        <ele>46.599998474121</ele>
        <time>2016-08-29T20:22:18.000Z</time>
      </trkpt>
      <trkpt lat="48.86198" lon="2.35399">
        <ele>47.200000762939</ele>
        <time>2016-08-29T20:22:21.000Z</time>
      </trkpt>
      <trkpt lat="48.86178" lon="2.35387">
        <ele>48.599998474121</ele>
        <time>2016-08-29T20:22:24.000Z</time>
      </trkpt>
      <trkpt lat="48.8616" lon="2.35377">
        <ele>50.400001525879</ele>
        <time>2016-08-29T20:22:26.000Z</time>
      </trkpt>
      <trkpt lat="48.86137" lon="2.35365">
        <ele>52.400001525879</ele>
        <time>2016-08-29T20:22:29.000Z</time>
      </trkpt>
      <trkpt lat="48.86116" lon="2.35359">
        <ele>53.400001525879</ele>
        <time>2016-08-29T20:22:32.000Z</time>
      </trkpt>
      <trkpt lat="48.86096" lon="2.3535">
        <ele>53.599998474121</ele>
        <time>2016-08-29T20:22:35.000Z</time>
      </trkpt>
      <trkpt lat="48.86075" lon="2.35337">
        <ele>53.200000762939</ele>
        <time>2016-08-29T20:22:38.000Z</time>
      </trkpt>
      <trkpt lat="48.86054" lon="2.35321">
        <ele>52.799999237061</ele>
        <time>2016-08-29T20:22:41.000Z</time>
      </trkpt>
      <trkpt lat="48.86037" lon="2.35306">
        <ele>52.200000762939</ele>
        <time>2016-08-29T20:22:44.000Z</time>
      </trkpt>
      <trkpt lat="48.86022" lon="2.3529">
        <ele>51.799999237061</ele>
        <time>2016-08-29T20:22:47.000Z</time>
      </trkpt>
      <trkpt lat="48.85998" lon="2.35269">
        <ele>51</ele>
        <time>2016-08-29T20:22:51.000Z</time>
      </trkpt>
      <trkpt lat="48.85975" lon="2.35259">
        <ele>49.400001525879</ele>
        <time>2016-08-29T20:22:54.000Z</time>
      </trkpt>
      <trkpt lat="48.85955" lon="2.35247">
        <ele>48.400001525879</ele>
        <time>2016-08-29T20:22:56.000Z</time>
      </trkpt>
      <trkpt lat="48.8593" lon="2.35234">
        <ele>47.400001525879</ele>
        <time>2016-08-29T20:22:59.000Z</time>
      </trkpt>
      <trkpt lat="48.85907" lon="2.35217">
        <ele>47.400001525879</ele>
        <time>2016-08-29T20:23:02.000Z</time>
      </trkpt>
      <trkpt lat="48.85892" lon="2.35209">
        <ele>47.799999237061</ele>
        <time>2016-08-29T20:23:04.000Z</time>
      </trkpt>
      <trkpt lat="48.85873" lon="2.35205">
        <ele>48.400001525879</ele>
        <time>2016-08-29T20:23:06.000Z</time>
      </trkpt>
      <trkpt lat="48.8585" lon="2.35195">
        <ele>48.200000762939</ele>
        <time>2016-08-29T20:23:09.000Z</time>
      </trkpt>
      <trkpt lat="48.85831" lon="2.35186">
        <ele>46.400001525879</ele>
        <time>2016-08-29T20:23:12.000Z</time>
      </trkpt>
      <trkpt lat="48.85813" lon="2.35177">
        <ele>44.599998474121</ele>
        <time>2016-08-29T20:23:15.000Z</time>
      </trkpt>
      <trkpt lat="48.85794" lon="2.3517">
        <ele>43</ele>
        <time>2016-08-29T20:23:18.000Z</time>
      </trkpt>
      <trkpt lat="48.85783" lon="2.35164">
        <ele>41.799999237061</ele>
        <time>2016-08-29T20:23:20.000Z</time>
      </trkpt>
      <trkpt lat="48.85768" lon="2.35158">
        <ele>40.799999237061</ele>
        <time>2016-08-29T20:23:23.000Z</time>
      </trkpt>
      <trkpt lat="48.85762" lon="2.35148">
        <ele>40.799999237061</ele>
        <time>2016-08-29T20:23:25.000Z</time>
      </trkpt>
      <trkpt lat="48.85768" lon="2.35122">
        <ele>42.599998474121</ele>
        <time>2016-08-29T20:23:28.000Z</time>
      </trkpt>
      <trkpt lat="48.85769" lon="2.35113">
        <ele>43.200000762939</ele>
        <time>2016-08-29T20:23:29.000Z</time>
      </trkpt>
      <trkpt lat="48.85776" lon="2.35087">
        <ele>45</ele>
        <time>2016-08-29T20:23:32.000Z</time>
      </trkpt>
      <trkpt lat="48.8578" lon="2.35071">
        <ele>45.799999237061</ele>
        <time>2016-08-29T20:23:34.000Z</time>
      </trkpt>
      <trkpt lat="48.85788" lon="2.35039">
        <ele>47.200000762939</ele>
        <time>2016-08-29T20:23:38.000Z</time>
      </trkpt>
      <trkpt lat="48.85793" lon="2.35022">
        <ele>48</ele>
        <time>2016-08-29T20:23:40.000Z</time>
      </trkpt>
      <trkpt lat="48.85802" lon="2.34997">
        <ele>47.599998474121</ele>
        <time>2016-08-29T20:23:43.000Z</time>
      </trkpt>
      <trkpt lat="48.8581" lon="2.34969">
        <ele>45.200000762939</ele>
        <time>2016-08-29T20:23:46.000Z</time>
      </trkpt>
      <trkpt lat="48.8582" lon="2.34939">
        <ele>44.599998474121</ele>
        <time>2016-08-29T20:23:49.000Z</time>
      </trkpt>
      <trkpt lat="48.85823" lon="2.34931">
        <ele>45</ele>
        <time>2016-08-29T20:23:50.000Z</time>
      </trkpt>
      <trkpt lat="48.85833" lon="2.34906">
        <ele>45.799999237061</ele>
        <time>2016-08-29T20:23:53.000Z</time>
      </trkpt>
      <trkpt lat="48.85842" lon="2.3488">
        <ele>46.200000762939</ele>
        <time>2016-08-29T20:23:56.000Z</time>
      </trkpt>
      <trkpt lat="48.85851" lon="2.34849">
        <ele>47.400001525879</ele>
        <time>2016-08-29T20:24:00.000Z</time>
      </trkpt>
      <trkpt lat="48.85857" lon="2.3483">
        <ele>48</ele>
        <time>2016-08-29T20:24:03.000Z</time>
      </trkpt>
      <trkpt lat="48.8586" lon="2.34817">
        <ele>47.799999237061</ele>
        <time>2016-08-29T20:24:05.000Z</time>
      </trkpt>
      <trkpt lat="48.85867" lon="2.3479">
        <ele>47.599998474121</ele>
        <time>2016-08-29T20:24:09.000Z</time>
      </trkpt>
      <trkpt lat="48.85876" lon="2.34763">
        <ele>47</ele>
        <time>2016-08-29T20:24:13.000Z</time>
      </trkpt>
      <trkpt lat="48.85882" lon="2.34751">
        <ele>46.200000762939</ele>
        <time>2016-08-29T20:24:15.000Z</time>
      </trkpt>
      <trkpt lat="48.859" lon="2.34744">
        <ele>45.599998474121</ele>
        <time>2016-08-29T20:24:19.000Z</time>
      </trkpt>
      <trkpt lat="48.85904" lon="2.34742">
        <ele>45.400001525879</ele>
        <time>2016-08-29T20:24:20.000Z</time>
      </trkpt>
      <trkpt lat="48.85921" lon="2.34728">
        <ele>45.200000762939</ele>
        <time>2016-08-29T20:24:24.000Z</time>
      </trkpt>
      <trkpt lat="48.85938" lon="2.34714">
        <ele>45.200000762939</ele>
        <time>2016-08-29T20:24:28.000Z</time>
      </trkpt>
      <trkpt lat="48.85946" lon="2.3471">
        <ele>45.400001525879</ele>
        <time>2016-08-29T20:24:30.000Z</time>
      </trkpt>
      <trkpt lat="48.85958" lon="2.34716">
        <ele>45.400001525879</ele>
        <time>2016-08-29T20:24:34.000Z</time>
      </trkpt>
      <trkpt lat="48.85963" lon="2.3472">
        <ele>45.200000762939</ele>
        <time>2016-08-29T20:24:36.000Z</time>
      </trkpt>
      <trkpt lat="48.85971" lon="2.34722">
        <ele>45.200000762939</ele>
        <time>2016-08-29T20:24:42.000Z</time>
      </trkpt>
      <trkpt lat="48.85972" lon="2.34722">
        <ele>45.200000762939</ele>
        <time>2016-08-29T20:24:43.000Z</time>
      </trkpt>
      <trkpt lat="48.85977" lon="2.34728">
        <ele>45.200000762939</ele>
        <time>2016-08-29T20:24:57.000Z</time>
      </trkpt>
      <trkpt lat="48.85975" lon="2.34721">
        <ele>45.400001525879</ele>
        <time>2016-08-29T20:25:06.000Z</time>
      </trkpt>
      <trkpt lat="48.85978" lon="2.34721">
        <ele>45.400001525879</ele>
        <time>2016-08-29T20:25:23.000Z</time>
      </trkpt>
      <trkpt lat="48.85972" lon="2.34719">
        <ele>45.400001525879</ele>
        <time>2016-08-29T20:25:31.000Z</time>
      </trkpt>
      <trkpt lat="48.85968" lon="2.34716">
        <ele>45.400001525879</ele>
        <time>2016-08-29T20:25:41.000Z</time>
      </trkpt>
    </trkseg>
  </trk>
</gpx>